Darstellungsparameter: Aktuell verwendete Einstellungen:
Skalierung der Graphiken ... ?
xyx+y,   Skalierungsfaktor:      Skalierung: Modus: x, Faktor: 1
Darstellungszeitraum ... ?
Vom - - bis: - -   Zeitraum: 07.12.2019 - 04.01.2020
Min/Max/Avg-Anzeige ... ?
Zeige MMA aktuell
Zeige MMA Monat
Zeige MMA alles
Zeige --A aktuell
Zeige --A Monat
Zeige --A alles
Keine MMA-Anzeige
MMA:
Average (ber die Originaldaten)
MMA-Basis: 07.12.2019 - 04.01.2020
Quicknavigation für Darstellung... ?
Tage:      1T, 2T, 3T, 5T -1T -2T -3T -5T +1T +2T +3T +5T
Wochen: 1W, 2W, 3W -1W -2W -3W +1W +2W +3W
Monate: 1M, 3M, 6M -1M -3M -6M +1M +3M +6M
Jahre:    1J, 3J, 5J, 10J -1J -3J -5J -10J +1J +3J +5J +10J
Nutze für die Darstellung ... ?
Originaldaten oder Mittelwerte auf ...
Stundenbasis Tagesbasis Wochenbasis
Monatsbasis Jahresbasis      Datenbasis: Original-Daten
Darstellen als:
Statistik (Auto) Statistik J:M      Darstellung:
Zur Graphik,    zurück zur Übersicht aller Sensoren.
 
Tabellarische Datenbersicht: ?
 
Sensor: Nr:Datum:Temp:Feuchte:
Aussen-T/F 1 07-12-2019 00:01:17 6.9 C 30 %
2 07-12-2019 00:11:17 7 C 28 %
3 07-12-2019 00:21:17 7.2 C 28 %
4 07-12-2019 00:31:17 7.2 C 28 %
5 07-12-2019 00:41:17 7.2 C 28 %
6 07-12-2019 00:51:17 7.4 C 28 %
7 07-12-2019 01:01:17 7.4 C 28 %
8 07-12-2019 01:11:17 7.6 C 28 %
9 07-12-2019 01:21:17 7.7 C 28 %
10 07-12-2019 01:31:18 7.8 C 28 %
11 07-12-2019 01:41:18 7.6 C 29 %
12 07-12-2019 01:51:17 7.6 C 29 %
13 07-12-2019 02:01:17 7.5 C 30 %
14 07-12-2019 02:11:17 7.7 C 31 %
15 07-12-2019 02:21:17 7.5 C 31 %
16 07-12-2019 02:31:17 7.1 C 35 %
17 07-12-2019 02:41:17 7.2 C 38 %
18 07-12-2019 02:51:17 7.3 C 35 %
19 07-12-2019 03:01:17 7.4 C 35 %
20 07-12-2019 03:11:17 7.6 C 33 %
21 07-12-2019 03:21:17 8.4 C 30 %
22 07-12-2019 03:31:17 8.5 C 29 %
23 07-12-2019 03:41:17 8.7 C 28 %
24 07-12-2019 03:51:17 9 C 27 %
25 07-12-2019 04:01:18 8.4 C 29 %
Sensor: Nr:Datum:Temp:Feuchte:
Aussen-T/F 26 07-12-2019 04:11:18 8.5 C 29 %
27 07-12-2019 04:21:17 8 C 30 %
28 07-12-2019 04:31:17 7.9 C 30 %
29 07-12-2019 04:41:17 8 C 30 %
30 07-12-2019 04:51:17 8 C 30 %
31 07-12-2019 05:01:17 7.7 C 30 %
32 07-12-2019 05:11:17 8 C 30 %
33 07-12-2019 05:21:17 8 C 30 %
34 07-12-2019 05:31:17 7.8 C 31 %
35 07-12-2019 05:41:17 8.2 C 30 %
36 07-12-2019 05:51:18 7.2 C 31 %
37 07-12-2019 06:01:18 7.6 C 30 %
38 07-12-2019 06:11:18 8.7 C 26 %
39 07-12-2019 06:21:17 8.6 C 26 %
40 07-12-2019 06:31:18 8.2 C 26 %
41 07-12-2019 06:41:18 8.1 C 26 %
42 07-12-2019 06:51:17 7.5 C 27 %
43 07-12-2019 07:01:17 6.8 C 30 %
44 07-12-2019 07:11:17 7.1 C 28 %
45 07-12-2019 07:21:17 7.3 C 27 %
46 07-12-2019 07:31:17 6.8 C 30 %
47 07-12-2019 07:41:17 6.3 C 31 %
48 07-12-2019 07:51:18 7.8 C 28 %
49 07-12-2019 08:01:18 8 C 27 %
50 07-12-2019 08:11:18 7.9 C 28 %
Sensor: Nr:Datum:Temp:Feuchte:
Aussen-T/F 51 07-12-2019 08:21:17 8.1 C 28 %
52 07-12-2019 08:31:17 8.1 C 27 %
53 07-12-2019 08:41:17 8.3 C 28 %
54 07-12-2019 08:51:17 8.4 C 27 %
55 07-12-2019 09:01:17 8.4 C 27 %
56 07-12-2019 09:11:17 8.3 C 28 %
57 07-12-2019 09:21:17 8.2 C 28 %
58 07-12-2019 09:31:17 8.1 C 29 %
59 07-12-2019 09:41:17 8.3 C 28 %
60 07-12-2019 09:51:18 8.6 C 27 %
61 07-12-2019 10:01:17 8.6 C 27 %
62 07-12-2019 10:11:17 8.8 C 27 %
63 07-12-2019 10:21:17 9 C 26 %
64 07-12-2019 10:31:17 9.1 C 25 %
65 07-12-2019 10:41:17 9.1 C 26 %
66 07-12-2019 10:51:18 9.2 C 25 %
67 07-12-2019 11:01:18 9 C 26 %
68 07-12-2019 11:11:18 8.4 C 29 %
69 07-12-2019 11:21:17 8.3 C 30 %
70 07-12-2019 11:31:17 8.4 C 30 %
71 07-12-2019 11:41:17 8.5 C 30 %
72 07-12-2019 11:51:17 8.6 C 28 %
73 07-12-2019 12:01:17 8.8 C 27 %
74 07-12-2019 12:11:17 8.9 C 27 %
75 07-12-2019 12:21:17 9.2 C 25 %
Sensor: Nr:Datum:Temp:Feuchte:
Aussen-T/F 76 07-12-2019 12:31:18 9.4 C 25 %
77 07-12-2019 12:41:18 9.5 C 25 %
78 07-12-2019 12:51:17 9.5 C 25 %
79 07-12-2019 13:01:17 9.7 C 23 %
80 07-12-2019 13:11:17 10 C 20 %
81 07-12-2019 13:21:17 9.8 C 20 %
82 07-12-2019 13:31:17 9.8 C 20 %
83 07-12-2019 13:41:17 9.9 C 20 %
84 07-12-2019 13:51:17 9.9 C 20 %
85 07-12-2019 14:01:17 9.8 C 20 %
86 07-12-2019 14:11:17 9.7 C 20 %
87 07-12-2019 14:21:17 9.9 C 20 %
88 07-12-2019 14:31:18 9.9 C 20 %
89 07-12-2019 14:41:18 9.9 C 20 %
90 07-12-2019 14:51:17 9.9 C 20 %
91 07-12-2019 15:01:17 9.9 C 20 %
92 07-12-2019 15:11:17 9.7 C 21 %
93 07-12-2019 15:21:17 9.6 C 21 %
94 07-12-2019 15:31:17 9.7 C 21 %
95 07-12-2019 15:41:17 9.6 C 20 %
96 07-12-2019 15:51:17 9.4 C 23 %
97 07-12-2019 16:01:17 9 C 25 %
98 07-12-2019 16:11:17 8.9 C 25 %
99 07-12-2019 16:21:18 8.8 C 25 %
100 07-12-2019 16:31:17 8.6 C 26 %
Sensor: Nr:Datum:Temp:Feuchte:
Aussen-T/F 101 07-12-2019 16:41:18 8.5 C 26 %
102 07-12-2019 16:51:17 8.2 C 27 %
103 07-12-2019 17:01:17 8.1 C 29 %
104 07-12-2019 17:11:17 8.2 C 28 %
105 07-12-2019 17:21:17 8.1 C 28 %
106 07-12-2019 17:31:18 8.2 C 28 %
107 07-12-2019 17:41:18 8.3 C 27 %
108 07-12-2019 17:51:17 8.1 C 27 %
109 07-12-2019 18:01:18 8 C 28 %
110 07-12-2019 18:11:18 8 C 27 %
111 07-12-2019 18:21:17 7.8 C 28 %
112 07-12-2019 18:31:17 7.7 C 29 %
113 07-12-2019 18:41:17 7.6 C 30 %
114 07-12-2019 18:51:17 7.6 C 30 %
115 07-12-2019 19:01:17 7.5 C 31 %
116 07-12-2019 19:11:17 7.5 C 31 %
117 07-12-2019 19:21:17 7.5 C 32 %
118 07-12-2019 19:31:17 7.7 C 31 %
119 07-12-2019 19:41:17 7.6 C 30 %
120 07-12-2019 19:51:17 7.7 C 30 %
121 07-12-2019 20:01:18 7.4 C 30 %
122 07-12-2019 20:11:18 7.3 C 31 %
123 07-12-2019 20:21:17 7.3 C 31 %
124 07-12-2019 20:31:17 7.4 C 30 %
125 07-12-2019 20:41:17 7.6 C 30 %
Sensor: Nr:Datum:Temp:Feuchte:
Aussen-T/F 126 07-12-2019 20:51:17 7.6 C 30 %
127 07-12-2019 21:01:17 7.5 C 30 %
128 07-12-2019 21:11:17 7.6 C 30 %
129 07-12-2019 21:21:17 8 C 28 %
130 07-12-2019 21:31:17 8.1 C 28 %
131 07-12-2019 21:41:17 8.2 C 28 %
132 07-12-2019 21:51:17 7.9 C 28 %
133 07-12-2019 22:01:17 8.2 C 28 %
134 07-12-2019 22:11:17 8.1 C 27 %
135 07-12-2019 22:21:17 7.8 C 28 %
136 07-12-2019 22:31:18 7.7 C 30 %
137 07-12-2019 22:41:18 7.6 C 30 %
138 07-12-2019 22:51:17 7.5 C 31 %
139 07-12-2019 23:01:17 7.4 C 32 %
140 07-12-2019 23:11:17 7.6 C 31 %
141 07-12-2019 23:21:17 7.6 C 32 %
142 07-12-2019 23:31:17 7.5 C 32 %
143 07-12-2019 23:41:17 7.7 C 31 %
144 07-12-2019 23:51:18 7.9 C 28 %
145 08-12-2019 00:01:17 8.1 C 27 %
146 08-12-2019 00:11:17 8.9 C 23 %
147 08-12-2019 00:21:17 8.9 C 21 %
148 08-12-2019 00:31:18 9 C 21 %
149 08-12-2019 00:41:18 8.9 C 23 %
150 08-12-2019 00:51:17 8.5 C 25 %
Sensor: Nr:Datum:Temp:Feuchte:
Aussen-T/F 151 08-12-2019 01:01:18 8.3 C 25 %
152 08-12-2019 01:11:18 8.5 C 25 %
153 08-12-2019 01:21:17 8.4 C 26 %
154 08-12-2019 01:31:17 8.9 C 25 %
155 08-12-2019 01:41:17 8.8 C 25 %
156 08-12-2019 01:51:18 9.2 C 20 %
157 08-12-2019 02:01:17 9.2 C 20 %
158 08-12-2019 02:11:17 8.9 C 20 %
159 08-12-2019 02:21:17 9 C 20 %
160 08-12-2019 02:31:17 9.1 C 20 %
161 08-12-2019 02:41:18 9 C 20 %
162 08-12-2019 02:51:17 9.1 C 20 %
163 08-12-2019 03:01:17 9 C 20 %
164 08-12-2019 03:11:17 9.1 C 20 %
165 08-12-2019 03:21:17 9.1 C 20 %
166 08-12-2019 03:31:17 9.3 C 20 %
167 08-12-2019 03:41:17 9.3 C 20 %
168 08-12-2019 03:51:17 9.4 C 20 %
169 08-12-2019 04:01:17 9.7 C 20 %
170 08-12-2019 04:11:18 9.6 C 20 %
171 08-12-2019 04:21:17 9.5 C 20 %
172 08-12-2019 04:31:17 9.6 C 20 %
173 08-12-2019 04:41:17 9.6 C 20 %
174 08-12-2019 04:51:17 9.5 C 20 %
175 08-12-2019 05:01:17 9.6 C 20 %
Sensor: Nr:Datum:Temp:Feuchte:
Aussen-T/F 176 08-12-2019 05:11:17 9.5 C 21 %
177 08-12-2019 05:21:17 9.5 C 21 %
178 08-12-2019 05:31:17 9.4 C 23 %
179 08-12-2019 05:41:17 9.5 C 23 %
180 08-12-2019 05:51:17 9.2 C 25 %
181 08-12-2019 06:01:17 9.3 C 25 %
182 08-12-2019 06:11:18 9.5 C 25 %
183 08-12-2019 06:21:17 9.9 C 21 %
184 08-12-2019 06:31:17 9.8 C 23 %
185 08-12-2019 06:41:17 9.7 C 25 %
186 08-12-2019 06:51:17 9.9 C 23 %
187 08-12-2019 07:01:18 10 C 21 %
188 08-12-2019 07:11:18 10.1 C 20 %
189 08-12-2019 07:21:17 9.9 C 21 %
190 08-12-2019 07:31:17 10 C 21 %
191 08-12-2019 07:41:17 10.1 C 20 %
192 08-12-2019 07:51:17 10 C 20 %
193 08-12-2019 08:01:17 10 C 20 %
194 08-12-2019 08:11:17 10.2 C 20 %
195 08-12-2019 08:21:17 10.1 C 20 %
196 08-12-2019 08:31:17 10.3 C 21 %
197 08-12-2019 08:41:17 10.1 C 21 %
198 08-12-2019 08:51:17 10.3 C 21 %
199 08-12-2019 09:01:17 10.3 C 21 %
200 08-12-2019 09:11:17 10.1 C 21 %
Sensor: Nr:Datum:Temp:Feuchte:
Aussen-T/F 201 08-12-2019 09:21:17 10.2 C 21 %
202 08-12-2019 09:31:17 10.3 C 21 %
203 08-12-2019 09:41:17 10.4 C 21 %
204 08-12-2019 09:51:17 10.4 C 21 %
205 08-12-2019 10:01:17 10.4 C 21 %
206 08-12-2019 10:11:17 10.5 C 21 %
207 08-12-2019 10:21:17 10.5 C 22 %
208 08-12-2019 10:31:17 10.5 C 22 %
209 08-12-2019 10:41:17 10.1 C 25 %
210 08-12-2019 10:51:17 10.2 C 25 %
211 08-12-2019 11:01:17 10.5 C 25 %
212 08-12-2019 11:11:17 10.6 C 23 %
213 08-12-2019 11:21:17 10.8 C 23 %
214 08-12-2019 11:31:17 10.8 C 23 %
215 08-12-2019 11:41:17 10.8 C 22 %
216 08-12-2019 11:51:17 11 C 22 %
217 08-12-2019 12:01:18 11.1 C 22 %
218 08-12-2019 12:11:18 11.3 C 22 %
219 08-12-2019 12:21:17 11.4 C 22 %
220 08-12-2019 12:31:17 11.4 C 22 %
221 08-12-2019 12:41:17 11.4 C 23 %
222 08-12-2019 12:51:17 11.3 C 24 %
223 08-12-2019 13:01:18 11.5 C 24 %
224 08-12-2019 13:11:18 11.5 C 22 %
225 08-12-2019 13:21:17 11.3 C 25 %
Sensor: Nr:Datum:Temp:Feuchte:
Aussen-T/F 226 08-12-2019 13:31:17 11.1 C 25 %
227 08-12-2019 13:41:17 11.4 C 25 %
228 08-12-2019 13:51:17 11.4 C 25 %
229 08-12-2019 14:01:17 11.5 C 25 %
230 08-12-2019 14:11:17 11.5 C 25 %
231 08-12-2019 14:21:17 11.5 C 25 %
232 08-12-2019 14:31:18 11.7 C 25 %
233 08-12-2019 14:41:18 11.7 C 25 %
234 08-12-2019 14:51:17 11.7 C 25 %
235 08-12-2019 15:01:18 11.8 C 25 %
236 08-12-2019 15:11:18 11.8 C 25 %
237 08-12-2019 15:21:18 11.7 C 25 %
238 08-12-2019 15:31:18 11.7 C 25 %
239 08-12-2019 15:41:18 11.8 C 25 %
240 08-12-2019 15:51:17 11.8 C 25 %
241 08-12-2019 16:01:17 11.7 C 25 %
242 08-12-2019 16:11:17 11.8 C 25 %
243 08-12-2019 16:21:18 11.7 C 25 %
244 08-12-2019 16:31:18 11.6 C 26 %
245 08-12-2019 16:41:18 11.4 C 27 %
246 08-12-2019 16:51:17 9.4 C 31 %
247 08-12-2019 17:01:17 8.9 C 33 %
248 08-12-2019 17:11:17 8.8 C 33 %
249 08-12-2019 17:21:17 8.7 C 34 %
250 08-12-2019 17:31:17 9.2 C 27 %
Sensor: Nr:Datum:Temp:Feuchte:
Aussen-T/F 251 08-12-2019 17:41:17 8.5 C 33 %
252 08-12-2019 17:51:17 8.5 C 33 %
253 08-12-2019 18:01:17 8.5 C 32 %
254 08-12-2019 18:11:17 8.6 C 31 %
255 08-12-2019 18:21:17 8.2 C 33 %
256 08-12-2019 18:31:18 8.5 C 29 %
257 08-12-2019 18:41:18 8.5 C 29 %
258 08-12-2019 18:51:17 8.6 C 28 %
259 08-12-2019 19:01:17 8.9 C 27 %
260 08-12-2019 19:11:17 8.5 C 28 %
261 08-12-2019 19:21:17 8.5 C 28 %
262 08-12-2019 19:31:17 8.6 C 27 %
263 08-12-2019 19:41:17 8 C 31 %
264 08-12-2019 19:51:18 7.8 C 33 %
265 08-12-2019 20:01:17 7.5 C 36 %
266 08-12-2019 20:11:17 8.1 C 33 %
267 08-12-2019 20:21:17 8.2 C 30 %
268 08-12-2019 20:31:17 8.3 C 29 %
269 08-12-2019 20:41:17 8.5 C 28 %
270 08-12-2019 20:51:17 8.6 C 26 %
271 08-12-2019 21:01:18 8.8 C 26 %
272 08-12-2019 21:11:18 8.9 C 25 %
273 08-12-2019 21:21:17 8.4 C 26 %
274 08-12-2019 21:31:17 8.7 C 26 %
275 08-12-2019 21:41:17 8.4 C 26 %
Sensor: Nr:Datum:Temp:Feuchte:
Aussen-T/F 276 08-12-2019 21:51:18 8.4 C 26 %
277 08-12-2019 22:01:17 8.5 C 26 %
278 08-12-2019 22:11:17 7.9 C 27 %
279 08-12-2019 22:21:17 8.1 C 26 %
280 08-12-2019 22:31:17 8.6 C 26 %
281 08-12-2019 22:41:17 8.8 C 26 %
282 08-12-2019 22:51:17 8.7 C 25 %
283 08-12-2019 23:01:17 8.8 C 25 %
284 08-12-2019 23:11:17 8.7 C 26 %
285 08-12-2019 23:21:17 8.8 C 25 %
286 08-12-2019 23:31:18 8.7 C 25 %
287 08-12-2019 23:41:18 8.5 C 25 %
288 08-12-2019 23:51:17 8.4 C 21 %
289 09-12-2019 00:01:18 8.7 C 20 %
290 09-12-2019 00:11:18 8.1 C 21 %
291 09-12-2019 00:21:17 8.4 C 21 %
292 09-12-2019 00:31:17 8.4 C 21 %
293 09-12-2019 00:41:17 8.5 C 20 %
294 09-12-2019 00:51:17 8.4 C 20 %
295 09-12-2019 01:01:17 8.4 C 20 %
296 09-12-2019 01:11:17 8.5 C 20 %
297 09-12-2019 01:21:18 8.1 C 20 %
298 09-12-2019 01:31:17 8 C 20 %
299 09-12-2019 01:41:17 8.3 C 20 %
300 09-12-2019 01:51:17 8.2 C 20 %
Sensor: Nr:Datum:Temp:Feuchte:
Aussen-T/F 301 09-12-2019 02:01:17 7.8 C 20 %
302 09-12-2019 02:11:17 7.6 C 20 %
303 09-12-2019 02:21:17 7.4 C 21 %
304 09-12-2019 02:31:18 7.4 C 21 %
305 09-12-2019 02:41:18 7.1 C 23 %
306 09-12-2019 02:51:18 7.5 C 20 %
307 09-12-2019 03:01:17 7.5 C 20 %
308 09-12-2019 03:11:17 7.5 C 20 %
309 09-12-2019 03:21:17 7.5 C 20 %
310 09-12-2019 03:31:17 7.3 C 20 %
311 09-12-2019 03:41:17 6.8 C 23 %
312 09-12-2019 03:51:17 7.3 C 21 %
313 09-12-2019 04:01:17 7.3 C 20 %
314 09-12-2019 04:11:17 7.9 C 20 %
315 09-12-2019 04:21:18 8 C 20 %
316 09-12-2019 04:31:18 7.6 C 20 %
317 09-12-2019 04:41:18 7.4 C 21 %
318 09-12-2019 04:51:17 6.9 C 25 %
319 09-12-2019 05:01:17 6.9 C 25 %
320 09-12-2019 05:11:17 7.4 C 20 %
321 09-12-2019 05:21:17 7.5 C 20 %
322 09-12-2019 05:31:17 7.4 C 20 %
323 09-12-2019 05:41:18 7.1 C 20 %
324 09-12-2019 05:51:17 7.2 C 20 %
325 09-12-2019 06:01:17 7.4 C 20 %
Sensor: Nr:Datum:Temp:Feuchte:
Aussen-T/F 326 09-12-2019 06:11:17 7.4 C 20 %
327 09-12-2019 06:21:17 7.4 C 20 %
328 09-12-2019 06:31:17 7.6 C 20 %
329 09-12-2019 06:41:17 7.8 C 20 %
330 09-12-2019 06:51:18 7.7 C 20 %
331 09-12-2019 07:01:17 7.6 C 20 %
332 09-12-2019 07:11:18 7.5 C 20 %
333 09-12-2019 07:21:17 7.2 C 20 %
334 09-12-2019 07:31:17 7.2 C 20 %
335 09-12-2019 07:41:17 7.6 C 20 %
336 09-12-2019 07:51:18 7.5 C 20 %
337 09-12-2019 08:01:17 7.9 C 20 %
338 09-12-2019 08:11:17 7.8 C 20 %
339 09-12-2019 08:21:17 7.9 C 20 %
340 09-12-2019 08:31:17 8 C 20 %
341 09-12-2019 08:41:17 7.9 C 20 %
342 09-12-2019 08:51:17 7.9 C 20 %
343 09-12-2019 09:01:17 7.8 C 20 %
344 09-12-2019 09:11:17 7.9 C 20 %
345 09-12-2019 09:21:17 7.5 C 20 %
346 09-12-2019 09:31:17 7.4 C 23 %
347 09-12-2019 09:41:17 7.5 C 21 %
348 09-12-2019 09:51:17 7.7 C 21 %
349 09-12-2019 10:01:17 7.9 C 21 %
350 09-12-2019 10:11:17 7.9 C 21 %
Sensor: Nr:Datum:Temp:Feuchte:
Aussen-T/F 351 09-12-2019 10:21:17 7.9 C 20 %
352 09-12-2019 10:31:18 7.9 C 21 %
353 09-12-2019 10:41:18 7.9 C 21 %
354 09-12-2019 10:51:17 8.1 C 20 %
355 09-12-2019 11:01:17 8 C 20 %
356 09-12-2019 11:11:17 8.2 C 20 %
357 09-12-2019 11:21:17 8.4 C 20 %
358 09-12-2019 11:31:18 8.4 C 20 %
359 09-12-2019 11:41:18 8.3 C 20 %
360 09-12-2019 11:51:17 8.1 C 20 %
361 09-12-2019 12:01:17 8.2 C 20 %
362 09-12-2019 12:11:17 8 C 20 %
363 09-12-2019 12:21:18 8.1 C 20 %
364 09-12-2019 12:31:17 8.3 C 20 %
365 09-12-2019 12:41:17 8.2 C 20 %
366 09-12-2019 12:51:17 8.3 C 20 %
367 09-12-2019 13:01:18 8.3 C 20 %
368 09-12-2019 13:11:18 8.3 C 20 %
369 09-12-2019 13:21:17 8.2 C 20 %
370 09-12-2019 13:31:17 8.1 C 20 %
371 09-12-2019 13:41:17 8.5 C 20 %
372 09-12-2019 13:51:17 8.8 C 20 %
373 09-12-2019 14:01:17 8.6 C 20 %
374 09-12-2019 14:11:17 8.5 C 20 %
375 09-12-2019 14:21:17 8.6 C 20 %
Sensor: Nr:Datum:Temp:Feuchte:
Aussen-T/F 376 09-12-2019 14:31:17 8.4 C 20 %
377 09-12-2019 14:41:17 7.9 C 20 %
378 09-12-2019 14:51:18 8.4 C 20 %
379 09-12-2019 15:01:17 7.9 C 20 %
380 09-12-2019 15:11:17 7.3 C 25 %
381 09-12-2019 15:21:17 7 C 27 %
382 09-12-2019 15:31:18 7.1 C 26 %
383 09-12-2019 15:41:18 7.1 C 25 %
384 09-12-2019 15:51:17 7.4 C 23 %
385 09-12-2019 16:01:18 7.5 C 20 %
386 09-12-2019 16:11:18 7.5 C 20 %
387 09-12-2019 16:21:17 7.6 C 20 %
388 09-12-2019 16:31:18 7.3 C 20 %
389 09-12-2019 16:41:18 7.4 C 20 %
390 09-12-2019 16:51:17 7.3 C 20 %
391 09-12-2019 17:01:18 7.1 C 20 %
392 09-12-2019 17:11:18 7.2 C 20 %
393 09-12-2019 17:21:17 6.7 C 25 %
394 09-12-2019 17:31:17 6.1 C 32 %
395 09-12-2019 17:41:17 5.9 C 36 %
396 09-12-2019 17:51:17 6 C 34 %
397 09-12-2019 18:01:18 6 C 30 %
398 09-12-2019 18:11:18 6.1 C 31 %
399 09-12-2019 18:21:17 6 C 33 %
400 09-12-2019 18:31:17 5.8 C 35 %
Sensor: Nr:Datum:Temp:Feuchte:
Aussen-T/F 401 09-12-2019 18:41:17 5.7 C 37 %
402 09-12-2019 18:51:18 5.7 C 38 %
403 09-12-2019 19:01:17 5.6 C 35 %
404 09-12-2019 19:11:17 5.5 C 38 %
405 09-12-2019 19:21:17 5.6 C 39 %
406 09-12-2019 19:31:17 5.6 C 38 %
407 09-12-2019 19:41:17 5.6 C 38 %
408 09-12-2019 19:51:17 5.6 C 37 %
409 09-12-2019 20:01:17 5.6 C 35 %
410 09-12-2019 20:11:17 5.6 C 34 %
411 09-12-2019 20:21:17 5.6 C 35 %
412 09-12-2019 20:31:17 5.6 C 32 %
413 09-12-2019 20:41:17 5.4 C 33 %
414 09-12-2019 20:51:17 5.3 C 34 %
415 09-12-2019 21:01:17 5.2 C 33 %
416 09-12-2019 21:11:18 5.1 C 34 %
417 09-12-2019 21:21:17 5.2 C 35 %
418 09-12-2019 21:31:17 5.3 C 32 %
419 09-12-2019 21:41:17 5.1 C 31 %
420 09-12-2019 21:51:17 5 C 31 %
421 09-12-2019 22:01:17 4.8 C 32 %
422 09-12-2019 22:11:17 4.7 C 31 %
423 09-12-2019 22:21:17 4.9 C 30 %
424 09-12-2019 22:31:17 4.9 C 30 %
425 09-12-2019 22:41:17 4.9 C 30 %
Sensor: Nr:Datum:Temp:Feuchte:
Aussen-T/F 426 09-12-2019 22:51:18 4.7 C 30 %
427 09-12-2019 23:01:17 4.6 C 29 %
428 09-12-2019 23:11:17 4.5 C 29 %
429 09-12-2019 23:21:17 4.1 C 30 %
430 09-12-2019 23:31:18 4 C 30 %
431 09-12-2019 23:41:18 4.1 C 29 %
432 09-12-2019 23:51:17 4.1 C 29 %
433 10-12-2019 00:01:17 3.7 C 30 %
434 10-12-2019 00:11:17 4.1 C 28 %
435 10-12-2019 00:21:17 3.4 C 30 %
436 10-12-2019 00:31:17 3.6 C 30 %
437 10-12-2019 00:41:17 3.1 C 31 %
438 10-12-2019 00:51:17 3 C 31 %
439 10-12-2019 01:01:17 2.4 C 33 %
440 10-12-2019 01:11:17 2.4 C 36 %
441 10-12-2019 01:21:17 2.5 C 36 %
442 10-12-2019 01:31:18 2.8 C 34 %
443 10-12-2019 01:41:18 2.4 C 34 %
444 10-12-2019 01:51:17 2.4 C 33 %
445 10-12-2019 02:01:18 2.7 C 33 %
446 10-12-2019 02:11:18 2.9 C 32 %
447 10-12-2019 02:21:17 2.3 C 33 %
448 10-12-2019 02:31:17 2.1 C 35 %
449 10-12-2019 02:41:17 1.7 C 37 %
450 10-12-2019 02:51:17 1.6 C 39 %
Sensor: Nr:Datum:Temp:Feuchte:
Aussen-T/F 451 10-12-2019 03:01:17 1.8 C 40 %
452 10-12-2019 03:11:17 1.8 C 40 %
453 10-12-2019 03:21:17 1.8 C 40 %
454 10-12-2019 03:31:17 2 C 40 %
455 10-12-2019 03:41:17 1.4 C 41 %
456 10-12-2019 03:51:17 1.4 C 43 %
457 10-12-2019 04:01:17 1.1 C 43 %
458 10-12-2019 04:11:17 1.3 C 41 %
459 10-12-2019 04:21:17 0.6 C 41 %
460 10-12-2019 04:31:18 0.6 C 44 %
461 10-12-2019 04:41:18 0.7 C 45 %
462 10-12-2019 04:51:17 0.9 C 46 %
463 10-12-2019 05:01:17 1.1 C 44 %
464 10-12-2019 05:11:17 1.8 C 41 %
465 10-12-2019 05:21:18 2.2 C 35 %
466 10-12-2019 05:31:18 2 C 35 %
467 10-12-2019 05:41:18 2 C 35 %
468 10-12-2019 05:51:17 1.8 C 36 %
469 10-12-2019 06:01:17 1.5 C 36 %
470 10-12-2019 06:11:17 1.6 C 37 %
471 10-12-2019 06:21:18 1.4 C 36 %
472 10-12-2019 06:31:17 1.1 C 38 %
473 10-12-2019 06:41:17 0.9 C 42 %
474 10-12-2019 06:51:17 1.2 C 42 %
475 10-12-2019 07:01:18 1.3 C 40 %
Sensor: Nr:Datum:Temp:Feuchte:
Aussen-T/F 476 10-12-2019 07:11:18 1.5 C 40 %
477 10-12-2019 07:21:17 1.7 C 36 %
478 10-12-2019 07:31:17 1.2 C 37 %
479 10-12-2019 07:41:17 0.8 C 41 %
480 10-12-2019 07:51:17 0.8 C 41 %
481 10-12-2019 08:01:17 0.7 C 41 %
482 10-12-2019 08:11:17 0.8 C 41 %
483 10-12-2019 08:21:17 0.4 C 42 %
484 10-12-2019 08:31:18 0.6 C 42 %
485 10-12-2019 08:41:18 0.4 C 42 %
486 10-12-2019 08:51:17 0.4 C 43 %
487 10-12-2019 09:01:17 0.1 C 42 %
488 10-12-2019 09:11:17 0.5 C 44 %
489 10-12-2019 09:21:17 0.8 C 44 %
490 10-12-2019 09:31:17 1.4 C 42 %
491 10-12-2019 09:41:17 1.7 C 39 %
492 10-12-2019 09:51:17 1.8 C 39 %
493 10-12-2019 10:01:17 2.2 C 36 %
494 10-12-2019 10:11:17 2.5 C 35 %
495 10-12-2019 10:21:17 2.7 C 33 %
496 10-12-2019 10:31:17 2.7 C 33 %
497 10-12-2019 10:41:17 2.5 C 33 %
498 10-12-2019 10:51:17 2.4 C 35 %
499 10-12-2019 11:01:17 2.4 C 34 %
500 10-12-2019 11:11:17 2.5 C 34 %
Sensor: Nr:Datum:Temp:Feuchte:
Aussen-T/F 501 10-12-2019 11:21:17 2.3 C 35 %
502 10-12-2019 11:31:18 2.2 C 36 %
503 10-12-2019 11:41:18 2.9 C 34 %
504 10-12-2019 11:51:17 3.5 C 30 %
505 10-12-2019 12:01:17 3.7 C 30 %
506 10-12-2019 12:11:17 3.8 C 30 %
507 10-12-2019 12:21:17 3.9 C 30 %
508 10-12-2019 12:31:17 3.9 C 30 %
509 10-12-2019 12:41:17 4.3 C 27 %
510 10-12-2019 12:51:17 4.5 C 27 %
511 10-12-2019 13:01:17 4.6 C 27 %
512 10-12-2019 13:11:17 4.7 C 27 %
513 10-12-2019 13:21:17 4.7 C 27 %
514 10-12-2019 13:31:17 4.9 C 27 %
515 10-12-2019 13:41:17 5.1 C 25 %
516 10-12-2019 13:51:17 5 C 25 %
517 10-12-2019 14:01:17 4.6 C 27 %
518 10-12-2019 14:11:17 4.2 C 28 %
519 10-12-2019 14:21:17 3.8 C 30 %
520 10-12-2019 14:31:18 3.9 C 30 %
521 10-12-2019 14:41:18 3.8 C 30 %
522 10-12-2019 14:51:17 3.5 C 30 %
523 10-12-2019 15:01:17 3.5 C 30 %
524 10-12-2019 15:11:17 3.3 C 31 %
525 10-12-2019 15:21:17 3.2 C 31 %
Sensor: Nr:Datum:Temp:Feuchte:
Aussen-T/F 526 10-12-2019 15:31:17 3.1 C 31 %
527 10-12-2019 15:41:18 3.2 C 31 %
528 10-12-2019 15:51:17 2.9 C 31 %
529 10-12-2019 16:01:17 2.4 C 32 %
530 10-12-2019 16:11:17 3.1 C 31 %
531 10-12-2019 16:21:17 3.4 C 30 %
532 10-12-2019 16:31:17 3.5 C 28 %
533 10-12-2019 16:41:17 3.3 C 28 %
534 10-12-2019 16:51:17 3.3 C 26 %
535 10-12-2019 17:01:17 2.8 C 27 %
536 10-12-2019 17:11:17 2.7 C 27 %
537 10-12-2019 17:21:18 2.7 C 27 %
538 10-12-2019 17:31:17 2.7 C 27 %
539 10-12-2019 17:41:17 2.6 C 27 %
540 10-12-2019 17:51:17 2.4 C 28 %
541 10-12-2019 18:01:17 2.3 C 27 %
542 10-12-2019 18:11:17 1.7 C 31 %
543 10-12-2019 18:21:17 1.9 C 32 %
544 10-12-2019 18:31:17 1.8 C 33 %
545 10-12-2019 18:41:17 1.7 C 34 %
546 10-12-2019 18:51:17 1.6 C 35 %
547 10-12-2019 19:01:17 1.5 C 36 %
548 10-12-2019 19:11:17 1.5 C 36 %
549 10-12-2019 19:21:17 1.6 C 36 %
550 10-12-2019 19:31:17 1.5 C 36 %
Sensor: Nr:Datum:Temp:Feuchte:
Aussen-T/F 551 10-12-2019 19:41:18 1.7 C 36 %
552 10-12-2019 19:51:17 1.7 C 35 %
553 10-12-2019 20:01:17 2.2 C 32 %
554 10-12-2019 20:11:17 2.1 C 32 %
555 10-12-2019 20:21:17 2.7 C 29 %
556 10-12-2019 20:31:18 2.9 C 28 %
557 10-12-2019 20:41:18 2.6 C 30 %
558 10-12-2019 20:51:17 2.3 C 30 %
559 10-12-2019 21:01:17 2.5 C 31 %
560 10-12-2019 21:11:17 2.3 C 31 %
561 10-12-2019 21:21:17 2.1 C 32 %
562 10-12-2019 21:31:17 2 C 33 %
563 10-12-2019 21:41:18 1.8 C 35 %
564 10-12-2019 21:51:17 1.8 C 36 %
565 10-12-2019 22:01:17 1.8 C 36 %
566 10-12-2019 22:11:17 2.1 C 35 %
567 10-12-2019 22:21:17 2.2 C 34 %
568 10-12-2019 22:31:17 2.4 C 32 %
569 10-12-2019 22:41:17 2.5 C 33 %
570 10-12-2019 22:51:18 2.8 C 31 %
571 10-12-2019 23:01:17 2.9 C 30 %
572 10-12-2019 23:11:17 3 C 30 %
573 10-12-2019 23:21:17 3 C 30 %
574 10-12-2019 23:31:17 2.9 C 31 %
575 10-12-2019 23:41:17 3.3 C 28 %
Sensor: Nr:Datum:Temp:Feuchte:
Aussen-T/F 576 10-12-2019 23:51:17 3.3 C 30 %
577 11-12-2019 00:01:18 3.2 C 30 %
578 11-12-2019 00:11:18 3.3 C 29 %
579 11-12-2019 00:21:17 3.4 C 28 %
580 11-12-2019 00:31:17 3.4 C 29 %
581 11-12-2019 00:41:17 3.5 C 27 %
582 11-12-2019 00:51:17 3.4 C 27 %
583 11-12-2019 01:01:17 3.5 C 25 %
584 11-12-2019 01:11:17 3.4 C 27 %
585 11-12-2019 01:21:18 3.4 C 28 %
586 11-12-2019 01:31:17 3.4 C 29 %
587 11-12-2019 01:41:17 3.2 C 30 %
588 11-12-2019 01:51:17 3.1 C 32 %
589 11-12-2019 02:01:17 3 C 33 %
590 11-12-2019 02:11:17 2.9 C 33 %
591 11-12-2019 02:21:17 2.9 C 32 %
592 11-12-2019 02:31:18 2.8 C 34 %
593 11-12-2019 02:41:18 2.9 C 31 %
594 11-12-2019 02:51:17 3 C 30 %
595 11-12-2019 03:01:18 3.1 C 30 %
596 11-12-2019 03:11:18 3 C 32 %
597 11-12-2019 03:21:17 2.9 C 30 %
598 11-12-2019 03:31:17 3 C 30 %
599 11-12-2019 03:41:17 3 C 35 %
600 11-12-2019 03:51:17 2.8 C 36 %
Sensor: Nr:Datum:Temp:Feuchte:
Aussen-T/F 601 11-12-2019 04:01:17 2.7 C 35 %
602 11-12-2019 04:11:17 2.8 C 35 %
603 11-12-2019 04:21:17 2.8 C 35 %
604 11-12-2019 04:31:18 2.8 C 38 %
605 11-12-2019 04:41:18 2.7 C 38 %
606 11-12-2019 04:51:17 2.7 C 39 %
607 11-12-2019 05:01:17 2.7 C 39 %
608 11-12-2019 05:11:17 2.7 C 39 %
609 11-12-2019 05:21:18 2.7 C 40 %
610 11-12-2019 05:31:17 2.6 C 42 %
611 11-12-2019 05:41:17 2.6 C 43 %
612 11-12-2019 05:51:17 2.5 C 44 %
613 11-12-2019 06:01:18 2.5 C 44 %
614 11-12-2019 06:11:18 2.5 C 44 %
615 11-12-2019 06:21:17 2.5 C 44 %
616 11-12-2019 06:31:17 2.5 C 44 %
617 11-12-2019 06:41:17 2.5 C 44 %
618 11-12-2019 06:51:17 2.5 C 44 %
619 11-12-2019 07:01:17 2.4 C 44 %
620 11-12-2019 07:11:17 2.5 C 44 %
621 11-12-2019 07:21:17 2.4 C 44 %
622 11-12-2019 07:31:17 2.4 C 44 %
623 11-12-2019 07:41:18 2.4 C 43 %
624 11-12-2019 07:51:17 2.4 C 43 %
625 11-12-2019 08:01:17 2.4 C 43 %
Sensor: Nr:Datum:Temp:Feuchte:
Aussen-T/F 626 11-12-2019 08:11:17 2.4 C 43 %
627 11-12-2019 08:21:17 2.4 C 43 %
628 11-12-2019 08:31:18 2.3 C 43 %
629 11-12-2019 08:41:18 2.3 C 43 %
630 11-12-2019 08:51:17 2.3 C 43 %
631 11-12-2019 09:01:18 2.3 C 43 %
632 11-12-2019 09:11:18 2.4 C 43 %
633 11-12-2019 09:21:17 2.5 C 43 %
634 11-12-2019 09:31:17 2.5 C 43 %
635 11-12-2019 09:41:17 2.5 C 43 %
636 11-12-2019 09:51:17 2.5 C 43 %
637 11-12-2019 10:01:17 2.6 C 43 %
638 11-12-2019 10:11:17 2.7 C 43 %
639 11-12-2019 10:21:17 2.7 C 42 %
640 11-12-2019 10:31:17 2.7 C 42 %
641 11-12-2019 10:41:17 2.8 C 41 %
642 11-12-2019 10:51:17 3.1 C 40 %
643 11-12-2019 11:01:17 3 C 39 %
644 11-12-2019 11:11:17 3.1 C 39 %
645 11-12-2019 11:21:17 3.2 C 39 %
646 11-12-2019 11:31:17 3.1 C 38 %
647 11-12-2019 11:41:17 3.1 C 38 %
648 11-12-2019 11:51:17 3.2 C 39 %
649 11-12-2019 12:01:18 3.2 C 39 %
650 11-12-2019 12:11:18 3.1 C 39 %
Sensor: Nr:Datum:Temp:Feuchte:
Aussen-T/F 651 11-12-2019 12:21:17 3.1 C 39 %
652 11-12-2019 12:31:17 3.1 C 40 %
653 11-12-2019 12:41:17 3.1 C 40 %
654 11-12-2019 12:51:17 3.1 C 40 %
655 11-12-2019 13:01:18 3.2 C 40 %
656 11-12-2019 13:11:18 3.2 C 40 %
657 11-12-2019 13:21:17 3.2 C 40 %
658 11-12-2019 13:31:17 3.2 C 40 %
659 11-12-2019 13:41:17 3.2 C 40 %
660 11-12-2019 13:51:17 3.2 C 40 %
661 11-12-2019 14:01:17 3.2 C 41 %
662 11-12-2019 14:11:18 3.2 C 41 %
663 11-12-2019 14:21:17 3.2 C 41 %
664 11-12-2019 14:31:17 3.3 C 41 %
665 11-12-2019 14:41:17 3.3 C 42 %
666 11-12-2019 14:51:17 3.3 C 42 %
667 11-12-2019 15:01:17 3.3 C 42 %
668 11-12-2019 15:11:17 3.4 C 42 %
669 11-12-2019 15:21:17 3.3 C 42 %
670 11-12-2019 15:31:18 3.3 C 42 %
671 11-12-2019 15:41:18 3.3 C 42 %
672 11-12-2019 15:51:17 3.3 C 42 %
673 11-12-2019 16:01:17 3.2 C 42 %
674 11-12-2019 16:11:17 3.2 C 42 %
675 11-12-2019 16:21:17 3.2 C 42 %
Sensor: Nr:Datum:Temp:Feuchte:
Aussen-T/F 676 11-12-2019 16:31:17 3.2 C 42 %
677 11-12-2019 16:41:17 3.1 C 42 %
678 11-12-2019 16:51:17 3.1 C 42 %
679 11-12-2019 17:01:17 3.1 C 43 %
680 11-12-2019 17:11:17 3.1 C 42 %
681 11-12-2019 17:21:17 3.1 C 42 %
682 11-12-2019 17:31:17 3.1 C 42 %
683 11-12-2019 17:41:17 3.1 C 42 %
684 11-12-2019 17:51:18 3.2 C 43 %
685 11-12-2019 18:01:17 3.2 C 43 %
686 11-12-2019 18:11:17 3.3 C 43 %
687 11-12-2019 18:21:17 3.3 C 43 %
688 11-12-2019 18:31:18 3.4 C 43 %
689 11-12-2019 18:41:18 3.4 C 43 %
690 11-12-2019 18:51:17 3.5 C 43 %
691 11-12-2019 19:01:17 3.5 C 42 %
692 11-12-2019 19:11:17 3.5 C 42 %
693 11-12-2019 19:21:18 3.5 C 42 %
694 11-12-2019 19:31:17 3.5 C 42 %
695 11-12-2019 19:41:17 3.6 C 42 %
696 11-12-2019 19:51:18 3.6 C 42 %
697 11-12-2019 20:01:17 3.6 C 42 %
698 11-12-2019 20:11:17 3.7 C 42 %
699 11-12-2019 20:21:17 3.8 C 42 %
700 11-12-2019 20:31:18 3.8 C 42 %
Sensor: Nr:Datum:Temp:Feuchte:
Aussen-T/F 701 11-12-2019 20:41:18 3.9 C 42 %
702 11-12-2019 20:51:17 4.1 C 41 %
703 11-12-2019 21:01:17 4.1 C 40 %
704 11-12-2019 21:11:17 4.3 C 39 %
705 11-12-2019 21:21:17 4.4 C 37 %
706 11-12-2019 21:31:17 4.1 C 37 %
707 11-12-2019 21:41:17 4.3 C 37 %
708 11-12-2019 21:51:17 4.3 C 36 %
709 11-12-2019 22:01:17 4.5 C 35 %
710 11-12-2019 22:11:17 4.1 C 35 %
711 11-12-2019 22:21:17 3.9 C 37 %
712 11-12-2019 22:31:17 3.6 C 39 %
713 11-12-2019 22:41:17 3.8 C 39 %
714 11-12-2019 22:51:18 3.5 C 40 %
715 11-12-2019 23:01:17 3.8 C 40 %
716 11-12-2019 23:11:17 3.8 C 40 %
717 11-12-2019 23:21:17 3.4 C 40 %
718 11-12-2019 23:31:17 3 C 41 %
719 11-12-2019 23:41:17 3.4 C 43 %
720 11-12-2019 23:51:18 3.2 C 42 %
721 12-12-2019 00:01:17 3 C 42 %
722 12-12-2019 00:11:17 2.9 C 43 %
723 12-12-2019 00:21:17 2.8 C 43 %
724 12-12-2019 00:31:17 2.5 C 43 %
725 12-12-2019 00:41:17 2.4 C 43 %
Sensor: Nr:Datum:Temp:Feuchte:
Aussen-T/F 726 12-12-2019 00:51:17 2.3 C 43 %
727 12-12-2019 01:01:17 2.7 C 44 %
728 12-12-2019 01:11:17 2.8 C 44 %
729 12-12-2019 01:21:18 2.6 C 43 %
730 12-12-2019 01:31:17 2.2 C 43 %
731 12-12-2019 01:41:17 2.5 C 43 %
732 12-12-2019 01:51:18 2.1 C 43 %
733 12-12-2019 02:01:17 1.8 C 44 %
734 12-12-2019 02:11:17 1.6 C 44 %
735 12-12-2019 02:21:17 1.7 C 44 %
736 12-12-2019 02:31:18 1.6 C 44 %
737 12-12-2019 02:41:18 2 C 43 %
738 12-12-2019 02:51:17 2 C 43 %
739 12-12-2019 03:01:17 2.3 C 43 %
740 12-12-2019 03:11:17 2.4 C 43 %
741 12-12-2019 03:21:17 2.5 C 43 %
742 12-12-2019 03:31:17 2.4 C 43 %
743 12-12-2019 03:41:17 2.5 C 43 %
744 12-12-2019 03:51:17 2.7 C 43 %
745 12-12-2019 04:01:17 2.6 C 43 %
746 12-12-2019 04:11:17 2.7 C 43 %
747 12-12-2019 04:21:17 2.8 C 43 %
748 12-12-2019 04:31:17 2.8 C 43 %
749 12-12-2019 04:41:17 2.9 C 43 %
750 12-12-2019 04:51:17 2.4 C 42 %
Sensor: Nr:Datum:Temp:Feuchte:
Aussen-T/F 751 12-12-2019 05:01:17 2 C 42 %
752 12-12-2019 05:11:17 2.1 C 42 %
753 12-12-2019 05:21:17 2.2 C 42 %
754 12-12-2019 05:31:18 2.1 C 42 %
755 12-12-2019 05:41:18 2.1 C 42 %
756 12-12-2019 05:51:17 2.1 C 42 %
757 12-12-2019 06:01:17 1.9 C 43 %
758 12-12-2019 06:11:17 2 C 42 %
759 12-12-2019 06:21:17 2.1 C 42 %
760 12-12-2019 06:31:17 2.1 C 42 %
761 12-12-2019 06:41:17 2.3 C 42 %
762 12-12-2019 06:51:17 2.7 C 43 %
763 12-12-2019 07:01:17 3 C 42 %
764 12-12-2019 07:11:17 3 C 42 %
765 12-12-2019 07:21:17 3 C 42 %
766 12-12-2019 07:31:17 3 C 42 %
767 12-12-2019 07:41:17 2.8 C 42 %
768 12-12-2019 07:51:17 2.9 C 42 %
769 12-12-2019 08:01:17 2.9 C 42 %
770 12-12-2019 08:11:17 3.1 C 42 %
771 12-12-2019 08:21:17 3.2 C 42 %
772 12-12-2019 08:31:18 3.3 C 42 %
773 12-12-2019 08:41:18 3.5 C 42 %
774 12-12-2019 08:51:17 3.5 C 42 %
775 12-12-2019 09:01:18 3.5 C 42 %
Sensor: Nr:Datum:Temp:Feuchte:
Aussen-T/F 776 12-12-2019 09:11:18 3.6 C 42 %
777 12-12-2019 09:21:17 3.9 C 42 %
778 12-12-2019 09:31:17 3.9 C 42 %
779 12-12-2019 09:41:17 3.7 C 41 %
780 12-12-2019 09:51:17 3.5 C 41 %
781 12-12-2019 10:01:17 3.9 C 41 %
782 12-12-2019 10:11:17 4 C 40 %
783 12-12-2019 10:21:18 4.4 C 37 %
784 12-12-2019 10:31:17 4.6 C 35 %
785 12-12-2019 10:41:17 4.7 C 32 %
786 12-12-2019 10:51:17 4.8 C 31 %
787 12-12-2019 11:01:18 4.7 C 32 %
788 12-12-2019 11:11:18 4.6 C 31 %
789 12-12-2019 11:21:17 4.4 C 31 %
790 12-12-2019 11:31:17 4.4 C 32 %
791 12-12-2019 11:41:17 4.7 C 31 %
792 12-12-2019 11:51:18 4.9 C 29 %
793 12-12-2019 12:01:17 5.1 C 29 %
794 12-12-2019 12:11:17 5.1 C 27 %
795 12-12-2019 12:21:17 5 C 26 %
796 12-12-2019 12:31:18 4.7 C 27 %
797 12-12-2019 12:41:18 4.7 C 28 %
798 12-12-2019 12:51:17 4.7 C 27 %
799 12-12-2019 13:01:17 4.6 C 28 %
800 12-12-2019 13:11:18 5 C 26 %
Sensor: Nr:Datum:Temp:Feuchte:
Aussen-T/F 801 12-12-2019 13:21:17 4.8 C 27 %
802 12-12-2019 13:31:17 4.6 C 26 %
803 12-12-2019 13:41:17 4.2 C 26 %
804 12-12-2019 13:51:17 4.6 C 25 %
805 12-12-2019 14:01:17 4.6 C 25 %
806 12-12-2019 14:11:17 4.3 C 25 %
807 12-12-2019 14:21:17 4 C 27 %
808 12-12-2019 14:31:18 4.5 C 25 %
809 12-12-2019 14:41:18 4.8 C 25 %
810 12-12-2019 14:51:17 4.7 C 25 %
811 12-12-2019 15:01:18 4 C 26 %
812 12-12-2019 15:11:18 4.2 C 26 %
813 12-12-2019 15:21:17 3.6 C 29 %
814 12-12-2019 15:31:17 3.5 C 29 %
815 12-12-2019 15:41:17 3.8 C 28 %
816 12-12-2019 15:51:17 3.7 C 28 %
817 12-12-2019 16:01:17 3.6 C 28 %
818 12-12-2019 16:11:17 3.7 C 26 %
819 12-12-2019 16:21:18 3.5 C 27 %
820 12-12-2019 16:31:17 3.4 C 26 %
821 12-12-2019 16:41:17 3.3 C 28 %
822 12-12-2019 16:51:17 3.1 C 30 %
823 12-12-2019 17:01:17 2.6 C 30 %
824 12-12-2019 17:11:17 1.7 C 35 %
825 12-12-2019 17:21:17 1.2 C 36 %
Sensor: Nr:Datum:Temp:Feuchte:
Aussen-T/F 826 12-12-2019 17:31:17 1.1 C 38 %
827 12-12-2019 17:41:17 0.9 C 41 %
828 12-12-2019 17:51:17 1 C 40 %
829 12-12-2019 18:01:17 1.1 C 40 %
830 12-12-2019 18:11:17 1.1 C 40 %
831 12-12-2019 18:21:17 1.1 C 40 %
832 12-12-2019 18:31:17 1 C 40 %
833 12-12-2019 18:41:17 0.9 C 41 %
834 12-12-2019 18:51:17 0.7 C 41 %
835 12-12-2019 19:01:17 0.7 C 41 %
836 12-12-2019 19:11:17 0.6 C 41 %
837 12-12-2019 19:21:17 0.6 C 42 %
838 12-12-2019 19:31:17 0.6 C 42 %
839 12-12-2019 19:41:17 0.7 C 42 %
840 12-12-2019 19:51:17 0.7 C 41 %
841 12-12-2019 20:01:17 0.6 C 41 %
842 12-12-2019 20:11:17 0.6 C 41 %
843 12-12-2019 20:21:17 0.6 C 41 %
844 12-12-2019 20:31:17 0.6 C 41 %
845 12-12-2019 20:41:17 0.6 C 41 %
846 12-12-2019 20:51:17 1.3 C 42 %
847 12-12-2019 21:01:17 1.6 C 38 %
848 12-12-2019 21:11:17 1.6 C 36 %
849 12-12-2019 21:21:17 1.3 C 36 %
850 12-12-2019 21:31:17 1.3 C 35 %
Sensor: Nr:Datum:Temp:Feuchte:
Aussen-T/F 851 12-12-2019 21:41:17 1 C 35 %
852 12-12-2019 21:51:17 0.7 C 37 %
853 12-12-2019 22:01:17 1.2 C 37 %
854 12-12-2019 22:11:17 0.9 C 37 %
855 12-12-2019 22:21:18 0.4 C 38 %
856 12-12-2019 22:31:17 0.3 C 39 %
857 12-12-2019 22:41:17 0.2 C 40 %
858 12-12-2019 22:51:17 0.4 C 39 %
859 12-12-2019 23:01:18 1.1 C 37 %
860 12-12-2019 23:11:18 1.5 C 35 %
861 12-12-2019 23:21:17 1.9 C 32 %
862 12-12-2019 23:31:17 1.6 C 31 %
863 12-12-2019 23:41:17 1.4 C 32 %
864 12-12-2019 23:51:17 1.5 C 31 %
865 13-12-2019 00:01:17 0.9 C 33 %
866 13-12-2019 00:11:17 0.6 C 35 %
867 13-12-2019 00:21:17 1 C 33 %
868 13-12-2019 00:31:18 0.7 C 34 %
869 13-12-2019 00:41:18 0.9 C 35 %
870 13-12-2019 00:51:17 1.3 C 32 %
871 13-12-2019 01:01:18 1.7 C 30 %
872 13-12-2019 01:11:18 1.8 C 29 %
873 13-12-2019 01:21:17 2 C 27 %
874 13-12-2019 01:31:17 1.9 C 28 %
875 13-12-2019 01:41:17 2 C 27 %
Sensor: Nr:Datum:Temp:Feuchte:
Aussen-T/F 876 13-12-2019 01:51:17 2 C 27 %
877 13-12-2019 02:01:18 1.9 C 29 %
878 13-12-2019 02:11:18 2 C 27 %
879 13-12-2019 02:21:17 2 C 27 %
880 13-12-2019 02:31:17 2 C 27 %
881 13-12-2019 02:41:17 2 C 27 %
882 13-12-2019 02:51:17 2 C 27 %
883 13-12-2019 03:01:17 1.8 C 29 %
884 13-12-2019 03:11:17 1.8 C 30 %
885 13-12-2019 03:21:17 1.7 C 30 %
886 13-12-2019 03:31:17 1.6 C 30 %
887 13-12-2019 03:41:17 1.7 C 30 %
888 13-12-2019 03:51:17 1.6 C 31 %
889 13-12-2019 04:01:17 1.4 C 32 %
890 13-12-2019 04:11:17 1.5 C 32 %
891 13-12-2019 04:21:17 1.6 C 32 %
892 13-12-2019 04:31:17 1.6 C 32 %
893 13-12-2019 04:41:17 1.6 C 32 %
894 13-12-2019 04:51:17 1.4 C 34 %
895 13-12-2019 05:01:17 1.4 C 35 %
896 13-12-2019 05:11:17 1.5 C 34 %
897 13-12-2019 05:21:17 1.5 C 34 %
898 13-12-2019 05:31:18 1.7 C 33 %
899 13-12-2019 05:41:18 1.7 C 32 %
900 13-12-2019 05:51:17 1.8 C 33 %
Sensor: Nr:Datum:Temp:Feuchte:
Aussen-T/F 901 13-12-2019 06:01:17 1.9 C 32 %
902 13-12-2019 06:11:17 2 C 31 %
903 13-12-2019 06:21:17 2 C 31 %
904 13-12-2019 06:31:17 2 C 32 %
905 13-12-2019 06:41:17 1.7 C 35 %
906 13-12-2019 06:51:17 1.8 C 37 %
907 13-12-2019 07:01:17 1.8 C 37 %
908 13-12-2019 07:11:18 1.7 C 39 %
909 13-12-2019 07:21:17 1.8 C 38 %
910 13-12-2019 07:31:17 1.8 C 40 %
911 13-12-2019 07:41:17 1.8 C 39 %
912 13-12-2019 07:51:17 1.9 C 38 %
913 13-12-2019 08:01:17 1.8 C 38 %
914 13-12-2019 08:11:17 1.8 C 39 %
915 13-12-2019 08:21:17 1.7 C 40 %
916 13-12-2019 08:31:17 1.7 C 41 %
917 13-12-2019 08:41:17 1.6 C 41 %
918 13-12-2019 08:51:17 1.7 C 41 %
919 13-12-2019 09:01:17 1.9 C 40 %
920 13-12-2019 09:11:17 1.9 C 40 %
921 13-12-2019 09:21:17 1.9 C 40 %
922 13-12-2019 09:31:17 1.7 C 42 %
923 13-12-2019 09:41:17 1.7 C 42 %
924 13-12-2019 09:51:18 1.9 C 43 %
925 13-12-2019 10:01:17 1.8 C 43 %
Sensor: Nr:Datum:Temp:Feuchte:
Aussen-T/F 926 13-12-2019 10:11:17 1.9 C 43 %
927 13-12-2019 10:21:18 2 C 41 %
928 13-12-2019 10:31:17 2.2 C 41 %
929 13-12-2019 10:41:17 2.3 C 41 %
930 13-12-2019 10:51:18 2.3 C 41 %
931 13-12-2019 11:01:17 2.4 C 41 %
932 13-12-2019 11:11:17 2.3 C 40 %
933 13-12-2019 11:21:17 2.3 C 40 %
934 13-12-2019 11:31:17 2.4 C 41 %
935 13-12-2019 11:41:17 2.5 C 41 %
936 13-12-2019 11:51:18 2.8 C 42 %
937 13-12-2019 12:01:17 3 C 41 %
938 13-12-2019 12:11:17 3.1 C 39 %
939 13-12-2019 12:21:17 3.2 C 38 %
940 13-12-2019 12:31:17 3.5 C 38 %
941 13-12-2019 12:41:17 3.5 C 38 %
942 13-12-2019 12:51:18 3.6 C 38 %
943 13-12-2019 13:01:18 3.8 C 39 %
944 13-12-2019 13:11:18 4.1 C 37 %
945 13-12-2019 13:21:17 4.6 C 38 %
946 13-12-2019 13:31:17 5.2 C 35 %
947 13-12-2019 13:41:17 5.7 C 35 %
948 13-12-2019 13:51:17 6.4 C 31 %
949 13-12-2019 14:01:17 6.7 C 30 %
950 13-12-2019 14:11:17 7 C 28 %
Sensor: Nr:Datum:Temp:Feuchte:
Aussen-T/F 951 13-12-2019 14:21:17 6.8 C 29 %
952 13-12-2019 14:31:17 6.8 C 28 %
953 13-12-2019 14:41:17 6.7 C 28 %
954 13-12-2019 14:51:18 6.4 C 29 %
955 13-12-2019 15:01:18 6.3 C 29 %
956 13-12-2019 15:11:18 6.3 C 29 %
957 13-12-2019 15:21:17 6.2 C 30 %
958 13-12-2019 15:31:17 5.9 C 30 %
959 13-12-2019 15:41:17 5.8 C 31 %
960 13-12-2019 15:51:17 5.5 C 31 %
961 13-12-2019 16:01:18 5.3 C 30 %
962 13-12-2019 16:11:18 5.4 C 30 %
963 13-12-2019 16:21:17 5.3 C 30 %
964 13-12-2019 16:31:17 5.1 C 30 %
965 13-12-2019 16:41:17 4.8 C 31 %
966 13-12-2019 16:51:17 4.5 C 31 %
967 13-12-2019 17:01:17 4.6 C 31 %
968 13-12-2019 17:11:17 4.5 C 31 %
969 13-12-2019 17:21:17 4.3 C 34 %
970 13-12-2019 17:31:18 4.3 C 34 %
971 13-12-2019 17:41:18 4.2 C 33 %
972 13-12-2019 17:51:17 4 C 33 %
973 13-12-2019 18:01:17 3.8 C 36 %
974 13-12-2019 18:11:17 3.7 C 40 %
975 13-12-2019 18:21:17 3.8 C 39 %
Sensor: Nr:Datum:Temp:Feuchte:
Aussen-T/F 976 13-12-2019 18:31:17 3.8 C 40 %
977 13-12-2019 18:41:18 3.8 C 39 %
978 13-12-2019 18:51:17 3.9 C 36 %
979 13-12-2019 19:01:17 3.9 C 36 %
980 13-12-2019 19:11:17 3.9 C 35 %
981 13-12-2019 19:21:17 4 C 34 %
982 13-12-2019 19:31:17 4.1 C 35 %
983 13-12-2019 19:41:17 4 C 36 %
984 13-12-2019 19:51:17 4.6 C 32 %
985 13-12-2019 20:01:17 4.6 C 32 %
986 13-12-2019 20:11:17 4.8 C 31 %
987 13-12-2019 20:21:17 4.7 C 31 %
988 13-12-2019 20:31:17 4.7 C 31 %
989 13-12-2019 20:41:17 4.7 C 32 %
990 13-12-2019 20:51:17 4.5 C 32 %
991 13-12-2019 21:01:17 4.3 C 34 %
992 13-12-2019 21:11:17 4 C 36 %
993 13-12-2019 21:21:17 4.5 C 35 %
994 13-12-2019 21:31:18 4.4 C 33 %
995 13-12-2019 21:41:18 4.4 C 35 %
996 13-12-2019 21:51:17 4.6 C 32 %
997 13-12-2019 22:01:17 4.6 C 31 %
998 13-12-2019 22:11:17 4.6 C 30 %
999 13-12-2019 22:21:17 4.7 C 30 %
1000 13-12-2019 22:31:18 4.7 C 30 %
Sensor: Nr:Datum:Temp:Feuchte:
Aussen-T/F 1001 13-12-2019 22:41:18 3.8 C 34 %
1002 13-12-2019 22:51:17 3.8 C 36 %
1003 13-12-2019 23:01:17 4.5 C 32 %
1004 13-12-2019 23:11:17 5.1 C 29 %
1005 13-12-2019 23:21:17 5.2 C 28 %
1006 13-12-2019 23:31:17 5.2 C 28 %
1007 13-12-2019 23:41:17 5 C 30 %
1008 13-12-2019 23:51:17 5 C 30 %
1009 14-12-2019 00:01:17 4.4 C 32 %
1010 14-12-2019 00:11:17 4.5 C 30 %
1011 14-12-2019 00:21:17 4.6 C 30 %
1012 14-12-2019 00:31:18 4.3 C 33 %
1013 14-12-2019 00:41:18 4.7 C 32 %
1014 14-12-2019 00:51:17 5.1 C 28 %
1015 14-12-2019 01:01:17 5.4 C 27 %
1016 14-12-2019 01:11:17 5.3 C 27 %
1017 14-12-2019 01:21:17 5.2 C 26 %
1018 14-12-2019 01:31:17 5.1 C 26 %
1019 14-12-2019 01:41:17 5.3 C 25 %
1020 14-12-2019 01:51:17 5.2 C 25 %
1021 14-12-2019 02:01:17 5 C 26 %
1022 14-12-2019 02:11:17 4.5 C 30 %
1023 14-12-2019 02:21:17 4.6 C 29 %
1024 14-12-2019 02:31:18 4.7 C 29 %
1025 14-12-2019 02:41:18 4.8 C 28 %
Sensor: Nr:Datum:Temp:Feuchte:
Aussen-T/F 1026 14-12-2019 02:51:17 4.5 C 30 %
1027 14-12-2019 03:01:18 4.2 C 33 %
1028 14-12-2019 03:11:18 4.1 C 36 %
1029 14-12-2019 03:21:17 3.9 C 38 %
1030 14-12-2019 03:31:17 3.9 C 39 %
1031 14-12-2019 03:41:17 3.9 C 36 %
1032 14-12-2019 03:51:18 3.8 C 36 %
1033 14-12-2019 04:01:17 3.8 C 40 %
1034 14-12-2019 04:11:17 3.8 C 41 %
1035 14-12-2019 04:21:17 3.7 C 42 %
1036 14-12-2019 04:31:18 3.5 C 42 %
1037 14-12-2019 04:41:18 3.5 C 42 %
1038 14-12-2019 04:51:17 3.4 C 42 %
1039 14-12-2019 05:01:17 3.4 C 41 %
1040 14-12-2019 05:11:17 3.4 C 41 %
1041 14-12-2019 05:21:17 3.4 C 42 %
1042 14-12-2019 05:31:18 3.4 C 42 %
1043 14-12-2019 05:41:18 3.4 C 43 %
1044 14-12-2019 05:51:17 3.4 C 43 %
1045 14-12-2019 06:01:18 3.4 C 42 %
1046 14-12-2019 06:11:18 3.7 C 43 %
1047 14-12-2019 06:21:17 4 C 42 %
1048 14-12-2019 06:31:17 5 C 40 %
1049 14-12-2019 06:41:17 5.2 C 39 %
1050 14-12-2019 06:51:18 5.6 C 36 %
Sensor: Nr:Datum:Temp:Feuchte:
Aussen-T/F 1051 14-12-2019 07:01:17 5.6 C 36 %
1052 14-12-2019 07:11:18 5.7 C 36 %
1053 14-12-2019 07:21:17 5.8 C 36 %
1054 14-12-2019 07:31:17 5.8 C 36 %
1055 14-12-2019 07:41:17 6.3 C 37 %
1056 14-12-2019 07:51:17 6.5 C 36 %
1057 14-12-2019 08:01:17 6.8 C 35 %
1058 14-12-2019 08:11:17 7 C 28 %
1059 14-12-2019 08:21:17 7.2 C 26 %
1060 14-12-2019 08:31:18 7.1 C 25 %
1061 14-12-2019 08:41:18 6.9 C 25 %
1062 14-12-2019 08:51:17 6.7 C 25 %
1063 14-12-2019 09:01:17 6.9 C 23 %
1064 14-12-2019 09:11:17 6.7 C 23 %
1065 14-12-2019 09:21:18 6.5 C 23 %
1066 14-12-2019 09:31:18 6.7 C 20 %
1067 14-12-2019 09:41:18 6.5 C 21 %
1068 14-12-2019 09:51:17 6.7 C 21 %
1069 14-12-2019 10:01:17 6.7 C 21 %
1070 14-12-2019 10:11:17 6.6 C 23 %
1071 14-12-2019 10:21:17 6.6 C 25 %
1072 14-12-2019 10:31:17 6.7 C 25 %
1073 14-12-2019 10:41:17 6.4 C 26 %
1074 14-12-2019 10:51:17 5.9 C 29 %
1075 14-12-2019 11:01:18 5.9 C 29 %
Sensor: Nr:Datum:Temp:Feuchte:
Aussen-T/F 1076 14-12-2019 11:11:18 6.4 C 27 %
1077 14-12-2019 11:21:17 6.7 C 26 %
1078 14-12-2019 11:31:17 6.3 C 26 %
1079 14-12-2019 11:41:17 6.4 C 25 %
1080 14-12-2019 11:51:17 6.9 C 20 %
1081 14-12-2019 12:01:17 7 C 20 %
1082 14-12-2019 12:11:17 7.2 C 20 %
1083 14-12-2019 12:21:18 7 C 20 %
1084 14-12-2019 12:31:17 7.3 C 20 %
1085 14-12-2019 12:41:17 7.6 C 20 %
1086 14-12-2019 12:51:17 7.8 C 20 %
1087 14-12-2019 13:01:17 7.9 C 20 %
1088 14-12-2019 13:11:17 8 C 20 %
1089 14-12-2019 13:21:17 8.4 C 20 %
1090 14-12-2019 13:31:17 8.4 C 20 %
1091 14-12-2019 13:41:17 8.3 C 20 %
1092 14-12-2019 13:51:17 8.4 C 20 %
1093 14-12-2019 14:01:18 8.5 C 20 %
1094 14-12-2019 14:11:18 8.4 C 20 %
1095 14-12-2019 14:21:17 8.4 C 20 %
1096 14-12-2019 14:31:18 8.7 C 20 %
1097 14-12-2019 14:41:18 8.8 C 20 %
1098 14-12-2019 14:51:18 8.6 C 20 %
1099 14-12-2019 15:01:17 7.3 C 23 %
1100 14-12-2019 15:11:17 6.8 C 28 %
Sensor: Nr:Datum:Temp:Feuchte:
Aussen-T/F 1101 14-12-2019 15:21:17 6.6 C 30 %
1102 14-12-2019 15:31:17 6.7 C 28 %
1103 14-12-2019 15:41:18 6.8 C 28 %
1104 14-12-2019 15:51:17 7.1 C 26 %
1105 14-12-2019 16:01:17 7 C 26 %
1106 14-12-2019 16:11:17 6.9 C 26 %
1107 14-12-2019 16:21:17 6.9 C 27 %
1108 14-12-2019 16:31:18 7.2 C 25 %
1109 14-12-2019 16:41:18 7.6 C 25 %
1110 14-12-2019 16:51:17 7.5 C 25 %
1111 14-12-2019 17:01:17 7.6 C 25 %
1112 14-12-2019 17:11:17 7.6 C 25 %
1113 14-12-2019 17:21:17 7.4 C 25 %
1114 14-12-2019 17:31:18 7.2 C 26 %
1115 14-12-2019 17:41:18 6.9 C 27 %
1116 14-12-2019 17:51:17 7.1 C 26 %
1117 14-12-2019 18:01:17 7.1 C 26 %
1118 14-12-2019 18:11:17 7.3 C 26 %
1119 14-12-2019 18:22:17 7.6 C 25 %
1120 14-12-2019 18:31:17 7.8 C 25 %
1121 14-12-2019 18:41:17 7.4 C 25 %
1122 14-12-2019 18:52:17 7 C 26 %
1123 14-12-2019 19:01:18 6.7 C 27 %
1124 14-12-2019 19:11:18 6.2 C 28 %
1125 14-12-2019 19:21:17 6.4 C 26 %
Sensor: Nr:Datum:Temp:Feuchte:
Aussen-T/F 1126 14-12-2019 19:31:17 6.1 C 26 %
1127 14-12-2019 19:41:17 6.4 C 25 %
1128 14-12-2019 19:52:17 6.4 C 25 %
1129 14-12-2019 20:01:18 6.6 C 25 %
1130 14-12-2019 20:11:18 6.7 C 25 %
1131 14-12-2019 20:21:17 6.9 C 25 %
1132 14-12-2019 20:31:17 5.8 C 27 %
1133 14-12-2019 20:41:17 5.9 C 27 %
1134 14-12-2019 20:52:17 7 C 25 %
1135 14-12-2019 21:01:17 7.2 C 25 %
1136 14-12-2019 21:11:17 7 C 25 %
1137 14-12-2019 21:22:17 7.1 C 25 %
1138 14-12-2019 21:31:18 6.7 C 26 %
1139 14-12-2019 21:41:18 6.8 C 26 %
1140 14-12-2019 21:52:17 6.9 C 26 %
1141 14-12-2019 22:02:17 7.1 C 25 %
1142 14-12-2019 22:11:17 6.8 C 26 %
1143 14-12-2019 22:22:17 6.9 C 26 %
1144 14-12-2019 22:31:17 7.3 C 25 %
1145 14-12-2019 22:41:17 7 C 26 %
1146 14-12-2019 22:52:17 7.3 C 25 %
1147 14-12-2019 23:02:17 7.1 C 25 %
1148 14-12-2019 23:12:17 7.3 C 25 %
1149 14-12-2019 23:22:17 7 C 26 %
1150 14-12-2019 23:31:18 7 C 26 %
Sensor: Nr:Datum:Temp:Feuchte:
Aussen-T/F 1151 14-12-2019 23:41:18 7.4 C 25 %
1152 14-12-2019 23:51:18 7 C 25 %
1153 15-12-2019 00:02:17 6.4 C 27 %
1154 15-12-2019 00:11:17 6 C 28 %
1155 15-12-2019 00:22:17 5.6 C 30 %
1156 15-12-2019 00:31:18 5.3 C 31 %
1157 15-12-2019 00:41:18 5.1 C 32 %
1158 15-12-2019 00:52:17 5.2 C 32 %
1159 15-12-2019 01:02:17 5.2 C 32 %
1160 15-12-2019 01:12:17 5.3 C 33 %
1161 15-12-2019 01:22:17 5.5 C 33 %
1162 15-12-2019 01:31:18 5.7 C 31 %
1163 15-12-2019 01:41:18 5.6 C 31 %
1164 15-12-2019 01:52:17 5.6 C 31 %
1165 15-12-2019 02:02:17 5.9 C 31 %
1166 15-12-2019 02:12:17 5.8 C 32 %
1167 15-12-2019 02:22:17 5.9 C 32 %
1168 15-12-2019 02:32:18 5.7 C 35 %
1169 15-12-2019 02:42:18 5.8 C 37 %
1170 15-12-2019 02:52:17 5.9 C 39 %
1171 15-12-2019 03:02:18 5.9 C 40 %
1172 15-12-2019 03:12:18 5.9 C 41 %
1173 15-12-2019 03:22:17 6 C 41 %
1174 15-12-2019 03:32:17 6 C 42 %
1175 15-12-2019 03:42:17 6.3 C 42 %
Sensor: Nr:Datum:Temp:Feuchte:
Aussen-T/F 1176 15-12-2019 03:52:17 6.4 C 42 %
1177 15-12-2019 04:02:17 6.8 C 42 %
1178 15-12-2019 04:12:17 7.3 C 41 %
1179 15-12-2019 04:22:17 7.3 C 41 %
1180 15-12-2019 04:32:17 7.5 C 41 %
1181 15-12-2019 04:42:17 7.9 C 40 %
1182 15-12-2019 04:52:17 8 C 39 %
1183 15-12-2019 05:02:17 8.2 C 38 %
1184 15-12-2019 05:12:17 8.2 C 37 %
1185 15-12-2019 05:22:17 8.4 C 37 %
1186 15-12-2019 05:32:18 9 C 34 %
1187 15-12-2019 05:42:18 10 C 30 %
1188 15-12-2019 05:52:17 10.2 C 30 %
1189 15-12-2019 06:02:17 10.3 C 29 %
1190 15-12-2019 06:12:17 10.3 C 29 %
1191 15-12-2019 06:22:17 10.1 C 29 %
1192 15-12-2019 06:32:17 10.5 C 28 %
1193 15-12-2019 06:42:17 10.8 C 27 %
1194 15-12-2019 06:52:17 10.7 C 27 %
1195 15-12-2019 07:02:17 10.5 C 27 %
1196 15-12-2019 07:12:17 10.9 C 27 %
1197 15-12-2019 07:22:17 10.3 C 27 %
1198 15-12-2019 07:32:17 10.6 C 27 %
1199 15-12-2019 07:42:17 10.5 C 27 %
1200 15-12-2019 07:52:17 10.7 C 27 %
Sensor: Nr:Datum:Temp:Feuchte:
Aussen-T/F 1201 15-12-2019 08:02:17 10.7 C 27 %
1202 15-12-2019 08:12:17 11 C 26 %
1203 15-12-2019 08:22:17 10.9 C 27 %
1204 15-12-2019 08:32:18 10.6 C 27 %
1205 15-12-2019 08:42:18 10.2 C 28 %
1206 15-12-2019 08:52:17 9.5 C 34 %
1207 15-12-2019 09:02:17 9.2 C 34 %
1208 15-12-2019 09:12:17 8.9 C 35 %
1209 15-12-2019 09:22:17 8.7 C 33 %
1210 15-12-2019 09:32:17 8.5 C 34 %
1211 15-12-2019 09:42:17 8.2 C 35 %
1212 15-12-2019 09:52:18 8 C 36 %
1213 15-12-2019 10:02:18 8.1 C 34 %
1214 15-12-2019 10:12:18 8.2 C 32 %
1215 15-12-2019 10:22:18 8.2 C 34 %
1216 15-12-2019 10:32:17 8.1 C 33 %
1217 15-12-2019 10:42:17 8.5 C 31 %
1218 15-12-2019 10:52:17 8.7 C 30 %
1219 15-12-2019 11:02:17 8.4 C 30 %
1220 15-12-2019 11:12:17 8.5 C 30 %
1221 15-12-2019 11:22:17 8.5 C 28 %
1222 15-12-2019 11:32:17 8.6 C 28 %
1223 15-12-2019 11:42:17 8.6 C 28 %
1224 15-12-2019 11:52:17 8.3 C 27 %
1225 15-12-2019 12:02:17 8.3 C 27 %
Sensor: Nr:Datum:Temp:Feuchte:
Aussen-T/F 1226 15-12-2019 12:12:17 8.1 C 27 %
1227 15-12-2019 12:22:17 8.1 C 28 %
1228 15-12-2019 12:32:17 7.9 C 29 %
1229 15-12-2019 12:42:17 8.2 C 28 %
1230 15-12-2019 12:52:18 8.4 C 28 %
1231 15-12-2019 13:02:18 8.7 C 27 %
1232 15-12-2019 13:12:18 9.1 C 25 %
1233 15-12-2019 13:22:17 9.3 C 23 %
1234 15-12-2019 13:32:17 9.2 C 21 %
1235 15-12-2019 13:42:17 9.2 C 20 %
1236 15-12-2019 13:52:18 9.2 C 20 %
1237 15-12-2019 14:02:17 9.2 C 20 %
1238 15-12-2019 14:12:17 9.3 C 20 %
1239 15-12-2019 14:22:17 9.3 C 20 %
1240 15-12-2019 14:32:17 9.1 C 20 %
1241 15-12-2019 14:42:17 9.1 C 20 %
1242 15-12-2019 14:52:17 9 C 20 %
1243 15-12-2019 15:02:17 9 C 20 %
1244 15-12-2019 15:12:17 8.9 C 20 %
1245 15-12-2019 15:22:17 8.9 C 20 %
1246 15-12-2019 15:32:17 8.8 C 20 %
1247 15-12-2019 15:42:17 8.7 C 20 %
1248 15-12-2019 15:52:17 8.7 C 20 %
1249 15-12-2019 16:02:17 8.4 C 20 %
1250 15-12-2019 16:12:17 8.2 C 20 %
Sensor: Nr:Datum:Temp:Feuchte:
Aussen-T/F 1251 15-12-2019 16:22:18 8.4 C 20 %
1252 15-12-2019 16:32:17 7.9 C 20 %
1253 15-12-2019 16:42:17 7.6 C 20 %
1254 15-12-2019 16:52:17 8 C 20 %
1255 15-12-2019 17:02:17 7.4 C 20 %
1256 15-12-2019 17:12:17 7.4 C 20 %
1257 15-12-2019 17:22:17 7.8 C 20 %
1258 15-12-2019 17:32:17 7.2 C 21 %
1259 15-12-2019 17:42:17 7.6 C 20 %
1260 15-12-2019 17:52:17 7.7 C 20 %
1261 15-12-2019 18:02:17 7.5 C 20 %
1262 15-12-2019 18:12:17 8.2 C 20 %
1263 15-12-2019 18:22:17 7.5 C 20 %
1264 15-12-2019 18:32:17 6.9 C 25 %
1265 15-12-2019 18:42:17 6.2 C 27 %
1266 15-12-2019 18:52:18 5.9 C 29 %
1267 15-12-2019 19:02:17 5.4 C 30 %
1268 15-12-2019 19:12:17 5.3 C 31 %
1269 15-12-2019 19:22:17 4.9 C 32 %
1270 15-12-2019 19:32:18 5.3 C 32 %
1271 15-12-2019 19:42:18 5 C 33 %
1272 15-12-2019 19:52:17 5.4 C 33 %
1273 15-12-2019 20:02:17 5.2 C 33 %
1274 15-12-2019 20:12:17 4.7 C 35 %
1275 15-12-2019 20:22:17 4.4 C 36 %
Sensor: Nr:Datum:Temp:Feuchte:
Aussen-T/F 1276 15-12-2019 20:32:17 4.3 C 37 %
1277 15-12-2019 20:42:17 3.9 C 39 %
1278 15-12-2019 20:52:17 3.7 C 40 %
1279 15-12-2019 21:02:17 3.5 C 41 %
1280 15-12-2019 21:12:17 3.3 C 41 %
1281 15-12-2019 21:22:17 3.1 C 41 %
1282 15-12-2019 21:32:18 2.8 C 42 %
1283 15-12-2019 21:42:18 2.9 C 43 %
1284 15-12-2019 21:52:17 3.3 C 43 %
1285 15-12-2019 22:02:17 3.3 C 44 %
1286 15-12-2019 22:12:17 3.3 C 43 %
1287 15-12-2019 22:22:17 3.5 C 43 %
1288 15-12-2019 22:32:17 3.5 C 43 %
1289 15-12-2019 22:42:17 3.4 C 43 %
1290 15-12-2019 22:52:18 3.3 C 43 %
1291 15-12-2019 23:02:17 3.5 C 43 %
1292 15-12-2019 23:12:18 3.6 C 43 %
1293 15-12-2019 23:22:17 3.7 C 43 %
1294 15-12-2019 23:32:18 3.5 C 42 %
1295 15-12-2019 23:42:18 3.3 C 42 %
1296 15-12-2019 23:52:17 3.8 C 43 %
1297 16-12-2019 00:02:17 4 C 42 %
1298 16-12-2019 00:12:17 4.4 C 42 %
1299 16-12-2019 00:22:17 4.4 C 42 %
1300 16-12-2019 00:32:17 4.5 C 42 %
Sensor: Nr:Datum:Temp:Feuchte:
Aussen-T/F 1301 16-12-2019 00:42:17 4.5 C 42 %
1302 16-12-2019 00:52:18 4.7 C 42 %
1303 16-12-2019 01:02:17 5.1 C 41 %
1304 16-12-2019 01:12:17 5 C 41 %
1305 16-12-2019 01:22:17 5.2 C 42 %
1306 16-12-2019 01:32:17 5.2 C 41 %
1307 16-12-2019 01:42:18 5.3 C 42 %
1308 16-12-2019 01:52:17 5.5 C 42 %
1309 16-12-2019 02:02:18 5.4 C 42 %
1310 16-12-2019 02:12:18 5.5 C 42 %
1311 16-12-2019 02:22:17 5.7 C 42 %
1312 16-12-2019 02:32:17 5.7 C 42 %
1313 16-12-2019 02:42:17 5.9 C 42 %
1314 16-12-2019 02:52:18 5.8 C 41 %
1315 16-12-2019 03:02:17 5.8 C 41 %
1316 16-12-2019 03:12:17 5.9 C 41 %
1317 16-12-2019 03:22:17 5.9 C 41 %
1318 16-12-2019 03:32:18 5.9 C 41 %
1319 16-12-2019 03:42:18 5.8 C 41 %
1320 16-12-2019 03:52:17 6 C 41 %
1321 16-12-2019 04:02:17 6 C 41 %
1322 16-12-2019 04:12:17 6 C 41 %
1323 16-12-2019 04:22:17 5.9 C 41 %
1324 16-12-2019 04:32:17 6.1 C 41 %
1325 16-12-2019 04:42:17 6.2 C 41 %
Sensor: Nr:Datum:Temp:Feuchte:
Aussen-T/F 1326 16-12-2019 04:52:17 6.3 C 41 %
1327 16-12-2019 05:02:17 6.4 C 41 %
1328 16-12-2019 05:12:17 6.4 C 41 %
1329 16-12-2019 05:22:17 6.5 C 41 %
1330 16-12-2019 05:32:17 6.6 C 41 %
1331 16-12-2019 05:42:17 6.6 C 41 %
1332 16-12-2019 05:52:17 6.8 C 41 %
1333 16-12-2019 06:02:17 6.9 C 41 %
1334 16-12-2019 06:12:17 6.9 C 41 %
1335 16-12-2019 06:22:17 6.8 C 40 %
1336 16-12-2019 06:32:17 6.7 C 40 %
1337 16-12-2019 06:42:17 6.8 C 40 %
1338 16-12-2019 06:52:17 6.8 C 40 %
1339 16-12-2019 07:02:17 6.8 C 40 %
1340 16-12-2019 07:12:17 6.7 C 40 %
1341 16-12-2019 07:22:17 6.8 C 40 %
1342 16-12-2019 07:32:18 6.9 C 41 %
1343 16-12-2019 07:42:18 6.9 C 41 %
1344 16-12-2019 07:52:17 7 C 40 %
1345 16-12-2019 08:02:17 7.1 C 40 %
1346 16-12-2019 08:12:17 7 C 40 %
1347 16-12-2019 08:22:17 7.1 C 40 %
1348 16-12-2019 08:32:17 7.1 C 40 %
1349 16-12-2019 08:42:17 7.1 C 40 %
1350 16-12-2019 08:52:17 7.2 C 40 %
Sensor: Nr:Datum:Temp:Feuchte:
Aussen-T/F 1351 16-12-2019 09:02:17 7.3 C 40 %
1352 16-12-2019 09:12:17 7.5 C 40 %
1353 16-12-2019 09:22:18 7.4 C 40 %
1354 16-12-2019 09:32:17 7.5 C 40 %
1355 16-12-2019 09:42:17 7.5 C 40 %
1356 16-12-2019 09:52:17 7.6 C 40 %
1357 16-12-2019 10:02:18 7.6 C 40 %
1358 16-12-2019 10:12:18 7.7 C 40 %
1359 16-12-2019 10:22:17 7.8 C 40 %
1360 16-12-2019 10:32:17 7.9 C 40 %
1361 16-12-2019 10:42:17 8.1 C 40 %
1362 16-12-2019 10:52:17 8.2 C 40 %
1363 16-12-2019 11:02:17 8.3 C 40 %
1364 16-12-2019 11:12:17 8.5 C 40 %
1365 16-12-2019 11:22:17 8.9 C 40 %
1366 16-12-2019 11:32:18 8.8 C 39 %
1367 16-12-2019 11:42:18 9.1 C 39 %
1368 16-12-2019 11:52:17 9.4 C 39 %
1369 16-12-2019 12:02:17 9.3 C 38 %
1370 16-12-2019 12:12:17 9.3 C 37 %
1371 16-12-2019 12:22:17 9.3 C 37 %
1372 16-12-2019 12:32:17 9.4 C 37 %
1373 16-12-2019 12:42:17 9.4 C 38 %
1374 16-12-2019 12:52:17 9.8 C 38 %
1375 16-12-2019 13:02:17 9.9 C 36 %
Sensor: Nr:Datum:Temp:Feuchte:
Aussen-T/F 1376 16-12-2019 13:12:17 9.9 C 36 %
1377 16-12-2019 13:22:17 10 C 35 %
1378 16-12-2019 13:32:17 10.2 C 34 %
1379 16-12-2019 13:42:17 10.2 C 35 %
1380 16-12-2019 13:52:18 10.3 C 34 %
1381 16-12-2019 14:02:17 10.1 C 34 %
1382 16-12-2019 14:12:17 10.2 C 34 %
1383 16-12-2019 14:22:17 10.3 C 34 %
1384 16-12-2019 14:32:17 10.2 C 33 %
1385 16-12-2019 14:42:17 10.1 C 34 %
1386 16-12-2019 14:52:18 10.1 C 34 %
1387 16-12-2019 15:02:17 9.9 C 35 %
1388 16-12-2019 15:12:17 9.8 C 35 %
1389 16-12-2019 15:22:17 9.6 C 36 %
1390 16-12-2019 15:32:18 9.3 C 37 %
1391 16-12-2019 15:42:18 9.1 C 39 %
1392 16-12-2019 15:52:17 9 C 40 %
1393 16-12-2019 16:02:17 8.7 C 40 %
1394 16-12-2019 16:12:17 8.5 C 40 %
1395 16-12-2019 16:22:17 8.4 C 40 %
1396 16-12-2019 16:32:18 8.2 C 41 %
1397 16-12-2019 16:42:18 8 C 40 %
1398 16-12-2019 16:52:17 7.7 C 41 %
1399 16-12-2019 17:02:17 7.4 C 41 %
1400 16-12-2019 17:12:17 7.3 C 41 %
Sensor: Nr:Datum:Temp:Feuchte:
Aussen-T/F 1401 16-12-2019 17:22:17 7.5 C 41 %
1402 16-12-2019 17:32:17 7.3 C 41 %
1403 16-12-2019 17:42:17 7.2 C 41 %
1404 16-12-2019 17:52:17 7 C 41 %
1405 16-12-2019 18:02:17 7.1 C 41 %
1406 16-12-2019 18:12:17 7.4 C 41 %
1407 16-12-2019 18:22:17 7.5 C 41 %
1408 16-12-2019 18:32:17 8.2 C 40 %
1409 16-12-2019 18:42:17 8.1 C 38 %
1410 16-12-2019 18:52:17 8.7 C 37 %
1411 16-12-2019 19:02:18 8.5 C 35 %
1412 16-12-2019 19:12:18 7.9 C 36 %
1413 16-12-2019 19:22:17 7.7 C 37 %
1414 16-12-2019 19:32:17 8.5 C 40 %
1415 16-12-2019 19:42:17 7.9 C 37 %
1416 16-12-2019 19:52:18 8 C 37 %
1417 16-12-2019 20:02:17 7.9 C 37 %
1418 16-12-2019 20:12:17 8.1 C 36 %
1419 16-12-2019 20:22:17 7.7 C 37 %
1420 16-12-2019 20:32:17 8 C 39 %
1421 16-12-2019 20:42:17 7.9 C 36 %
1422 16-12-2019 20:52:17 7.8 C 36 %
1423 16-12-2019 21:02:17 7.3 C 37 %
1424 16-12-2019 21:12:17 7.2 C 40 %
1425 16-12-2019 21:22:17 7.5 C 39 %
Sensor: Nr:Datum:Temp:Feuchte:
Aussen-T/F 1426 16-12-2019 21:32:17 7.2 C 38 %
1427 16-12-2019 21:42:17 7 C 40 %
1428 16-12-2019 21:52:17 6.7 C 41 %
1429 16-12-2019 22:02:17 6.9 C 41 %
1430 16-12-2019 22:12:17 7.5 C 40 %
1431 16-12-2019 22:22:17 7.4 C 38 %
1432 16-12-2019 22:32:17 7.9 C 37 %
1433 16-12-2019 22:42:17 7.8 C 36 %
1434 16-12-2019 22:52:18 7.3 C 37 %
1435 16-12-2019 23:02:17 7.3 C 39 %
1436 16-12-2019 23:12:17 7.3 C 39 %
1437 16-12-2019 23:22:17 7.5 C 40 %
1438 16-12-2019 23:32:17 7.6 C 39 %
1439 16-12-2019 23:42:17 7.6 C 39 %
1440 16-12-2019 23:52:18 7.8 C 39 %
1441 17-12-2019 00:02:17 7.6 C 37 %
1442 17-12-2019 00:12:17 7.5 C 38 %
1443 17-12-2019 00:22:17 7.6 C 38 %
1444 17-12-2019 00:32:18 7.3 C 39 %
1445 17-12-2019 00:42:18 7.2 C 40 %
1446 17-12-2019 00:52:17 7.4 C 39 %
1447 17-12-2019 01:02:17 7.2 C 39 %
1448 17-12-2019 01:12:17 7.4 C 40 %
1449 17-12-2019 01:22:17 7.8 C 39 %
1450 17-12-2019 01:32:17 7.3 C 37 %
Sensor: Nr:Datum:Temp:Feuchte:
Aussen-T/F 1451 17-12-2019 01:42:17 7.4 C 38 %
1452 17-12-2019 01:52:17 7.4 C 37 %
1453 17-12-2019 02:02:18 7.4 C 37 %
1454 17-12-2019 02:12:18 7.6 C 37 %
1455 17-12-2019 02:22:17 7.3 C 37 %
1456 17-12-2019 02:32:17 7.1 C 37 %
1457 17-12-2019 02:42:17 7.5 C 36 %
1458 17-12-2019 02:52:18 7.6 C 36 %
1459 17-12-2019 03:02:17 8 C 35 %
1460 17-12-2019 03:12:17 8.1 C 35 %
1461 17-12-2019 03:22:17 8.4 C 35 %
1462 17-12-2019 03:32:17 8.8 C 32 %
1463 17-12-2019 03:42:17 8.9 C 32 %
1464 17-12-2019 03:52:18 8.8 C 32 %
1465 17-12-2019 04:02:17 8.5 C 32 %
1466 17-12-2019 04:12:17 8.5 C 32 %
1467 17-12-2019 04:22:17 8.4 C 32 %
1468 17-12-2019 04:32:17 8.4 C 32 %
1469 17-12-2019 04:42:17 8 C 32 %
1470 17-12-2019 04:52:18 8.3 C 33 %
1471 17-12-2019 05:02:17 8.5 C 33 %
1472 17-12-2019 05:12:17 8.5 C 33 %
1473 17-12-2019 05:22:17 8.2 C 33 %
1474 17-12-2019 05:32:17 8.1 C 34 %
1475 17-12-2019 05:42:17 7.9 C 35 %
Sensor: Nr:Datum:Temp:Feuchte:
Aussen-T/F 1476 17-12-2019 05:52:17 7.9 C 36 %
1477 17-12-2019 06:02:17 7.8 C 36 %
1478 17-12-2019 06:12:17 7.3 C 36 %
1479 17-12-2019 06:22:18 7.3 C 38 %
1480 17-12-2019 06:32:17 7.5 C 38 %
1481 17-12-2019 06:42:17 7.6 C 36 %
1482 17-12-2019 06:52:17 7.6 C 38 %
1483 17-12-2019 07:02:17 7.7 C 36 %
1484 17-12-2019 07:12:17 7.6 C 37 %
1485 17-12-2019 07:22:17 7.5 C 36 %
1486 17-12-2019 07:32:18 7 C 37 %
1487 17-12-2019 07:42:18 7.4 C 38 %
1488 17-12-2019 07:52:17 7.2 C 36 %
1489 17-12-2019 08:02:17 7.2 C 36 %
1490 17-12-2019 08:12:17 6.9 C 37 %
1491 17-12-2019 08:22:17 6.9 C 38 %
1492 17-12-2019 08:32:17 7 C 38 %
1493 17-12-2019 08:42:18 6.9 C 37 %
1494 17-12-2019 08:52:17 6.9 C 37 %
1495 17-12-2019 09:02:17 6.5 C 38 %
1496 17-12-2019 09:12:17 6.4 C 39 %
1497 17-12-2019 09:22:18 6.5 C 40 %
1498 17-12-2019 09:32:17 6.4 C 40 %
1499 17-12-2019 09:42:17 6.6 C 40 %
1500 17-12-2019 09:52:17 6.3 C 39 %
Sensor: Nr:Datum:Temp:Feuchte:
Aussen-T/F 1501 17-12-2019 10:02:18 6.4 C 40 %
1502 17-12-2019 10:12:18 6.4 C 40 %
1503 17-12-2019 10:22:17 6.4 C 39 %
1504 17-12-2019 10:32:17 6.8 C 40 %
1505 17-12-2019 10:42:17 7.2 C 37 %
1506 17-12-2019 10:52:17 8 C 36 %
1507 17-12-2019 11:02:17 8.6 C 34 %
1508 17-12-2019 11:12:17 8.5 C 32 %
1509 17-12-2019 11:22:17 8.7 C 32 %
1510 17-12-2019 11:32:17 9 C 32 %
1511 17-12-2019 11:42:17 9.1 C 32 %
1512 17-12-2019 11:52:17 9 C 32 %
1513 17-12-2019 12:02:17 9 C 34 %
1514 17-12-2019 12:12:17 9.2 C 34 %
1515 17-12-2019 12:22:17 9.5 C 33 %
1516 17-12-2019 12:32:17 9.7 C 32 %
1517 17-12-2019 12:42:17 9.8 C 32 %
1518 17-12-2019 12:52:17 9.6 C 32 %
1519 17-12-2019 13:02:17 10.1 C 31 %
1520 17-12-2019 13:12:17 10.4 C 30 %
1521 17-12-2019 13:22:17 10.6 C 30 %
1522 17-12-2019 13:32:17 11 C 29 %
1523 17-12-2019 13:42:17 11.6 C 28 %
1524 17-12-2019 13:52:18 12.3 C 26 %
1525 17-12-2019 14:02:17 12.5 C 26 %
Sensor: Nr:Datum:Temp:Feuchte:
Aussen-T/F 1526 17-12-2019 14:12:17 12.4 C 26 %
1527 17-12-2019 14:22:17 11.6 C 27 %
1528 17-12-2019 14:32:17 11.4 C 27 %
1529 17-12-2019 14:42:17 11.5 C 27 %
1530 17-12-2019 14:52:17 11.8 C 27 %
1531 17-12-2019 15:02:17 12 C 26 %
1532 17-12-2019 15:12:17 12 C 26 %
1533 17-12-2019 15:22:17 11.8 C 27 %
1534 17-12-2019 15:32:17 11.8 C 27 %
1535 17-12-2019 15:42:17 12.3 C 25 %
1536 17-12-2019 15:52:18 12.2 C 25 %
1537 17-12-2019 16:02:17 12.4 C 25 %
1538 17-12-2019 16:12:17 12.4 C 25 %
1539 17-12-2019 16:22:17 12.5 C 25 %
1540 17-12-2019 16:32:18 12.6 C 25 %
1541 17-12-2019 16:42:18 12.2 C 25 %
1542 17-12-2019 16:52:17 11.8 C 25 %
1543 17-12-2019 17:02:17 11.2 C 26 %
1544 17-12-2019 17:12:18 11.5 C 25 %
1545 17-12-2019 17:22:17 12 C 24 %
1546 17-12-2019 17:32:18 13.1 C 20 %
1547 17-12-2019 17:42:18 13.4 C 20 %
1548 17-12-2019 17:52:17 13.8 C 20 %
1549 17-12-2019 18:02:17 13.4 C 20 %
1550 17-12-2019 18:12:17 13.2 C 20 %
Sensor: Nr:Datum:Temp:Feuchte:
Aussen-T/F 1551 17-12-2019 18:22:17 13.6 C 20 %
1552 17-12-2019 18:32:17 13.7 C 20 %
1553 17-12-2019 18:42:17 13.1 C 21 %
1554 17-12-2019 18:52:17 12.7 C 25 %
1555 17-12-2019 19:02:17 12.8 C 25 %
1556 17-12-2019 19:12:17 13.1 C 22 %
1557 17-12-2019 19:22:17 12.8 C 25 %
1558 17-12-2019 19:32:18 11.7 C 29 %
1559 17-12-2019 19:42:18 11.6 C 29 %
1560 17-12-2019 19:52:17 11.6 C 30 %
1561 17-12-2019 20:02:18 11.6 C 30 %
1562 17-12-2019 20:12:18 11.5 C 31 %
1563 17-12-2019 20:22:17 11.6 C 31 %
1564 17-12-2019 20:32:17 11.3 C 33 %
1565 17-12-2019 20:42:17 11.2 C 35 %
1566 17-12-2019 20:52:17 11 C 36 %
1567 17-12-2019 21:02:17 10.9 C 36 %
1568 17-12-2019 21:12:17 10.5 C 38 %
1569 17-12-2019 21:22:17 10.3 C 39 %
1570 17-12-2019 21:32:17 10.4 C 38 %
1571 17-12-2019 21:42:17 11.5 C 31 %
1572 17-12-2019 21:52:17 11.3 C 31 %
1573 17-12-2019 22:02:17 13 C 25 %
1574 17-12-2019 22:12:17 12.5 C 26 %
1575 17-12-2019 22:22:17 13.1 C 25 %
Sensor: Nr:Datum:Temp:Feuchte:
Aussen-T/F 1576 17-12-2019 22:32:17 13.4 C 25 %
1577 17-12-2019 22:42:17 13.2 C 25 %
1578 17-12-2019 22:52:17 13.1 C 25 %
1579 17-12-2019 23:02:17 12.4 C 26 %
1580 17-12-2019 23:12:17 11.9 C 29 %
1581 17-12-2019 23:22:17 11.3 C 30 %
1582 17-12-2019 23:32:17 11.1 C 31 %
1583 17-12-2019 23:42:17 11 C 30 %
1584 17-12-2019 23:52:17 10.8 C 33 %
1585 18-12-2019 00:02:17 10.4 C 35 %
1586 18-12-2019 00:12:17 10.4 C 34 %
1587 18-12-2019 00:22:17 10.5 C 34 %
1588 18-12-2019 00:32:18 10.9 C 31 %
1589 18-12-2019 00:42:18 11 C 30 %
1590 18-12-2019 00:52:17 11 C 30 %
1591 18-12-2019 01:02:17 10.8 C 30 %
1592 18-12-2019 01:12:17 11 C 29 %
1593 18-12-2019 01:22:17 11.1 C 29 %
1594 18-12-2019 01:32:18 10.9 C 30 %
1595 18-12-2019 01:42:18 10.4 C 30 %
1596 18-12-2019 01:52:17 10.8 C 30 %
1597 18-12-2019 02:02:17 11.1 C 30 %
1598 18-12-2019 02:12:17 11.1 C 29 %
1599 18-12-2019 02:22:17 11.2 C 30 %
1600 18-12-2019 02:32:17 11.3 C 29 %
Sensor: Nr:Datum:Temp:Feuchte:
Aussen-T/F 1601 18-12-2019 02:42:18 10.9 C 30 %
1602 18-12-2019 02:52:17 10.9 C 31 %
1603 18-12-2019 03:02:17 10.6 C 33 %
1604 18-12-2019 03:12:17 10.3 C 35 %
1605 18-12-2019 03:22:18 10.3 C 37 %
1606 18-12-2019 03:32:17 10.1 C 37 %
1607 18-12-2019 03:42:17 10 C 38 %
1608 18-12-2019 03:52:18 10.1 C 38 %
1609 18-12-2019 04:02:18 10 C 38 %
1610 18-12-2019 04:12:18 9.9 C 38 %
1611 18-12-2019 04:22:17 9.8 C 35 %
1612 18-12-2019 04:32:18 9.6 C 34 %
1613 18-12-2019 04:42:18 9.5 C 33 %
1614 18-12-2019 04:52:17 9.3 C 33 %
1615 18-12-2019 05:02:18 9.2 C 33 %
1616 18-12-2019 05:12:18 9.1 C 33 %
1617 18-12-2019 05:22:17 8.8 C 35 %
1618 18-12-2019 05:32:17 8.7 C 36 %
1619 18-12-2019 05:42:17 8.2 C 36 %
1620 18-12-2019 05:52:17 8.2 C 39 %
1621 18-12-2019 06:02:18 8.1 C 39 %
1622 18-12-2019 06:12:18 8 C 37 %
1623 18-12-2019 06:22:17 8 C 37 %
1624 18-12-2019 06:32:18 7.9 C 37 %
1625 18-12-2019 06:42:18 7.5 C 37 %
Sensor: Nr:Datum:Temp:Feuchte:
Aussen-T/F 1626 18-12-2019 06:52:17 7.4 C 39 %
1627 18-12-2019 07:02:17 7.2 C 40 %
1628 18-12-2019 07:12:17 7.3 C 40 %
1629 18-12-2019 07:22:17 7.3 C 40 %
1630 18-12-2019 07:32:17 7.1 C 39 %
1631 18-12-2019 07:42:17 6.8 C 40 %
1632 18-12-2019 07:52:17 6.9 C 41 %
1633 18-12-2019 08:02:17 6.7 C 41 %
1634 18-12-2019 08:12:17 6.5 C 41 %
1635 18-12-2019 08:22:17 6.5 C 41 %
1636 18-12-2019 08:32:17 6.3 C 41 %
1637 18-12-2019 08:42:17 6.4 C 42 %
1638 18-12-2019 08:52:17 6.6 C 42 %
1639 18-12-2019 09:02:17 6.5 C 41 %
1640 18-12-2019 09:12:17 6.1 C 40 %
1641 18-12-2019 09:22:17 6 C 41 %
1642 18-12-2019 09:32:17 6.5 C 42 %
1643 18-12-2019 09:42:17 6.7 C 42 %
1644 18-12-2019 09:52:17 6.9 C 41 %
1645 18-12-2019 10:02:17 7 C 40 %
1646 18-12-2019 10:12:18 7.1 C 40 %
1647 18-12-2019 10:22:17 7.5 C 38 %
1648 18-12-2019 10:32:17 7.5 C 36 %
1649 18-12-2019 10:42:17 7.4 C 36 %
1650 18-12-2019 10:52:17 6.9 C 38 %
Sensor: Nr:Datum:Temp:Feuchte:
Aussen-T/F 1651 18-12-2019 11:02:17 6.8 C 38 %
1652 18-12-2019 11:12:17 6.8 C 38 %
1653 18-12-2019 11:22:17 6.6 C 38 %
1654 18-12-2019 11:32:18 6.7 C 39 %
1655 18-12-2019 11:42:18 6.9 C 38 %
1656 18-12-2019 11:52:17 7.6 C 35 %
1657 18-12-2019 12:02:17 8.1 C 33 %
1658 18-12-2019 12:12:17 8 C 32 %
1659 18-12-2019 12:22:17 8.3 C 31 %
1660 18-12-2019 12:32:17 8.6 C 30 %
1661 18-12-2019 12:42:17 8.8 C 29 %
1662 18-12-2019 12:52:17 8.7 C 29 %
1663 18-12-2019 13:02:17 8.4 C 30 %
1664 18-12-2019 13:12:17 8.2 C 30 %
1665 18-12-2019 13:22:17 7.9 C 31 %
1666 18-12-2019 13:32:18 7.8 C 32 %
1667 18-12-2019 13:42:18 7.7 C 33 %
1668 18-12-2019 13:52:17 7.8 C 32 %
1669 18-12-2019 14:02:18 7.8 C 33 %
1670 18-12-2019 14:12:18 7.7 C 33 %
1671 18-12-2019 14:22:17 7.5 C 34 %
1672 18-12-2019 14:32:17 7.3 C 35 %
1673 18-12-2019 14:42:17 7.2 C 35 %
1674 18-12-2019 14:52:17 7.2 C 35 %
1675 18-12-2019 15:02:17 7.2 C 35 %
Sensor: Nr:Datum:Temp:Feuchte:
Aussen-T/F 1676 18-12-2019 15:12:17 7 C 36 %
1677 18-12-2019 15:22:17 7 C 36 %
1678 18-12-2019 15:32:17 6.7 C 37 %
1679 18-12-2019 15:42:17 6.8 C 37 %
1680 18-12-2019 15:52:17 6.7 C 36 %
1681 18-12-2019 16:02:17 6.6 C 36 %
1682 18-12-2019 16:12:17 6.5 C 36 %
1683 18-12-2019 16:22:17 6.4 C 36 %
1684 18-12-2019 16:32:17 6 C 36 %
1685 18-12-2019 16:42:17 5.8 C 37 %
1686 18-12-2019 16:52:17 5.7 C 39 %
1687 18-12-2019 17:02:17 5.3 C 38 %
1688 18-12-2019 17:12:17 4.9 C 40 %
1689 18-12-2019 17:22:17 5 C 42 %
1690 18-12-2019 17:32:17 4.4 C 41 %
1691 18-12-2019 17:42:17 4.2 C 42 %
1692 18-12-2019 17:52:18 4.1 C 42 %
1693 18-12-2019 18:02:17 4.1 C 43 %
1694 18-12-2019 18:12:17 4.1 C 43 %
1695 18-12-2019 18:22:17 4.4 C 43 %
1696 18-12-2019 18:32:17 4.5 C 43 %
1697 18-12-2019 18:42:17 4.3 C 42 %
1698 18-12-2019 18:52:17 4.6 C 43 %
1699 18-12-2019 19:02:17 5 C 42 %
1700 18-12-2019 19:12:17 4.7 C 42 %
Sensor: Nr:Datum:Temp:Feuchte:
Aussen-T/F 1701 18-12-2019 19:22:17 4.3 C 42 %
1702 18-12-2019 19:32:18 4.9 C 43 %
1703 18-12-2019 19:42:18 4.7 C 42 %
1704 18-12-2019 19:52:17 4.6 C 42 %
1705 18-12-2019 20:02:17 5 C 42 %
1706 18-12-2019 20:12:17 5 C 41 %
1707 18-12-2019 20:22:17 4.5 C 41 %
1708 18-12-2019 20:32:17 4.5 C 41 %
1709 18-12-2019 20:42:18 4.1 C 41 %
1710 18-12-2019 20:52:17 3.9 C 42 %
1711 18-12-2019 21:02:17 3.7 C 43 %
1712 18-12-2019 21:12:17 3.6 C 42 %
1713 18-12-2019 21:22:17 3.6 C 43 %
1714 18-12-2019 21:32:17 3.7 C 43 %
1715 18-12-2019 21:42:17 3.6 C 43 %
1716 18-12-2019 21:52:17 3.4 C 43 %
1717 18-12-2019 22:02:17 3.1 C 43 %
1718 18-12-2019 22:12:17 3.1 C 43 %
1719 18-12-2019 22:22:17 2.7 C 43 %
1720 18-12-2019 22:32:17 2.6 C 43 %
1721 18-12-2019 22:42:17 2.5 C 43 %
1722 18-12-2019 22:52:17 2.4 C 43 %
1723 18-12-2019 23:02:17 2.4 C 43 %
1724 18-12-2019 23:12:17 2.3 C 43 %
1725 18-12-2019 23:22:18 2.3 C 43 %
Sensor: Nr:Datum:Temp:Feuchte:
Aussen-T/F 1726 18-12-2019 23:32:17 2 C 43 %
1727 18-12-2019 23:42:17 2 C 43 %
1728 18-12-2019 23:52:17 2 C 43 %
1729 19-12-2019 00:02:18 2.3 C 44 %
1730 19-12-2019 00:12:18 2 C 43 %
1731 19-12-2019 00:22:17 2 C 43 %
1732 19-12-2019 00:32:17 2.1 C 43 %
1733 19-12-2019 00:42:17 2.4 C 44 %
1734 19-12-2019 00:52:18 2.3 C 43 %
1735 19-12-2019 01:02:17 2.1 C 43 %
1736 19-12-2019 01:12:17 2 C 43 %
1737 19-12-2019 01:22:17 2 C 43 %
1738 19-12-2019 01:32:18 1.6 C 44 %
1739 19-12-2019 01:42:18 1.9 C 44 %
1740 19-12-2019 01:52:17 2.3 C 43 %
1741 19-12-2019 02:02:17 2.2 C 43 %
1742 19-12-2019 02:12:17 2 C 43 %
1743 19-12-2019 02:22:17 2 C 43 %
1744 19-12-2019 02:32:18 2 C 43 %
1745 19-12-2019 02:42:18 1.8 C 44 %
1746 19-12-2019 02:52:17 2.1 C 43 %
1747 19-12-2019 03:02:18 1.5 C 44 %
1748 19-12-2019 03:12:18 1.6 C 44 %
1749 19-12-2019 03:22:17 1.6 C 44 %
1750 19-12-2019 03:32:17 1.8 C 44 %
Sensor: Nr:Datum:Temp:Feuchte:
Aussen-T/F 1751 19-12-2019 03:42:17 1.7 C 44 %
1752 19-12-2019 03:52:17 1.7 C 44 %
1753 19-12-2019 04:02:17 1.6 C 44 %
1754 19-12-2019 04:12:17 1.5 C 44 %
1755 19-12-2019 04:22:18 1.5 C 44 %
1756 19-12-2019 04:32:17 1.5 C 44 %
1757 19-12-2019 04:42:17 1.4 C 44 %
1758 19-12-2019 04:52:18 1.6 C 44 %
1759 19-12-2019 05:02:17 1.4 C 44 %
1760 19-12-2019 05:12:17 1.5 C 44 %
1761 19-12-2019 05:22:17 1.4 C 44 %
1762 19-12-2019 05:32:17 1.3 C 44 %
1763 19-12-2019 05:42:17 1.3 C 44 %
1764 19-12-2019 05:52:17 1.1 C 44 %
1765 19-12-2019 06:02:17 1.1 C 44 %
1766 19-12-2019 06:12:17 1.2 C 44 %
1767 19-12-2019 06:22:17 1 C 44 %
1768 19-12-2019 06:32:17 1.1 C 44 %
1769 19-12-2019 06:42:18 1 C 43 %
1770 19-12-2019 06:52:17 0.7 C 45 %
1771 19-12-2019 07:02:17 1 C 44 %
1772 19-12-2019 07:12:17 0.9 C 45 %
1773 19-12-2019 07:22:17 1.7 C 44 %
1774 19-12-2019 07:32:17 3.5 C 43 %
1775 19-12-2019 07:42:18 3.2 C 42 %
Sensor: Nr:Datum:Temp:Feuchte:
Aussen-T/F 1776 19-12-2019 07:52:17 3.1 C 42 %
1777 19-12-2019 08:02:18 4.6 C 42 %
1778 19-12-2019 08:12:18 3.8 C 42 %
1779 19-12-2019 08:22:17 3.7 C 42 %
1780 19-12-2019 08:32:18 4.6 C 41 %
1781 19-12-2019 08:42:18 4 C 41 %
1782 19-12-2019 08:52:17 3.3 C 41 %
1783 19-12-2019 09:02:17 4 C 41 %
1784 19-12-2019 09:12:17 4.4 C 41 %
1785 19-12-2019 09:22:17 4.1 C 41 %
1786 19-12-2019 09:32:17 4.6 C 41 %
1787 19-12-2019 09:42:17 4.4 C 41 %
1788 19-12-2019 09:52:17 4.5 C 41 %
1789 19-12-2019 10:02:17 4.7 C 41 %
1790 19-12-2019 10:12:17 4.9 C 41 %
1791 19-12-2019 10:22:17 5.2 C 41 %
1792 19-12-2019 10:32:17 7 C 40 %
1793 19-12-2019 10:42:17 7.2 C 40 %
1794 19-12-2019 10:52:18 6.7 C 40 %
1795 19-12-2019 11:02:17 6.4 C 39 %
1796 19-12-2019 11:12:17 6.3 C 39 %
1797 19-12-2019 11:22:17 6.3 C 40 %
1798 19-12-2019 11:32:17 6.4 C 40 %
1799 19-12-2019 11:42:17 6.6 C 40 %
1800 19-12-2019 11:52:18 6.7 C 40 %
Sensor: Nr:Datum:Temp:Feuchte:
Aussen-T/F 1801 19-12-2019 12:02:17 6.6 C 40 %
1802 19-12-2019 12:12:17 6.7 C 40 %
1803 19-12-2019 12:22:17 6.7 C 40 %
1804 19-12-2019 12:32:17 7 C 39 %
1805 19-12-2019 12:42:17 7 C 39 %
1806 19-12-2019 12:52:17 7.1 C 39 %
1807 19-12-2019 13:02:17 7.3 C 39 %
1808 19-12-2019 13:12:17 7.1 C 38 %
1809 19-12-2019 13:22:17 7.2 C 39 %
1810 19-12-2019 13:32:17 7.2 C 39 %
1811 19-12-2019 13:42:17 7.3 C 38 %
1812 19-12-2019 13:52:17 7.3 C 38 %
1813 19-12-2019 14:02:17 7.3 C 38 %
1814 19-12-2019 14:12:17 7.1 C 38 %
1815 19-12-2019 14:22:17 7.1 C 38 %
1816 19-12-2019 14:32:17 7.2 C 38 %
1817 19-12-2019 14:42:17 7.3 C 37 %
1818 19-12-2019 14:52:17 7.9 C 36 %
1819 19-12-2019 15:02:17 8.1 C 34 %
1820 19-12-2019 15:12:17 8.1 C 33 %
1821 19-12-2019 15:22:17 8.4 C 32 %
1822 19-12-2019 15:32:18 8.6 C 32 %
1823 19-12-2019 15:42:18 8.7 C 31 %
1824 19-12-2019 15:52:17 8.8 C 31 %
1825 19-12-2019 16:02:17 8.7 C 30 %
Sensor: Nr:Datum:Temp:Feuchte:
Aussen-T/F 1826 19-12-2019 16:12:17 8.3 C 31 %
1827 19-12-2019 16:22:18 8.1 C 31 %
1828 19-12-2019 16:32:17 7.9 C 32 %
1829 19-12-2019 16:42:17 7.9 C 31 %
1830 19-12-2019 16:52:17 7.6 C 32 %
1831 19-12-2019 17:02:17 7.4 C 32 %
1832 19-12-2019 17:12:17 6 C 35 %
1833 19-12-2019 17:22:17 5.7 C 37 %
1834 19-12-2019 17:32:17 5.5 C 39 %
1835 19-12-2019 17:42:17 5 C 39 %
1836 19-12-2019 17:52:17 4.9 C 41 %
1837 19-12-2019 18:02:17 5.2 C 42 %
1838 19-12-2019 18:12:18 4.9 C 42 %
1839 19-12-2019 18:22:17 5.2 C 42 %
1840 19-12-2019 18:32:17 5 C 41 %
1841 19-12-2019 18:42:17 5 C 41 %
1842 19-12-2019 18:52:18 5.8 C 42 %
1843 19-12-2019 19:02:17 5.7 C 41 %
1844 19-12-2019 19:12:17 5.2 C 39 %
1845 19-12-2019 19:22:18 4.7 C 40 %
1846 19-12-2019 19:32:17 4.9 C 42 %
1847 19-12-2019 19:42:17 4.7 C 42 %
1848 19-12-2019 19:52:17 4.8 C 42 %
1849 19-12-2019 20:02:17 5 C 42 %
1850 19-12-2019 20:12:17 5 C 41 %
Sensor: Nr:Datum:Temp:Feuchte:
Aussen-T/F 1851 19-12-2019 20:22:17 4.8 C 42 %
1852 19-12-2019 20:32:17 5.1 C 42 %
1853 19-12-2019 20:42:17 6 C 41 %
1854 19-12-2019 20:52:17 6 C 38 %
1855 19-12-2019 21:02:17 5.8 C 38 %
1856 19-12-2019 21:12:18 5.8 C 39 %
1857 19-12-2019 21:22:17 5.7 C 39 %
1858 19-12-2019 21:32:17 5.8 C 40 %
1859 19-12-2019 21:42:17 6 C 40 %
1860 19-12-2019 21:52:17 5.7 C 40 %
1861 19-12-2019 22:02:17 5.6 C 40 %
1862 19-12-2019 22:12:17 5.8 C 41 %
1863 19-12-2019 22:22:18 6.2 C 41 %
1864 19-12-2019 22:32:18 5.9 C 40 %
1865 19-12-2019 22:42:18 5.1 C 38 %
1866 19-12-2019 22:52:17 5 C 41 %
1867 19-12-2019 23:02:17 5.4 C 43 %
1868 19-12-2019 23:12:17 5.5 C 42 %
1869 19-12-2019 23:22:17 5.5 C 42 %
1870 19-12-2019 23:32:17 5.4 C 42 %
1871 19-12-2019 23:42:17 5.4 C 42 %
1872 19-12-2019 23:52:17 5.1 C 41 %
1873 20-12-2019 00:02:17 4.8 C 42 %
1874 20-12-2019 00:12:17 4.3 C 41 %
1875 20-12-2019 00:22:17 4 C 41 %
Sensor: Nr:Datum:Temp:Feuchte:
Aussen-T/F 1876 20-12-2019 00:32:17 3.9 C 43 %
1877 20-12-2019 00:42:17 3.7 C 42 %
1878 20-12-2019 00:52:17 3.4 C 43 %
1879 20-12-2019 01:02:17 3.1 C 42 %
1880 20-12-2019 01:12:17 3 C 43 %
1881 20-12-2019 01:22:17 3.3 C 44 %
1882 20-12-2019 01:32:17 3.1 C 43 %
1883 20-12-2019 01:42:17 3.1 C 43 %
1884 20-12-2019 01:52:17 2.8 C 44 %
1885 20-12-2019 02:02:17 2.8 C 44 %
1886 20-12-2019 02:12:17 2.6 C 44 %
1887 20-12-2019 02:22:17 2.5 C 44 %
1888 20-12-2019 02:32:18 3.2 C 44 %
1889 20-12-2019 02:42:18 3.4 C 44 %
1890 20-12-2019 02:52:17 3.8 C 44 %
1891 20-12-2019 03:02:17 4.7 C 42 %
1892 20-12-2019 03:12:17 4.2 C 41 %
1893 20-12-2019 03:22:17 4.6 C 41 %
1894 20-12-2019 03:32:17 4.4 C 40 %
1895 20-12-2019 03:42:17 4.4 C 40 %
1896 20-12-2019 03:52:17 4.6 C 41 %
1897 20-12-2019 04:02:17 4.4 C 40 %
1898 20-12-2019 04:12:17 4.2 C 40 %
1899 20-12-2019 04:22:17 4 C 41 %
1900 20-12-2019 04:32:18 4.8 C 42 %
Sensor: Nr:Datum:Temp:Feuchte:
Aussen-T/F 1901 20-12-2019 04:42:18 4.5 C 41 %
1902 20-12-2019 04:52:17 4.7 C 40 %
1903 20-12-2019 05:02:17 4.7 C 40 %
1904 20-12-2019 05:12:17 5.3 C 38 %
1905 20-12-2019 05:22:17 5.2 C 36 %
1906 20-12-2019 05:32:17 5.3 C 36 %
1907 20-12-2019 05:42:17 5.4 C 35 %
1908 20-12-2019 05:52:18 5.5 C 35 %
1909 20-12-2019 06:02:18 5.2 C 35 %
1910 20-12-2019 06:12:18 5.3 C 35 %
1911 20-12-2019 06:22:17 5.6 C 35 %
1912 20-12-2019 06:32:17 6 C 32 %
1913 20-12-2019 06:42:17 6 C 31 %
1914 20-12-2019 06:52:17 5.7 C 32 %
1915 20-12-2019 07:02:17 5.8 C 31 %
1916 20-12-2019 07:12:17 5.9 C 31 %
1917 20-12-2019 07:22:17 6.1 C 31 %
1918 20-12-2019 07:32:17 5.9 C 33 %
1919 20-12-2019 07:42:17 6.4 C 31 %
1920 20-12-2019 07:52:17 6.8 C 30 %
1921 20-12-2019 08:02:17 7.1 C 27 %
1922 20-12-2019 08:12:17 6.4 C 31 %
1923 20-12-2019 08:22:17 6.4 C 32 %
1924 20-12-2019 08:32:18 6.5 C 32 %
1925 20-12-2019 08:42:18 6.3 C 32 %
Sensor: Nr:Datum:Temp:Feuchte:
Aussen-T/F 1926 20-12-2019 08:52:17 6.3 C 33 %
1927 20-12-2019 09:02:17 6.5 C 33 %
1928 20-12-2019 09:12:17 6.7 C 31 %
1929 20-12-2019 09:22:17 6.5 C 33 %
1930 20-12-2019 09:32:17 6.4 C 35 %
1931 20-12-2019 09:42:17 6.5 C 35 %
1932 20-12-2019 09:52:17 6.5 C 34 %
1933 20-12-2019 10:02:17 6.2 C 31 %
1934 20-12-2019 10:12:17 6 C 33 %
1935 20-12-2019 10:22:17 5.7 C 35 %
1936 20-12-2019 10:32:17 5.8 C 40 %
1937 20-12-2019 10:42:17 5.9 C 42 %
1938 20-12-2019 10:52:17 6 C 42 %
1939 20-12-2019 11:02:17 6.1 C 42 %
1940 20-12-2019 11:12:17 6 C 42 %
1941 20-12-2019 11:22:17 6.3 C 42 %
1942 20-12-2019 11:32:17 6.5 C 42 %
1943 20-12-2019 11:42:17 6.7 C 41 %
1944 20-12-2019 11:52:17 6.8 C 40 %
1945 20-12-2019 12:02:18 7 C 39 %
1946 20-12-2019 12:12:18 7.3 C 39 %
1947 20-12-2019 12:22:18 7.5 C 39 %
1948 20-12-2019 12:32:17 7.7 C 39 %
1949 20-12-2019 12:42:18 8 C 39 %
1950 20-12-2019 12:52:17 8.1 C 38 %
Sensor: Nr:Datum:Temp:Feuchte:
Aussen-T/F 1951 20-12-2019 13:02:18 8.1 C 39 %
1952 20-12-2019 13:12:18 8.2 C 39 %
1953 20-12-2019 13:22:17 8.3 C 37 %
1954 20-12-2019 13:32:17 8.4 C 36 %
1955 20-12-2019 13:42:17 8.6 C 37 %
1956 20-12-2019 13:52:17 8.5 C 36 %
1957 20-12-2019 14:02:17 8.6 C 36 %
1958 20-12-2019 14:12:17 8.6 C 35 %
1959 20-12-2019 14:22:17 8.7 C 36 %
1960 20-12-2019 14:32:17 8.7 C 36 %
1961 20-12-2019 14:42:17 8.5 C 35 %
1962 20-12-2019 14:52:18 8.3 C 36 %
1963 20-12-2019 15:02:17 8.2 C 37 %
1964 20-12-2019 15:12:17 8.3 C 38 %
1965 20-12-2019 15:22:17 8.3 C 39 %
1966 20-12-2019 15:32:17 8.2 C 40 %
1967 20-12-2019 15:42:17 8.3 C 41 %
1968 20-12-2019 15:52:17 8.2 C 40 %
1969 20-12-2019 16:02:17 8.2 C 40 %
1970 20-12-2019 16:12:18 8.3 C 40 %
1971 20-12-2019 16:22:17 8.3 C 41 %
1972 20-12-2019 16:32:17 8.4 C 41 %
1973 20-12-2019 16:42:17 8.4 C 41 %
1974 20-12-2019 16:52:18 8.6 C 41 %
1975 20-12-2019 17:02:17 9 C 41 %
Sensor: Nr:Datum:Temp:Feuchte:
Aussen-T/F 1976 20-12-2019 17:12:18 9 C 40 %
1977 20-12-2019 17:22:17 9.1 C 36 %
1978 20-12-2019 17:32:17 8.7 C 38 %
1979 20-12-2019 17:42:17 8.8 C 37 %
1980 20-12-2019 17:52:18 8.7 C 38 %
1981 20-12-2019 18:02:17 8.9 C 37 %
1982 20-12-2019 18:12:17 8.9 C 36 %
1983 20-12-2019 18:22:17 8.9 C 37 %
1984 20-12-2019 18:32:17 8.9 C 37 %
1985 20-12-2019 18:42:17 9.7 C 33 %
1986 20-12-2019 18:52:18 9.5 C 31 %
1987 20-12-2019 19:02:17 9.8 C 30 %
1988 20-12-2019 19:12:17 10.1 C 28 %
1989 20-12-2019 19:22:17 9.9 C 29 %
1990 20-12-2019 19:32:17 9.8 C 29 %
1991 20-12-2019 19:42:17 10 C 27 %
1992 20-12-2019 19:52:18 9.7 C 29 %
1993 20-12-2019 20:02:18 9.6 C 28 %
1994 20-12-2019 20:12:18 9.5 C 28 %
1995 20-12-2019 20:22:17 9.5 C 27 %
1996 20-12-2019 20:32:18 9 C 28 %
1997 20-12-2019 20:42:18 9 C 27 %
1998 20-12-2019 20:52:17 8.9 C 28 %
1999 20-12-2019 21:02:18 8.5 C 28 %
2000 20-12-2019 21:12:18 8.6 C 28 %
Sensor: Nr:Datum:Temp:Feuchte:
Aussen-T/F 2001 20-12-2019 21:22:17 8.9 C 27 %
2002 20-12-2019 21:32:17 8.7 C 27 %
2003 20-12-2019 21:42:17 8.3 C 28 %
2004 20-12-2019 21:52:17 8.3 C 28 %
2005 20-12-2019 22:02:17 8.3 C 28 %
2006 20-12-2019 22:12:17 8.1 C 28 %
2007 20-12-2019 22:22:17 8.7 C 27 %
2008 20-12-2019 22:32:17 8.9 C 26 %
2009 20-12-2019 22:42:17 8.7 C 27 %
2010 20-12-2019 22:52:17 8.7 C 27 %
2011 20-12-2019 23:02:17 8.5 C 27 %
2012 20-12-2019 23:12:17 8.4 C 27 %
2013 20-12-2019 23:22:17 8.2 C 28 %
2014 20-12-2019 23:32:17 8 C 28 %
2015 20-12-2019 23:42:17 8.3 C 27 %
2016 20-12-2019 23:52:18 8.1 C 27 %
2017 21-12-2019 00:02:17 7.9 C 28 %
2018 21-12-2019 00:12:17 7.7 C 28 %
2019 21-12-2019 00:22:17 7.5 C 30 %
2020 21-12-2019 00:32:17 7.5 C 30 %
2021 21-12-2019 00:42:17 7.2 C 30 %
2022 21-12-2019 00:52:18 7 C 30 %
2023 21-12-2019 01:02:17 6.9 C 32 %
2024 21-12-2019 01:12:17 7.3 C 31 %
2025 21-12-2019 01:22:17 7.4 C 31 %
Sensor: Nr:Datum:Temp:Feuchte:
Aussen-T/F 2026 21-12-2019 01:32:17 7.3 C 32 %
2027 21-12-2019 01:42:17 7.5 C 31 %
2028 21-12-2019 01:52:17 7.5 C 32 %
2029 21-12-2019 02:02:17 7.9 C 30 %
2030 21-12-2019 02:12:17 8 C 29 %
2031 21-12-2019 02:22:17 8.2 C 28 %
2032 21-12-2019 02:32:18 7.8 C 30 %
2033 21-12-2019 02:42:18 7.8 C 30 %
2034 21-12-2019 02:52:17 7.8 C 30 %
2035 21-12-2019 03:02:17 7.5 C 30 %
2036 21-12-2019 03:12:17 7.5 C 31 %
2037 21-12-2019 03:22:17 7.4 C 31 %
2038 21-12-2019 03:32:18 7.3 C 31 %
2039 21-12-2019 03:42:18 7.1 C 31 %
2040 21-12-2019 03:52:17 7.1 C 32 %
2041 21-12-2019 04:02:17 6.9 C 33 %
2042 21-12-2019 04:12:17 6.7 C 36 %
2043 21-12-2019 04:22:17 6.4 C 37 %
2044 21-12-2019 04:32:18 6 C 38 %
2045 21-12-2019 04:42:18 5.9 C 38 %
2046 21-12-2019 04:52:17 5.7 C 40 %
2047 21-12-2019 05:02:17 6 C 40 %
2048 21-12-2019 05:12:17 5.6 C 39 %
2049 21-12-2019 05:22:17 5.4 C 38 %
2050 21-12-2019 05:32:18 5.4 C 38 %
Sensor: Nr:Datum:Temp:Feuchte:
Aussen-T/F 2051 21-12-2019 05:42:18 5.1 C 38 %
2052 21-12-2019 05:52:17 5.3 C 40 %
2053 21-12-2019 06:02:17 4.9 C 41 %
2054 21-12-2019 06:12:17 4.8 C 41 %
2055 21-12-2019 06:22:18 4.3 C 40 %
2056 21-12-2019 06:32:17 4.3 C 42 %
2057 21-12-2019 06:42:17 5 C 40 %
2058 21-12-2019 06:52:18 3.8 C 41 %
2059 21-12-2019 07:02:17 3.8 C 43 %
2060 21-12-2019 07:12:18 3.5 C 42 %
2061 21-12-2019 07:22:17 3.4 C 43 %
2062 21-12-2019 07:32:17 3.3 C 43 %
2063 21-12-2019 07:42:17 3 C 42 %
2064 21-12-2019 07:52:17 3 C 43 %
2065 21-12-2019 08:02:17 3.1 C 44 %
2066 21-12-2019 08:12:17 3.6 C 44 %
2067 21-12-2019 08:22:17 3.7 C 44 %
2068 21-12-2019 08:32:17 3.9 C 43 %
2069 21-12-2019 08:42:17 4.6 C 43 %
2070 21-12-2019 08:52:17 4.9 C 42 %
2071 21-12-2019 09:02:17 5 C 39 %
2072 21-12-2019 09:12:17 4.5 C 38 %
2073 21-12-2019 09:22:17 4.4 C 38 %
2074 21-12-2019 09:32:17 4.4 C 39 %
2075 21-12-2019 09:42:17 4.6 C 40 %
Sensor: Nr:Datum:Temp:Feuchte:
Aussen-T/F 2076 21-12-2019 09:52:17 4.6 C 38 %
2077 21-12-2019 10:02:17 4.8 C 38 %
2078 21-12-2019 10:12:17 4.8 C 37 %
2079 21-12-2019 10:22:17 5.1 C 37 %
2080 21-12-2019 10:32:17 5.2 C 36 %
2081 21-12-2019 10:42:17 5.1 C 37 %
2082 21-12-2019 10:52:17 5.2 C 37 %
2083 21-12-2019 11:02:17 5.3 C 37 %
2084 21-12-2019 11:12:17 5.3 C 37 %
2085 21-12-2019 11:22:17 5.4 C 37 %
2086 21-12-2019 11:32:17 5.8 C 37 %
2087 21-12-2019 11:42:17 5.9 C 37 %
2088 21-12-2019 11:52:17 5.8 C 37 %
2089 21-12-2019 12:02:17 5.8 C 36 %
2090 21-12-2019 12:12:17 6.2 C 36 %
2091 21-12-2019 12:22:17 6.2 C 35 %
2092 21-12-2019 12:32:17 7 C 32 %
2093 21-12-2019 12:42:17 6.8 C 33 %
2094 21-12-2019 12:52:17 8 C 30 %
2095 21-12-2019 13:02:17 7.8 C 30 %
2096 21-12-2019 13:12:17 7.1 C 30 %
2097 21-12-2019 13:22:17 6.9 C 31 %
2098 21-12-2019 13:32:17 7.2 C 30 %
2099 21-12-2019 13:42:17 8 C 28 %
2100 21-12-2019 13:52:18 7.7 C 28 %
Sensor: Nr:Datum:Temp:Feuchte:
Aussen-T/F 2101 21-12-2019 14:02:17 8.3 C 27 %
2102 21-12-2019 14:12:17 8.8 C 26 %
2103 21-12-2019 14:22:17 8.2 C 27 %
2104 21-12-2019 14:32:18 8.2 C 27 %
2105 21-12-2019 14:42:18 8.5 C 27 %
2106 21-12-2019 14:52:17 8.8 C 26 %
2107 21-12-2019 15:02:18 9 C 25 %
2108 21-12-2019 15:12:18 8.7 C 26 %
2109 21-12-2019 15:22:18 8.8 C 25 %
2110 21-12-2019 15:32:17 8.7 C 25 %
2111 21-12-2019 15:42:17 8 C 26 %
2112 21-12-2019 15:52:17 7.5 C 28 %
2113 21-12-2019 16:02:17 7.7 C 27 %
2114 21-12-2019 16:12:17 7.6 C 29 %
2115 21-12-2019 16:22:17 7.4 C 30 %
2116 21-12-2019 16:32:17 7.4 C 30 %
2117 21-12-2019 16:42:17 7.7 C 28 %
2118 21-12-2019 16:52:17 7.9 C 27 %
2119 21-12-2019 17:02:17 7.6 C 29 %
2120 21-12-2019 17:12:17 7.3 C 30 %
2121 21-12-2019 17:22:17 7.2 C 30 %
2122 21-12-2019 17:32:17 7.3 C 30 %
2123 21-12-2019 17:42:17 7.3 C 29 %
2124 21-12-2019 17:52:17 7.2 C 29 %
2125 21-12-2019 18:02:17 7.6 C 27 %
Sensor: Nr:Datum:Temp:Feuchte:
Aussen-T/F 2126 21-12-2019 18:12:17 7.6 C 27 %
2127 21-12-2019 18:22:17 7.6 C 26 %
2128 21-12-2019 18:32:18 7.9 C 25 %
2129 21-12-2019 18:42:18 7.7 C 26 %
2130 21-12-2019 18:52:17 7.5 C 26 %
2131 21-12-2019 19:02:17 7.3 C 27 %
2132 21-12-2019 19:12:17 7 C 27 %
2133 21-12-2019 19:22:17 7 C 27 %
2134 21-12-2019 19:32:17 6.9 C 30 %
2135 21-12-2019 19:42:17 6.8 C 30 %
2136 21-12-2019 19:52:17 7 C 27 %
2137 21-12-2019 20:02:17 7.1 C 26 %
2138 21-12-2019 20:12:17 7.1 C 26 %
2139 21-12-2019 20:22:17 7.1 C 26 %
2140 21-12-2019 20:32:17 6.9 C 28 %
2141 21-12-2019 20:42:17 7 C 27 %
2142 21-12-2019 20:52:17 6.8 C 27 %
2143 21-12-2019 21:02:18 6.4 C 29 %
2144 21-12-2019 21:12:18 6.1 C 30 %
2145 21-12-2019 21:22:17 6.1 C 31 %
2146 21-12-2019 21:32:17 6.3 C 31 %
2147 21-12-2019 21:42:17 5.9 C 31 %
2148 21-12-2019 21:52:18 5.1 C 34 %
2149 21-12-2019 22:02:18 4.9 C 36 %
2150 21-12-2019 22:12:18 5.2 C 34 %
Sensor: Nr:Datum:Temp:Feuchte:
Aussen-T/F 2151 21-12-2019 22:22:17 5.7 C 30 %
2152 21-12-2019 22:32:17 6.1 C 27 %
2153 21-12-2019 22:42:17 6.1 C 27 %
2154 21-12-2019 22:52:17 6 C 27 %
2155 21-12-2019 23:02:17 5.8 C 27 %
2156 21-12-2019 23:12:17 5.8 C 27 %
2157 21-12-2019 23:22:17 6.3 C 26 %
2158 21-12-2019 23:32:18 6.5 C 25 %
2159 21-12-2019 23:42:18 6.7 C 25 %
2160 21-12-2019 23:52:17 6.3 C 26 %
2161 22-12-2019 00:02:17 6.8 C 26 %
2162 22-12-2019 00:12:17 6.9 C 26 %
2163 22-12-2019 00:22:17 6.8 C 26 %
2164 22-12-2019 00:32:17 6.8 C 26 %
2165 22-12-2019 00:42:17 6.7 C 27 %
2166 22-12-2019 00:52:17 6.3 C 30 %
2167 22-12-2019 01:02:17 6.2 C 30 %
2168 22-12-2019 01:12:18 5.8 C 35 %
2169 22-12-2019 01:22:17 5.8 C 36 %
2170 22-12-2019 01:32:17 5.8 C 39 %
2171 22-12-2019 01:42:17 5.7 C 40 %
2172 22-12-2019 01:52:17 5.7 C 40 %
2173 22-12-2019 02:02:17 5.7 C 38 %
2174 22-12-2019 02:12:18 5.7 C 38 %
2175 22-12-2019 02:22:17 5.8 C 38 %
Sensor: Nr:Datum:Temp:Feuchte:
Aussen-T/F 2176 22-12-2019 02:32:17 5.9 C 37 %
2177 22-12-2019 02:42:17 5.9 C 36 %
2178 22-12-2019 02:52:18 6 C 35 %
2179 22-12-2019 03:02:17 6.1 C 35 %
2180 22-12-2019 03:12:17 6.2 C 34 %
2181 22-12-2019 03:22:17 6.2 C 35 %
2182 22-12-2019 03:32:17 6.2 C 34 %
2183 22-12-2019 03:42:17 6.1 C 35 %
2184 22-12-2019 03:52:17 6.2 C 35 %
2185 22-12-2019 04:02:18 6.2 C 35 %
2186 22-12-2019 04:12:18 6 C 35 %
2187 22-12-2019 04:22:17 6.2 C 34 %
2188 22-12-2019 04:32:17 6.2 C 34 %
2189 22-12-2019 04:42:17 6.3 C 33 %
2190 22-12-2019 04:52:17 6.3 C 33 %
2191 22-12-2019 05:02:17 6.2 C 34 %
2192 22-12-2019 05:12:17 5.8 C 34 %
2193 22-12-2019 05:22:17 5.4 C 36 %
2194 22-12-2019 05:32:17 5.7 C 40 %
2195 22-12-2019 05:42:17 6.1 C 38 %
2196 22-12-2019 05:52:17 5.5 C 35 %
2197 22-12-2019 06:02:17 5.1 C 39 %
2198 22-12-2019 06:12:17 5.3 C 41 %
2199 22-12-2019 06:22:17 4.9 C 41 %
2200 22-12-2019 06:32:17 5.4 C 42 %
Sensor: Nr:Datum:Temp:Feuchte:
Aussen-T/F 2201 22-12-2019 06:42:17 5.9 C 41 %
2202 22-12-2019 06:52:17 6.2 C 39 %
2203 22-12-2019 07:02:17 6.2 C 38 %
2204 22-12-2019 07:12:17 6 C 38 %
2205 22-12-2019 07:22:17 5.7 C 38 %
2206 22-12-2019 07:32:17 5.4 C 39 %
2207 22-12-2019 07:42:17 6 C 42 %
2208 22-12-2019 07:52:17 6.1 C 41 %
2209 22-12-2019 08:02:18 6.3 C 41 %
2210 22-12-2019 08:12:18 6.2 C 40 %
2211 22-12-2019 08:22:17 5.9 C 40 %
2212 22-12-2019 08:32:17 5.8 C 41 %
2213 22-12-2019 08:42:17 6.3 C 41 %
2214 22-12-2019 08:52:18 6.2 C 39 %
2215 22-12-2019 09:02:17 6 C 39 %
2216 22-12-2019 09:12:17 6.2 C 40 %
2217 22-12-2019 09:22:17 6.4 C 39 %
2218 22-12-2019 09:32:17 6.3 C 39 %
2219 22-12-2019 09:42:17 6.8 C 39 %
2220 22-12-2019 09:52:17 7 C 37 %
2221 22-12-2019 10:02:17 7.1 C 37 %
2222 22-12-2019 10:12:17 7.9 C 33 %
2223 22-12-2019 10:22:17 8.1 C 33 %
2224 22-12-2019 10:32:17 8.8 C 30 %
2225 22-12-2019 10:42:17 9 C 29 %
Sensor: Nr:Datum:Temp:Feuchte:
Aussen-T/F 2226 22-12-2019 10:52:17 9.3 C 28 %
2227 22-12-2019 11:02:17 9.5 C 28 %
2228 22-12-2019 11:12:17 10 C 26 %
2229 22-12-2019 11:22:17 10 C 26 %
2230 22-12-2019 11:32:18 10.4 C 26 %
2231 22-12-2019 11:42:18 10.2 C 26 %
2232 22-12-2019 11:52:17 10.4 C 26 %
2233 22-12-2019 12:02:17 10.5 C 25 %
2234 22-12-2019 12:12:17 10.5 C 26 %
2235 22-12-2019 12:22:17 10.5 C 25 %
2236 22-12-2019 12:32:17 10.7 C 26 %
2237 22-12-2019 12:42:17 10.8 C 26 %
2238 22-12-2019 12:52:17 11.2 C 25 %
2239 22-12-2019 13:02:17 11.1 C 25 %
2240 22-12-2019 13:12:17 10.8 C 25 %
2241 22-12-2019 13:22:17 10.7 C 25 %
2242 22-12-2019 13:32:17 10.7 C 25 %
2243 22-12-2019 13:42:17 10.7 C 25 %
2244 22-12-2019 13:52:17 10.8 C 25 %
2245 22-12-2019 14:02:17 11.1 C 23 %
2246 22-12-2019 14:12:17 11 C 23 %
2247 22-12-2019 14:22:17 10.8 C 23 %
2248 22-12-2019 14:32:17 10.9 C 23 %
2249 22-12-2019 14:42:17 10.8 C 23 %
2250 22-12-2019 14:52:17 10.7 C 25 %
Sensor: Nr:Datum:Temp:Feuchte:
Aussen-T/F 2251 22-12-2019 15:02:17 10.6 C 25 %
2252 22-12-2019 15:12:17 10.3 C 25 %
2253 22-12-2019 15:22:17 10.1 C 25 %
2254 22-12-2019 15:32:17 9.9 C 26 %
2255 22-12-2019 15:42:17 9.7 C 26 %
2256 22-12-2019 15:52:18 9.6 C 25 %
2257 22-12-2019 16:02:18 9.6 C 25 %
2258 22-12-2019 16:12:18 9.3 C 25 %
2259 22-12-2019 16:22:17 8.9 C 26 %
2260 22-12-2019 16:32:17 8.3 C 26 %
2261 22-12-2019 16:42:17 8.4 C 27 %
2262 22-12-2019 16:52:17 7.9 C 28 %
2263 22-12-2019 17:02:18 7.5 C 30 %
2264 22-12-2019 17:12:18 7.5 C 30 %
2265 22-12-2019 17:22:17 7.4 C 30 %
2266 22-12-2019 17:32:17 7.5 C 29 %
2267 22-12-2019 17:42:17 7.5 C 28 %
2268 22-12-2019 17:52:17 7.2 C 28 %
2269 22-12-2019 18:02:17 7.2 C 30 %
2270 22-12-2019 18:12:17 7.1 C 30 %
2271 22-12-2019 18:22:17 7.3 C 30 %
2272 22-12-2019 18:32:17 7.4 C 29 %
2273 22-12-2019 18:42:17 7.5 C 29 %
2274 22-12-2019 18:52:17 7.2 C 29 %
2275 22-12-2019 19:02:17 7.1 C 30 %
Sensor: Nr:Datum:Temp:Feuchte:
Aussen-T/F 2276 22-12-2019 19:12:17 7 C 31 %
2277 22-12-2019 19:22:17 7 C 32 %
2278 22-12-2019 19:32:17 7.1 C 31 %
2279 22-12-2019 19:42:17 7.5 C 30 %
2280 22-12-2019 19:52:17 8 C 27 %
2281 22-12-2019 20:02:17 7.9 C 27 %
2282 22-12-2019 20:12:17 8.1 C 26 %
2283 22-12-2019 20:22:17 8.3 C 25 %
2284 22-12-2019 20:32:17 8.2 C 25 %
2285 22-12-2019 20:42:17 8 C 25 %
2286 22-12-2019 20:52:17 8 C 25 %
2287 22-12-2019 21:02:17 8.1 C 25 %
2288 22-12-2019 21:12:17 8.1 C 25 %
2289 22-12-2019 21:22:17 7.8 C 25 %
2290 22-12-2019 21:32:17 8.1 C 25 %
2291 22-12-2019 21:42:17 7.8 C 26 %
2292 22-12-2019 21:52:17 7.7 C 26 %
2293 22-12-2019 22:02:17 7.9 C 26 %
2294 22-12-2019 22:12:17 7.6 C 26 %
2295 22-12-2019 22:22:17 7.5 C 26 %
2296 22-12-2019 22:32:17 7.1 C 27 %
2297 22-12-2019 22:42:17 6.9 C 28 %
2298 22-12-2019 22:52:17 6.7 C 29 %
2299 22-12-2019 23:02:17 6.2 C 31 %
2300 22-12-2019 23:12:17 6.4 C 31 %
Sensor: Nr:Datum:Temp:Feuchte:
Aussen-T/F 2301 22-12-2019 23:22:17 6.6 C 31 %
2302 22-12-2019 23:32:17 6.6 C 31 %
2303 22-12-2019 23:42:17 6.7 C 31 %
2304 22-12-2019 23:52:17 6.7 C 31 %
2305 23-12-2019 00:02:17 6.6 C 32 %
2306 23-12-2019 00:12:17 6.5 C 31 %
2307 23-12-2019 00:22:17 6.4 C 32 %
2308 23-12-2019 00:32:17 6.6 C 31 %
2309 23-12-2019 00:42:17 7 C 30 %
2310 23-12-2019 00:52:17 6.9 C 30 %
2311 23-12-2019 01:02:17 6.8 C 30 %
2312 23-12-2019 01:12:17 7.1 C 28 %
2313 23-12-2019 01:22:17 7 C 28 %
2314 23-12-2019 01:32:17 7.1 C 28 %
2315 23-12-2019 01:42:17 7.4 C 27 %
2316 23-12-2019 01:52:17 7.4 C 27 %
2317 23-12-2019 02:02:17 6.8 C 29 %
2318 23-12-2019 02:12:17 6.5 C 30 %
2319 23-12-2019 02:22:17 6.8 C 29 %
2320 23-12-2019 02:32:17 6.9 C 29 %
2321 23-12-2019 02:42:17 7.3 C 28 %
2322 23-12-2019 02:52:17 6.9 C 30 %
2323 23-12-2019 03:02:17 6.8 C 31 %
2324 23-12-2019 03:12:17 6.4 C 31 %
2325 23-12-2019 03:22:17 6.5 C 30 %
Sensor: Nr:Datum:Temp:Feuchte:
Aussen-T/F 2326 23-12-2019 03:32:17 7 C 28 %
2327 23-12-2019 03:42:17 6.6 C 29 %
2328 23-12-2019 03:52:17 7 C 28 %
2329 23-12-2019 04:02:17 6.9 C 30 %
2330 23-12-2019 04:12:17 7.1 C 28 %
2331 23-12-2019 04:22:17 6.8 C 30 %
2332 23-12-2019 04:32:17 6.9 C 31 %
2333 23-12-2019 04:42:17 6.5 C 31 %
2334 23-12-2019 04:52:17 6.1 C 31 %
2335 23-12-2019 05:02:17 6.4 C 32 %
2336 23-12-2019 05:12:17 7 C 30 %
2337 23-12-2019 05:22:17 7.1 C 30 %
2338 23-12-2019 05:32:17 7 C 30 %
2339 23-12-2019 05:42:17 6.8 C 31 %
2340 23-12-2019 05:52:17 6.3 C 32 %
2341 23-12-2019 06:02:18 6.3 C 34 %
2342 23-12-2019 06:12:18 6.6 C 33 %
2343 23-12-2019 06:22:17 6.9 C 31 %
2344 23-12-2019 06:32:18 7.1 C 30 %
2345 23-12-2019 06:42:18 6.9 C 31 %
2346 23-12-2019 06:52:17 6.9 C 31 %
2347 23-12-2019 07:02:17 6.8 C 32 %
2348 23-12-2019 07:12:17 6.8 C 34 %
2349 23-12-2019 07:22:17 6.8 C 32 %
2350 23-12-2019 07:32:17 7.1 C 30 %
Sensor: Nr:Datum:Temp:Feuchte:
Aussen-T/F 2351 23-12-2019 07:42:17 7.4 C 29 %
2352 23-12-2019 07:52:17 7.1 C 30 %
2353 23-12-2019 08:02:17 7.3 C 30 %
2354 23-12-2019 08:12:17 7.4 C 28 %
2355 23-12-2019 08:22:17 7.5 C 28 %
2356 23-12-2019 08:32:18 7.5 C 28 %
2357 23-12-2019 08:42:18 7.6 C 28 %
2358 23-12-2019 08:52:17 7.6 C 27 %
2359 23-12-2019 09:02:17 7.6 C 27 %
2360 23-12-2019 09:12:18 7.7 C 27 %
2361 23-12-2019 09:22:17 7.8 C 27 %
2362 23-12-2019 09:32:18 7.8 C 27 %
2363 23-12-2019 09:42:18 7.8 C 27 %
2364 23-12-2019 09:52:18 7.9 C 26 %
2365 23-12-2019 10:02:17 7.3 C 30 %
2366 23-12-2019 10:12:18 7 C 33 %
2367 23-12-2019 10:22:17 7 C 35 %
2368 23-12-2019 10:32:18 6.8 C 35 %
2369 23-12-2019 10:42:18 6.9 C 34 %
2370 23-12-2019 10:52:17 7.4 C 30 %
2371 23-12-2019 11:02:18 7.8 C 28 %
2372 23-12-2019 11:12:18 8.1 C 28 %
2373 23-12-2019 11:22:17 8.4 C 26 %
2374 23-12-2019 11:32:18 8.3 C 26 %
2375 23-12-2019 11:42:18 8.6 C 26 %
Sensor: Nr:Datum:Temp:Feuchte:
Aussen-T/F 2376 23-12-2019 11:52:17 8.9 C 25 %
2377 23-12-2019 12:02:18 9.1 C 25 %
2378 23-12-2019 12:12:18 9.1 C 25 %
2379 23-12-2019 12:22:17 8.9 C 25 %
2380 23-12-2019 12:32:17 9 C 25 %
2381 23-12-2019 12:42:17 9.3 C 25 %
2382 23-12-2019 12:52:17 8.4 C 26 %
2383 23-12-2019 13:02:17 8.4 C 26 %
2384 23-12-2019 13:12:17 8.3 C 27 %
2385 23-12-2019 13:22:17 8.2 C 27 %
2386 23-12-2019 13:32:18 8.1 C 29 %
2387 23-12-2019 13:42:18 8.2 C 28 %
2388 23-12-2019 13:52:17 8.5 C 28 %
2389 23-12-2019 14:02:17 8.9 C 27 %
2390 23-12-2019 14:12:17 8.9 C 26 %
2391 23-12-2019 14:22:18 9 C 25 %
2392 23-12-2019 14:32:17 9.1 C 25 %
2393 23-12-2019 14:42:17 9.1 C 25 %
2394 23-12-2019 14:52:17 8.9 C 25 %
2395 23-12-2019 15:02:18 8.7 C 26 %
2396 23-12-2019 15:12:18 9.1 C 25 %
2397 23-12-2019 15:22:17 9.1 C 25 %
2398 23-12-2019 15:32:17 9 C 25 %
2399 23-12-2019 15:42:17 9 C 25 %
2400 23-12-2019 15:52:17 8.8 C 25 %
Sensor: Nr:Datum:Temp:Feuchte:
Aussen-T/F 2401 23-12-2019 16:02:17 8.8 C 25 %
2402 23-12-2019 16:12:17 8.6 C 26 %
2403 23-12-2019 16:22:18 8.5 C 25 %
2404 23-12-2019 16:32:17 8.4 C 25 %
2405 23-12-2019 16:42:17 8.5 C 25 %
2406 23-12-2019 16:52:18 8.5 C 25 %
2407 23-12-2019 17:02:17 8.2 C 25 %
2408 23-12-2019 17:12:17 8.4 C 25 %
2409 23-12-2019 17:22:17 8 C 25 %
2410 23-12-2019 17:32:17 7.9 C 25 %
2411 23-12-2019 17:42:18 7.8 C 25 %
2412 23-12-2019 17:52:17 7.8 C 25 %
2413 23-12-2019 18:02:17 7.9 C 25 %
2414 23-12-2019 18:12:17 8 C 23 %
2415 23-12-2019 18:22:17 7.9 C 23 %
2416 23-12-2019 18:32:17 7.9 C 25 %
2417 23-12-2019 18:42:17 7.6 C 25 %
2418 23-12-2019 18:52:17 7.5 C 26 %
2419 23-12-2019 19:02:17 7.3 C 26 %
2420 23-12-2019 19:12:17 6.7 C 29 %
2421 23-12-2019 19:22:17 6.4 C 30 %
2422 23-12-2019 19:32:17 7.4 C 26 %
2423 23-12-2019 19:42:17 7 C 26 %
2424 23-12-2019 19:52:17 7 C 27 %
2425 23-12-2019 20:02:17 7 C 28 %
Sensor: Nr:Datum:Temp:Feuchte:
Aussen-T/F 2426 23-12-2019 20:12:17 6.5 C 30 %
2427 23-12-2019 20:22:17 6.8 C 30 %
2428 23-12-2019 20:32:18 6.8 C 30 %
2429 23-12-2019 20:42:18 6.9 C 30 %
2430 23-12-2019 20:52:17 6.9 C 30 %
2431 23-12-2019 21:02:18 6.7 C 30 %
2432 23-12-2019 21:12:18 7.1 C 28 %
2433 23-12-2019 21:22:17 7 C 28 %
2434 23-12-2019 21:32:17 6.7 C 31 %
2435 23-12-2019 21:42:17 6.5 C 31 %
2436 23-12-2019 21:52:17 6.5 C 32 %
2437 23-12-2019 22:02:18 6.4 C 31 %
2438 23-12-2019 22:12:18 5.8 C 32 %
2439 23-12-2019 22:22:17 5.4 C 37 %
2440 23-12-2019 22:32:17 5.7 C 33 %
2441 23-12-2019 22:42:17 5.3 C 34 %
2442 23-12-2019 22:52:17 5.5 C 34 %
2443 23-12-2019 23:02:17 5.4 C 33 %
2444 23-12-2019 23:12:17 5.5 C 32 %
2445 23-12-2019 23:22:18 5.4 C 30 %
2446 23-12-2019 23:32:17 5.8 C 30 %
2447 23-12-2019 23:42:17 4.8 C 33 %
2448 23-12-2019 23:52:17 4.8 C 36 %
2449 24-12-2019 00:02:17 5.6 C 35 %
2450 24-12-2019 00:12:17 5.8 C 32 %
Sensor: Nr:Datum:Temp:Feuchte:
Aussen-T/F 2451 24-12-2019 00:22:17 5.7 C 32 %
2452 24-12-2019 00:32:18 6 C 32 %
2453 24-12-2019 00:42:18 6.1 C 31 %
2454 24-12-2019 00:52:17 6.3 C 31 %
2455 24-12-2019 01:02:17 5.6 C 32 %
2456 24-12-2019 01:12:17 5.9 C 32 %
2457 24-12-2019 01:22:17 6.1 C 30 %
2458 24-12-2019 01:32:17 6.3 C 30 %
2459 24-12-2019 01:42:17 5.9 C 31 %
2460 24-12-2019 01:52:17 5.7 C 33 %
2461 24-12-2019 02:02:17 5.7 C 35 %
2462 24-12-2019 02:12:17 5.8 C 35 %
2463 24-12-2019 02:22:17 5.6 C 35 %
2464 24-12-2019 02:32:18 5.5 C 36 %
2465 24-12-2019 02:42:18 5.5 C 36 %
2466 24-12-2019 02:52:17 6.6 C 30 %
2467 24-12-2019 03:02:18 6.7 C 29 %
2468 24-12-2019 03:12:18 6.3 C 30 %
2469 24-12-2019 03:22:17 5.7 C 31 %
2470 24-12-2019 03:32:17 5.5 C 31 %
2471 24-12-2019 03:42:17 5.7 C 31 %
2472 24-12-2019 03:52:17 5 C 32 %
2473 24-12-2019 04:02:17 5 C 38 %
2474 24-12-2019 04:12:17 5.2 C 37 %
2475 24-12-2019 04:22:17 5.2 C 36 %
Sensor: Nr:Datum:Temp:Feuchte:
Aussen-T/F 2476 24-12-2019 04:32:17 4.8 C 37 %
2477 24-12-2019 04:42:17 4.8 C 39 %
2478 24-12-2019 04:52:17 5.3 C 38 %
2479 24-12-2019 05:02:18 5.4 C 35 %
2480 24-12-2019 05:12:18 5.2 C 35 %
2481 24-12-2019 05:22:17 4.7 C 37 %
2482 24-12-2019 05:32:18 5 C 37 %
2483 24-12-2019 05:42:18 4.6 C 36 %
2484 24-12-2019 05:52:17 4.9 C 37 %
2485 24-12-2019 06:02:18 4.3 C 36 %
2486 24-12-2019 06:12:18 4.6 C 39 %
2487 24-12-2019 06:22:17 4.6 C 38 %
2488 24-12-2019 06:32:17 4.6 C 39 %
2489 24-12-2019 06:42:17 4.5 C 38 %
2490 24-12-2019 06:52:17 4.5 C 39 %
2491 24-12-2019 07:02:17 4.8 C 37 %
2492 24-12-2019 07:12:17 5 C 36 %
2493 24-12-2019 07:22:17 5.4 C 34 %
2494 24-12-2019 07:32:17 5.6 C 33 %
2495 24-12-2019 07:42:17 5.6 C 32 %
2496 24-12-2019 07:52:17 5.8 C 32 %
2497 24-12-2019 08:02:17 5.8 C 31 %
2498 24-12-2019 08:12:17 6 C 30 %
2499 24-12-2019 08:22:17 6.2 C 29 %
2500 24-12-2019 08:32:17 6.2 C 30 %
Sensor: Nr:Datum:Temp:Feuchte:
Aussen-T/F 2501 24-12-2019 08:42:17 6.3 C 30 %
2502 24-12-2019 08:52:18 6.4 C 30 %
2503 24-12-2019 09:02:17 6.5 C 29 %
2504 24-12-2019 09:12:17 6.8 C 29 %
2505 24-12-2019 09:22:17 6.8 C 28 %
2506 24-12-2019 09:32:17 6.8 C 29 %
2507 24-12-2019 09:42:17 6.8 C 28 %
2508 24-12-2019 09:52:17 6.5 C 30 %
2509 24-12-2019 10:02:17 6.4 C 30 %
2510 24-12-2019 10:12:17 6.2 C 31 %
2511 24-12-2019 10:22:17 6.2 C 33 %
2512 24-12-2019 10:32:17 6.3 C 37 %
2513 24-12-2019 10:42:17 6.8 C 37 %
2514 24-12-2019 10:52:17 6.7 C 33 %
2515 24-12-2019 11:02:17 6.8 C 35 %
2516 24-12-2019 11:12:17 6.9 C 34 %
2517 24-12-2019 11:22:17 7.5 C 32 %
2518 24-12-2019 11:32:17 8 C 30 %
2519 24-12-2019 11:42:17 8.2 C 29 %
2520 24-12-2019 11:52:18 8 C 29 %
2521 24-12-2019 12:02:17 7.8 C 30 %
2522 24-12-2019 12:12:17 7.6 C 30 %
2523 24-12-2019 12:22:17 8 C 28 %
2524 24-12-2019 12:32:17 8.2 C 27 %
2525 24-12-2019 12:42:17 8.4 C 27 %
Sensor: Nr:Datum:Temp:Feuchte:
Aussen-T/F 2526 24-12-2019 12:52:18 8.9 C 27 %
2527 24-12-2019 13:02:17 9.2 C 25 %
2528 24-12-2019 13:12:17 9.3 C 25 %
2529 24-12-2019 13:22:17 9.3 C 25 %
2530 24-12-2019 13:32:17 9.2 C 26 %
2531 24-12-2019 13:42:17 9.3 C 26 %
2532 24-12-2019 13:52:17 9.3 C 26 %
2533 24-12-2019 14:02:18 9.4 C 25 %
2534 24-12-2019 14:12:18 9.5 C 25 %
2535 24-12-2019 14:22:17 9.6 C 25 %
2536 24-12-2019 14:32:18 9.7 C 25 %
2537 24-12-2019 14:42:18 9.3 C 26 %
2538 24-12-2019 14:52:17 9.2 C 27 %
2539 24-12-2019 15:02:18 9.1 C 27 %
2540 24-12-2019 15:12:18 9.5 C 26 %
2541 24-12-2019 15:22:17 9.8 C 25 %
2542 24-12-2019 15:32:17 10 C 22 %
2543 24-12-2019 15:42:17 10.1 C 20 %
2544 24-12-2019 15:52:17 10.5 C 20 %
2545 24-12-2019 16:02:17 10.1 C 20 %
2546 24-12-2019 16:12:17 10 C 20 %
2547 24-12-2019 16:22:17 10.2 C 20 %
2548 24-12-2019 16:32:17 9.8 C 20 %
2549 24-12-2019 16:42:17 9.7 C 21 %
2550 24-12-2019 16:52:17 10.1 C 20 %
Sensor: Nr:Datum:Temp:Feuchte:
Aussen-T/F 2551 24-12-2019 17:02:17 9.8 C 20 %
2552 24-12-2019 17:12:17 9.4 C 20 %
2553 24-12-2019 17:22:18 9.6 C 20 %
2554 24-12-2019 17:32:17 8.8 C 20 %
2555 24-12-2019 17:42:17 9.1 C 20 %
2556 24-12-2019 17:52:17 9.3 C 20 %
2557 24-12-2019 18:02:17 9 C 20 %
2558 24-12-2019 18:12:17 8.5 C 26 %
2559 24-12-2019 18:22:17 8.9 C 25 %
2560 24-12-2019 18:32:17 8.2 C 28 %
2561 24-12-2019 18:42:17 7.8 C 31 %
2562 24-12-2019 18:52:17 7.5 C 35 %
2563 24-12-2019 19:02:17 7.6 C 31 %
2564 24-12-2019 19:12:17 7.3 C 31 %
2565 24-12-2019 19:22:17 6.7 C 35 %
2566 24-12-2019 19:32:17 6.5 C 40 %
2567 24-12-2019 19:42:17 6.5 C 36 %
2568 24-12-2019 19:52:17 6.2 C 36 %
2569 24-12-2019 20:02:17 6.7 C 35 %
2570 24-12-2019 20:12:17 7.3 C 30 %
2571 24-12-2019 20:22:17 7.2 C 32 %
2572 24-12-2019 20:32:18 7.1 C 30 %
2573 24-12-2019 20:42:18 7.3 C 31 %
2574 24-12-2019 20:52:17 7.3 C 30 %
2575 24-12-2019 21:02:17 7.1 C 31 %
Sensor: Nr:Datum:Temp:Feuchte:
Aussen-T/F 2576 24-12-2019 21:12:17 7.7 C 30 %
2577 24-12-2019 21:22:17 7.4 C 30 %
2578 24-12-2019 21:32:17 7.6 C 30 %
2579 24-12-2019 21:42:17 7.9 C 29 %
2580 24-12-2019 21:52:17 8.1 C 28 %
2581 24-12-2019 22:02:17 8.6 C 26 %
2582 24-12-2019 22:12:17 8.5 C 26 %
2583 24-12-2019 22:22:17 8.3 C 26 %
2584 24-12-2019 22:32:17 8.4 C 26 %
2585 24-12-2019 22:42:17 8.2 C 27 %
2586 24-12-2019 22:52:17 8 C 28 %
2587 24-12-2019 23:02:17 8.4 C 27 %
2588 24-12-2019 23:12:17 8.4 C 27 %
2589 24-12-2019 23:22:17 8.4 C 27 %
2590 24-12-2019 23:32:17 8.5 C 27 %
2591 24-12-2019 23:42:17 8.5 C 27 %
2592 24-12-2019 23:52:17 8.4 C 27 %
2593 25-12-2019 00:02:17 8.4 C 27 %
2594 25-12-2019 00:12:17 8.4 C 27 %
2595 25-12-2019 00:22:17 8.4 C 28 %
2596 25-12-2019 00:32:17 8.3 C 28 %
2597 25-12-2019 00:42:18 8.2 C 29 %
2598 25-12-2019 00:52:17 8.2 C 29 %
2599 25-12-2019 01:02:17 7.8 C 32 %
2600 25-12-2019 01:12:17 7.7 C 33 %
Sensor: Nr:Datum:Temp:Feuchte:
Aussen-T/F 2601 25-12-2019 01:22:17 7.5 C 35 %
2602 25-12-2019 01:32:18 7.3 C 35 %
2603 25-12-2019 01:42:18 7.5 C 35 %
2604 25-12-2019 01:52:17 7.6 C 33 %
2605 25-12-2019 02:02:17 7.7 C 32 %
2606 25-12-2019 02:12:17 8 C 31 %
2607 25-12-2019 02:22:17 7.9 C 31 %
2608 25-12-2019 02:32:18 7.9 C 31 %
2609 25-12-2019 02:42:18 7.9 C 31 %
2610 25-12-2019 02:52:17 7.9 C 31 %
2611 25-12-2019 03:02:17 7.8 C 31 %
2612 25-12-2019 03:12:17 7.9 C 32 %
2613 25-12-2019 03:22:17 8.1 C 31 %
2614 25-12-2019 03:32:17 8.3 C 30 %
2615 25-12-2019 03:42:17 8.2 C 30 %
2616 25-12-2019 03:52:18 8.2 C 30 %
2617 25-12-2019 04:02:17 7.9 C 34 %
2618 25-12-2019 04:12:17 8 C 34 %
2619 25-12-2019 04:22:18 7.9 C 35 %
2620 25-12-2019 04:32:17 7.9 C 36 %
2621 25-12-2019 04:42:17 7.9 C 38 %
2622 25-12-2019 04:52:17 7.9 C 36 %
2623 25-12-2019 05:02:17 7.9 C 37 %
2624 25-12-2019 05:12:17 7.8 C 37 %
2625 25-12-2019 05:22:18 7.6 C 38 %
Sensor: Nr:Datum:Temp:Feuchte:
Aussen-T/F 2626 25-12-2019 05:32:17 8 C 36 %
2627 25-12-2019 05:42:17 7.9 C 35 %
2628 25-12-2019 05:52:17 7.5 C 35 %
2629 25-12-2019 06:02:18 7.5 C 35 %
2630 25-12-2019 06:12:18 7.2 C 36 %
2631 25-12-2019 06:22:17 7.2 C 37 %
2632 25-12-2019 06:32:18 7.3 C 37 %
2633 25-12-2019 06:42:18 7.3 C 36 %
2634 25-12-2019 06:52:17 7.1 C 39 %
2635 25-12-2019 07:02:18 7.3 C 33 %
2636 25-12-2019 07:12:18 7.1 C 32 %
2637 25-12-2019 07:22:17 6.9 C 35 %
2638 25-12-2019 07:32:18 6.8 C 38 %
2639 25-12-2019 07:42:18 6.9 C 38 %
2640 25-12-2019 07:52:17 7 C 35 %
2641 25-12-2019 08:02:18 6.8 C 32 %
2642 25-12-2019 08:12:18 6.4 C 32 %
2643 25-12-2019 08:22:17 6.2 C 33 %
2644 25-12-2019 08:32:17 6.2 C 32 %
2645 25-12-2019 08:42:17 6.5 C 32 %
2646 25-12-2019 08:52:17 6.7 C 31 %
2647 25-12-2019 09:02:17 6.9 C 30 %
2648 25-12-2019 09:12:17 6.9 C 30 %
2649 25-12-2019 09:22:18 6.8 C 30 %
2650 25-12-2019 09:32:17 7.3 C 28 %
Sensor: Nr:Datum:Temp:Feuchte:
Aussen-T/F 2651 25-12-2019 09:42:17 7.3 C 27 %
2652 25-12-2019 09:52:17 7.3 C 27 %
2653 25-12-2019 10:02:17 7.1 C 29 %
2654 25-12-2019 10:12:17 7.3 C 27 %
2655 25-12-2019 10:22:18 7.6 C 26 %
2656 25-12-2019 10:32:17 7.7 C 26 %
2657 25-12-2019 10:42:17 7.8 C 25 %
2658 25-12-2019 10:52:17 7.5 C 26 %
2659 25-12-2019 11:02:17 7.5 C 26 %
2660 25-12-2019 11:12:17 7.5 C 26 %
2661 25-12-2019 11:22:17 7.7 C 26 %
2662 25-12-2019 11:32:17 7.4 C 26 %
2663 25-12-2019 11:42:17 7.4 C 27 %
2664 25-12-2019 11:52:18 7.1 C 28 %
2665 25-12-2019 12:02:17 7.1 C 29 %
2666 25-12-2019 12:12:17 7.6 C 27 %
2667 25-12-2019 12:22:17 7.6 C 27 %
2668 25-12-2019 12:32:17 7.7 C 27 %
2669 25-12-2019 12:42:17 7.8 C 27 %
2670 25-12-2019 12:52:18 7.6 C 27 %
2671 25-12-2019 13:02:17 7.1 C 29 %
2672 25-12-2019 13:12:17 7 C 31 %
2673 25-12-2019 13:22:18 6.9 C 31 %
2674 25-12-2019 13:32:17 7.1 C 30 %
2675 25-12-2019 13:42:17 7 C 30 %
Sensor: Nr:Datum:Temp:Feuchte:
Aussen-T/F 2676 25-12-2019 13:52:17 6.9 C 30 %
2677 25-12-2019 14:02:17 7.1 C 30 %
2678 25-12-2019 14:12:17 7.4 C 29 %
2679 25-12-2019 14:22:18 7.6 C 28 %
2680 25-12-2019 14:32:17 7.7 C 29 %
2681 25-12-2019 14:42:17 7.6 C 29 %
2682 25-12-2019 14:52:17 7.1 C 31 %
2683 25-12-2019 15:02:17 7.1 C 32 %
2684 25-12-2019 15:12:17 7.1 C 30 %
2685 25-12-2019 15:22:18 7.1 C 31 %
2686 25-12-2019 15:32:17 7.4 C 30 %
2687 25-12-2019 15:42:17 7.3 C 31 %
2688 25-12-2019 15:52:17 7.2 C 30 %
2689 25-12-2019 16:02:17 7.2 C 30 %
2690 25-12-2019 16:12:17 6.9 C 31 %
2691 25-12-2019 16:22:17 6.8 C 32 %
2692 25-12-2019 16:32:17 6.7 C 35 %
2693 25-12-2019 16:42:17 6.9 C 32 %
2694 25-12-2019 16:52:17 6.9 C 31 %
2695 25-12-2019 17:02:17 6.8 C 30 %
2696 25-12-2019 17:12:17 6.7 C 30 %
2697 25-12-2019 17:22:18 6.6 C 31 %
2698 25-12-2019 17:32:17 6.2 C 31 %
2699 25-12-2019 17:42:17 5.7 C 35 %
2700 25-12-2019 17:52:18 5.9 C 35 %
Sensor: Nr:Datum:Temp:Feuchte:
Aussen-T/F 2701 25-12-2019 18:02:17 6 C 33 %
2702 25-12-2019 18:12:17 6.1 C 32 %
2703 25-12-2019 18:22:17 6.2 C 33 %
2704 25-12-2019 18:32:17 6.2 C 33 %
2705 25-12-2019 18:42:17 6.2 C 32 %
2706 25-12-2019 18:52:17 6.2 C 32 %
2707 25-12-2019 19:02:17 6 C 33 %
2708 25-12-2019 19:12:17 5.9 C 33 %
2709 25-12-2019 19:22:17 6.1 C 32 %
2710 25-12-2019 19:32:18 6.1 C 32 %
2711 25-12-2019 19:42:18 6 C 33 %
2712 25-12-2019 19:52:17 5.9 C 33 %
2713 25-12-2019 20:02:17 5.8 C 35 %
2714 25-12-2019 20:12:17 5.9 C 35 %
2715 25-12-2019 20:22:18 5.9 C 34 %
2716 25-12-2019 20:32:17 5.8 C 34 %
2717 25-12-2019 20:42:17 5.6 C 37 %
2718 25-12-2019 20:52:17 5.5 C 38 %
2719 25-12-2019 21:02:18 5.5 C 38 %
2720 25-12-2019 21:12:18 5.4 C 40 %
2721 25-12-2019 21:22:17 5.3 C 41 %
2722 25-12-2019 21:32:17 5.3 C 43 %
2723 25-12-2019 21:42:17 5.3 C 42 %
2724 25-12-2019 21:52:17 5.2 C 42 %
2725 25-12-2019 22:02:18 5.2 C 42 %
Sensor: Nr:Datum:Temp:Feuchte:
Aussen-T/F 2726 25-12-2019 22:12:18 5.1 C 43 %
2727 25-12-2019 22:22:17 5.2 C 42 %
2728 25-12-2019 22:32:18 5.1 C 41 %
2729 25-12-2019 22:42:18 5.1 C 42 %
2730 25-12-2019 22:52:17 5.2 C 42 %
2731 25-12-2019 23:02:18 5.2 C 42 %
2732 25-12-2019 23:12:18 5.2 C 42 %
2733 25-12-2019 23:22:17 5.2 C 42 %
2734 25-12-2019 23:32:17 5.1 C 42 %
2735 25-12-2019 23:42:17 4.7 C 42 %
2736 25-12-2019 23:52:17 4.5 C 42 %
2737 26-12-2019 00:02:17 4.6 C 43 %
2738 26-12-2019 00:12:18 4 C 42 %
2739 26-12-2019 00:22:17 3.6 C 42 %
2740 26-12-2019 00:32:18 3.9 C 44 %
2741 26-12-2019 00:42:18 3.9 C 44 %
2742 26-12-2019 00:52:17 4.1 C 43 %
2743 26-12-2019 01:02:18 4.4 C 43 %
2744 26-12-2019 01:12:18 4.3 C 43 %
2745 26-12-2019 01:22:17 4.3 C 43 %
2746 26-12-2019 01:32:17 4.4 C 43 %
2747 26-12-2019 01:42:17 4.4 C 43 %
2748 26-12-2019 01:52:17 4.3 C 42 %
2749 26-12-2019 02:02:18 4.3 C 42 %
2750 26-12-2019 02:12:18 4.4 C 42 %
Sensor: Nr:Datum:Temp:Feuchte:
Aussen-T/F 2751 26-12-2019 02:22:17 4.2 C 42 %
2752 26-12-2019 02:32:17 4 C 42 %
2753 26-12-2019 02:42:17 4 C 42 %
2754 26-12-2019 02:52:17 4.2 C 42 %
2755 26-12-2019 03:02:18 4.2 C 42 %
2756 26-12-2019 03:12:18 4.1 C 42 %
2757 26-12-2019 03:22:17 4.1 C 42 %
2758 26-12-2019 03:32:17 4.1 C 42 %
2759 26-12-2019 03:42:17 4.1 C 42 %
2760 26-12-2019 03:52:17 3.9 C 43 %
2761 26-12-2019 04:02:17 3.6 C 42 %
2762 26-12-2019 04:12:17 3.6 C 42 %
2763 26-12-2019 04:22:18 3.4 C 42 %
2764 26-12-2019 04:32:17 3 C 42 %
2765 26-12-2019 04:42:17 3.1 C 42 %
2766 26-12-2019 04:52:17 3.1 C 43 %
2767 26-12-2019 05:02:17 3.3 C 43 %
2768 26-12-2019 05:12:17 3.5 C 43 %
2769 26-12-2019 05:22:17 3.4 C 43 %
2770 26-12-2019 05:32:18 3.5 C 43 %
2771 26-12-2019 05:42:18 3.4 C 43 %
2772 26-12-2019 05:52:17 3.5 C 43 %
2773 26-12-2019 06:02:17 3.6 C 43 %
2774 26-12-2019 06:12:18 3.6 C 43 %
2775 26-12-2019 06:22:17 3.5 C 43 %
Sensor: Nr:Datum:Temp:Feuchte:
Aussen-T/F 2776 26-12-2019 06:32:18 3.6 C 43 %
2777 26-12-2019 06:42:18 3.5 C 43 %
2778 26-12-2019 06:52:17 3.5 C 43 %
2779 26-12-2019 07:02:18 3.5 C 43 %
2780 26-12-2019 07:12:18 3.5 C 43 %
2781 26-12-2019 07:22:17 3.4 C 43 %
2782 26-12-2019 07:32:17 3.4 C 43 %
2783 26-12-2019 07:42:17 3.4 C 43 %
2784 26-12-2019 07:52:17 3.4 C 43 %
2785 26-12-2019 08:02:18 3.4 C 43 %
2786 26-12-2019 08:12:18 3.4 C 43 %
2787 26-12-2019 08:22:17 3.5 C 43 %
2788 26-12-2019 08:32:17 3.4 C 43 %
2789 26-12-2019 08:42:17 3.4 C 43 %
2790 26-12-2019 08:52:17 3.5 C 43 %
2791 26-12-2019 09:02:17 3.5 C 43 %
2792 26-12-2019 09:12:17 3.5 C 43 %
2793 26-12-2019 09:22:17 3.4 C 42 %
2794 26-12-2019 09:32:17 3.5 C 43 %
2795 26-12-2019 09:42:17 3.6 C 42 %
2796 26-12-2019 09:52:18 3.6 C 42 %
2797 26-12-2019 10:02:17 3.6 C 42 %
2798 26-12-2019 10:12:17 3.6 C 42 %
2799 26-12-2019 10:22:18 3.8 C 42 %
2800 26-12-2019 10:32:17 4 C 41 %
Sensor: Nr:Datum:Temp:Feuchte:
Aussen-T/F 2801 26-12-2019 10:42:17 4.3 C 41 %
2802 26-12-2019 10:52:18 4.5 C 41 %
2803 26-12-2019 11:02:17 4.7 C 41 %
2804 26-12-2019 11:12:17 4.8 C 41 %
2805 26-12-2019 11:22:17 5 C 40 %
2806 26-12-2019 11:32:17 5.4 C 40 %
2807 26-12-2019 11:42:17 5.5 C 39 %
2808 26-12-2019 11:52:17 5.6 C 37 %
2809 26-12-2019 12:02:17 5.7 C 36 %
2810 26-12-2019 12:12:17 5.7 C 36 %
2811 26-12-2019 12:22:17 5.7 C 35 %
2812 26-12-2019 12:32:18 5.9 C 35 %
2813 26-12-2019 12:42:18 6 C 35 %
2814 26-12-2019 12:52:17 6 C 36 %
2815 26-12-2019 13:02:18 5.9 C 36 %
2816 26-12-2019 13:12:18 5.9 C 37 %
2817 26-12-2019 13:22:17 5.8 C 36 %
2818 26-12-2019 13:32:18 5.8 C 36 %
2819 26-12-2019 13:42:18 5.7 C 36 %
2820 26-12-2019 13:52:17 5.7 C 36 %
2821 26-12-2019 14:02:18 5.7 C 36 %
2822 26-12-2019 14:12:18 5.8 C 35 %
2823 26-12-2019 14:22:17 6 C 35 %
2824 26-12-2019 14:32:17 6 C 35 %
2825 26-12-2019 14:42:17 5.7 C 35 %
Sensor: Nr:Datum:Temp:Feuchte:
Aussen-T/F 2826 26-12-2019 14:52:17 5.6 C 36 %
2827 26-12-2019 15:02:17 5.5 C 36 %
2828 26-12-2019 15:12:17 5.4 C 36 %
2829 26-12-2019 15:22:17 5.1 C 38 %
2830 26-12-2019 15:32:17 5 C 37 %
2831 26-12-2019 15:42:17 4.8 C 39 %
2832 26-12-2019 15:52:18 4.8 C 39 %
2833 26-12-2019 16:02:17 4.7 C 38 %
2834 26-12-2019 16:12:17 4.6 C 39 %
2835 26-12-2019 16:22:17 4.5 C 40 %
2836 26-12-2019 16:32:17 4.4 C 41 %
2837 26-12-2019 16:42:18 4.4 C 40 %
2838 26-12-2019 16:53:17 4.3 C 41 %
2839 26-12-2019 17:02:17 4.4 C 40 %
2840 26-12-2019 17:12:17 4.3 C 40 %
2841 26-12-2019 17:22:17 4.3 C 40 %
2842 26-12-2019 17:32:17 4.4 C 40 %
2843 26-12-2019 17:42:17 4.1 C 40 %
2844 26-12-2019 17:52:17 4.1 C 40 %
2845 26-12-2019 18:02:17 4 C 40 %
2846 26-12-2019 18:12:17 4 C 41 %
2847 26-12-2019 18:22:17 4.1 C 41 %
2848 26-12-2019 18:32:17 4.1 C 41 %
2849 26-12-2019 18:42:18 4.1 C 40 %
2850 26-12-2019 18:53:17 4.1 C 40 %
Sensor: Nr:Datum:Temp:Feuchte:
Aussen-T/F 2851 26-12-2019 19:02:17 4 C 40 %
2852 26-12-2019 19:12:17 4 C 41 %
2853 26-12-2019 19:23:17 4 C 41 %
2854 26-12-2019 19:32:17 3.8 C 41 %
2855 26-12-2019 19:42:17 4 C 41 %
2856 26-12-2019 19:53:17 3.8 C 41 %
2857 26-12-2019 20:02:17 3.8 C 42 %
2858 26-12-2019 20:12:17 3.9 C 42 %
2859 26-12-2019 20:23:17 4 C 41 %
2860 26-12-2019 20:32:17 4.1 C 40 %
2861 26-12-2019 20:42:17 4.2 C 39 %
2862 26-12-2019 20:53:17 4.1 C 38 %
2863 26-12-2019 21:02:17 4.3 C 37 %
2864 26-12-2019 21:12:17 4.2 C 38 %
2865 26-12-2019 21:23:17 4.1 C 38 %
2866 26-12-2019 21:32:18 4.1 C 38 %
2867 26-12-2019 21:42:18 4.2 C 37 %
2868 26-12-2019 21:52:17 4.3 C 37 %
2869 26-12-2019 22:02:18 4.1 C 39 %
2870 26-12-2019 22:12:18 4.1 C 41 %
2871 26-12-2019 22:22:17 4.1 C 41 %
2872 26-12-2019 22:33:17 4.1 C 41 %
2873 26-12-2019 22:43:17 4.1 C 42 %
2874 26-12-2019 22:52:17 4.1 C 42 %
2875 26-12-2019 23:03:17 4.1 C 43 %
Sensor: Nr:Datum:Temp:Feuchte:
Aussen-T/F 2876 26-12-2019 23:13:17 4.1 C 43 %
2877 26-12-2019 23:23:17 4 C 43 %
2878 26-12-2019 23:32:17 4 C 43 %
2879 26-12-2019 23:42:17 4 C 42 %
2880 26-12-2019 23:53:17 4 C 42 %
2881 27-12-2019 00:02:17 4 C 42 %
2882 27-12-2019 00:12:17 4 C 42 %
2883 27-12-2019 00:23:17 4 C 42 %
2884 27-12-2019 00:32:17 4 C 42 %
2885 27-12-2019 00:42:18 4.1 C 42 %
2886 27-12-2019 00:53:17 4.1 C 42 %
2887 27-12-2019 01:03:18 4.1 C 42 %
2888 27-12-2019 01:13:18 4.1 C 42 %
2889 27-12-2019 01:23:17 4.1 C 42 %
2890 27-12-2019 01:33:17 4.1 C 42 %
2891 27-12-2019 01:43:17 4.1 C 42 %
2892 27-12-2019 01:53:18 4.1 C 42 %
2893 27-12-2019 02:03:17 4.1 C 42 %
2894 27-12-2019 02:13:17 4.1 C 42 %
2895 27-12-2019 02:23:17 4.1 C 42 %
2896 27-12-2019 02:33:18 4.1 C 42 %
2897 27-12-2019 02:43:19 4.1 C 42 %
2898 27-12-2019 02:53:17 4.2 C 42 %
2899 27-12-2019 03:03:17 4.3 C 42 %
2900 27-12-2019 03:13:17 4.2 C 42 %
Sensor: Nr:Datum:Temp:Feuchte:
Aussen-T/F 2901 27-12-2019 03:23:17 4.3 C 42 %
2902 27-12-2019 03:33:17 4.3 C 42 %
2903 27-12-2019 03:43:18 4.3 C 42 %
2904 27-12-2019 03:53:17 4.3 C 42 %
2905 27-12-2019 04:03:17 4.3 C 42 %
2906 27-12-2019 04:13:17 4.3 C 42 %
2907 27-12-2019 04:23:17 4.3 C 42 %
2908 27-12-2019 04:33:17 4.3 C 42 %
2909 27-12-2019 04:43:17 4.3 C 42 %
2910 27-12-2019 04:53:18 4.4 C 42 %
2911 27-12-2019 05:03:17 4.4 C 42 %
2912 27-12-2019 05:13:17 4.4 C 42 %
2913 27-12-2019 05:23:17 4.4 C 42 %
2914 27-12-2019 05:33:17 4.3 C 42 %
2915 27-12-2019 05:43:17 4.4 C 42 %
2916 27-12-2019 05:53:17 4.4 C 42 %
2917 27-12-2019 06:03:17 4.4 C 42 %
2918 27-12-2019 06:13:17 4.4 C 42 %
2919 27-12-2019 06:23:17 4.4 C 42 %
2920 27-12-2019 06:33:17 4.4 C 42 %
2921 27-12-2019 06:43:17 4.4 C 42 %
2922 27-12-2019 06:53:17 4.4 C 42 %
2923 27-12-2019 07:03:17 4.5 C 42 %
2924 27-12-2019 07:13:17 4.4 C 42 %
2925 27-12-2019 07:23:18 4.4 C 42 %
Sensor: Nr:Datum:Temp:Feuchte:
Aussen-T/F 2926 27-12-2019 07:33:17 4.4 C 42 %
2927 27-12-2019 07:43:17 4.4 C 42 %
2928 27-12-2019 07:53:17 4.3 C 42 %
2929 27-12-2019 08:03:17 4.3 C 42 %
2930 27-12-2019 08:13:17 4.3 C 42 %
2931 27-12-2019 08:23:17 4.3 C 42 %
2932 27-12-2019 08:33:17 4.3 C 42 %
2933 27-12-2019 08:43:17 4.3 C 42 %
2934 27-12-2019 08:53:18 4.3 C 42 %
2935 27-12-2019 09:03:17 4.4 C 42 %
2936 27-12-2019 09:13:17 4.4 C 42 %
2937 27-12-2019 09:23:17 4.3 C 42 %
2938 27-12-2019 09:33:17 4.5 C 42 %
2939 27-12-2019 09:43:17 4.6 C 42 %
2940 27-12-2019 09:53:17 4.8 C 41 %
2941 27-12-2019 10:03:17 4.9 C 41 %
2942 27-12-2019 10:13:17 4.8 C 40 %
2943 27-12-2019 10:23:17 4.8 C 40 %
2944 27-12-2019 10:33:18 4.9 C 40 %
2945 27-12-2019 10:43:18 4.9 C 40 %
2946 27-12-2019 10:53:17 5 C 38 %
2947 27-12-2019 11:03:18 5 C 38 %
2948 27-12-2019 11:13:18 5.1 C 37 %
2949 27-12-2019 11:23:17 5.1 C 37 %
2950 27-12-2019 11:33:17 5.2 C 36 %
Sensor: Nr:Datum:Temp:Feuchte:
Aussen-T/F 2951 27-12-2019 11:43:17 5.7 C 33 %
2952 27-12-2019 11:53:17 6 C 31 %
2953 27-12-2019 12:03:17 6.1 C 31 %
2954 27-12-2019 12:13:17 5.9 C 31 %
2955 27-12-2019 12:23:17 5.9 C 31 %
2956 27-12-2019 12:33:17 6 C 31 %
2957 27-12-2019 12:43:17 6 C 31 %
2958 27-12-2019 12:53:17 5.9 C 31 %
2959 27-12-2019 13:03:17 5.7 C 31 %
2960 27-12-2019 13:13:17 5.7 C 31 %
2961 27-12-2019 13:23:17 5.6 C 31 %
2962 27-12-2019 13:33:17 5.7 C 31 %
2963 27-12-2019 13:43:17 5.7 C 30 %
2964 27-12-2019 13:53:17 5.8 C 30 %
2965 27-12-2019 14:03:18 5.9 C 30 %
2966 27-12-2019 14:13:18 6.1 C 29 %
2967 27-12-2019 14:23:18 5.9 C 29 %
2968 27-12-2019 14:33:17 6 C 30 %
2969 27-12-2019 14:43:17 5.9 C 28 %
2970 27-12-2019 14:53:18 5.8 C 26 %
2971 27-12-2019 15:03:17 5.7 C 27 %
2972 27-12-2019 15:13:17 5.7 C 28 %
2973 27-12-2019 15:23:18 5.6 C 29 %
2974 27-12-2019 15:33:17 5.6 C 29 %
2975 27-12-2019 15:43:17 5.4 C 30 %
Sensor: Nr:Datum:Temp:Feuchte:
Aussen-T/F 2976 27-12-2019 15:53:17 5.3 C 31 %
2977 27-12-2019 16:03:17 5.1 C 33 %
2978 27-12-2019 16:13:17 4.9 C 33 %
2979 27-12-2019 16:23:17 4.9 C 33 %
2980 27-12-2019 16:33:17 4.8 C 34 %
2981 27-12-2019 16:43:17 4.7 C 33 %
2982 27-12-2019 16:53:17 4.6 C 34 %
2983 27-12-2019 17:03:17 4.5 C 34 %
2984 27-12-2019 17:13:17 4.5 C 35 %
2985 27-12-2019 17:23:17 4.5 C 33 %
2986 27-12-2019 17:33:18 4.5 C 34 %
2987 27-12-2019 17:43:18 4.5 C 34 %
2988 27-12-2019 17:53:17 4.4 C 34 %
2989 27-12-2019 18:03:18 4.4 C 33 %
2990 27-12-2019 18:13:18 4.4 C 33 %
2991 27-12-2019 18:23:17 4.4 C 32 %
2992 27-12-2019 18:33:18 4.4 C 34 %
2993 27-12-2019 18:43:18 4.3 C 34 %
2994 27-12-2019 18:53:17 4.2 C 33 %
2995 27-12-2019 19:03:17 4.2 C 33 %
2996 27-12-2019 19:13:17 4.2 C 33 %
2997 27-12-2019 19:23:17 4.3 C 32 %
2998 27-12-2019 19:33:17 4.2 C 33 %
2999 27-12-2019 19:43:17 4.1 C 34 %
3000 27-12-2019 19:53:18 3.9 C 35 %
Sensor: Nr:Datum:Temp:Feuchte:
Aussen-T/F 3001 27-12-2019 20:03:17 3.8 C 34 %
3002 27-12-2019 20:13:17 4 C 32 %
3003 27-12-2019 20:23:17 4 C 32 %
3004 27-12-2019 20:33:18 4 C 32 %
3005 27-12-2019 20:43:18 4 C 31 %
3006 27-12-2019 20:53:17 4.1 C 31 %
3007 27-12-2019 21:03:18 4.1 C 31 %
3008 27-12-2019 21:13:18 4 C 31 %
3009 27-12-2019 21:23:17 4 C 31 %
3010 27-12-2019 21:33:18 3.9 C 33 %
3011 27-12-2019 21:43:18 3.9 C 32 %
3012 27-12-2019 21:53:17 3.7 C 32 %
3013 27-12-2019 22:03:17 3.6 C 32 %
3014 27-12-2019 22:13:17 3.3 C 32 %
3015 27-12-2019 22:23:17 3.2 C 32 %
3016 27-12-2019 22:33:17 2.7 C 33 %
3017 27-12-2019 22:43:17 2.2 C 34 %
3018 27-12-2019 22:53:17 2 C 35 %
3019 27-12-2019 23:03:18 1.7 C 38 %
3020 27-12-2019 23:13:18 1.3 C 39 %
3021 27-12-2019 23:23:17 1.2 C 41 %
3022 27-12-2019 23:33:17 0.9 C 42 %
3023 27-12-2019 23:43:17 0.8 C 41 %
3024 27-12-2019 23:53:17 0.7 C 41 %
3025 28-12-2019 00:03:17 0.5 C 40 %
Sensor: Nr:Datum:Temp:Feuchte:
Aussen-T/F 3026 28-12-2019 00:13:17 0.4 C 41 %
3027 28-12-2019 00:23:18 0.4 C 41 %
3028 28-12-2019 00:33:17 0.3 C 41 %
3029 28-12-2019 00:43:17 0.3 C 41 %
3030 28-12-2019 00:53:17 0.2 C 40 %
3031 28-12-2019 01:03:17 0.1 C 40 %
3032 28-12-2019 01:13:17 -0.2 C 43 %
3033 28-12-2019 01:23:17 -0.5 C 43 %
3034 28-12-2019 01:33:17 -0.3 C 44 %
3035 28-12-2019 01:43:17 -0.7 C 42 %
3036 28-12-2019 01:53:17 -1.1 C 43 %
3037 28-12-2019 02:03:17 -1.3 C 45 %
3038 28-12-2019 02:13:17 -1.5 C 44 %
3039 28-12-2019 02:23:17 -1.7 C 44 %
3040 28-12-2019 02:33:18 -1.5 C 45 %
3041 28-12-2019 02:43:18 -1.5 C 45 %
3042 28-12-2019 02:53:17 -1.6 C 45 %
3043 28-12-2019 03:03:17 -1.9 C 45 %
3044 28-12-2019 03:13:18 -1.7 C 45 %
3045 28-12-2019 03:23:17 -2.1 C 45 %
3046 28-12-2019 03:33:17 -2.1 C 45 %
3047 28-12-2019 03:43:17 -2.1 C 45 %
3048 28-12-2019 03:53:18 -2.4 C 45 %
3049 28-12-2019 04:03:17 -2.4 C 45 %
3050 28-12-2019 04:13:17 -2.4 C 45 %
Sensor: Nr:Datum:Temp:Feuchte:
Aussen-T/F 3051 28-12-2019 04:23:17 -2.3 C 45 %
3052 28-12-2019 04:33:17 -2.4 C 45 %
3053 28-12-2019 04:43:18 -2.3 C 45 %
3054 28-12-2019 04:53:17 -2.4 C 45 %
3055 28-12-2019 05:03:18 -2.6 C 44 %
3056 28-12-2019 05:13:18 -2.7 C 44 %
3057 28-12-2019 05:23:17 -2.5 C 45 %
3058 28-12-2019 05:33:18 -2.5 C 45 %
3059 28-12-2019 05:43:18 -2.1 C 45 %
3060 28-12-2019 05:53:17 -2.3 C 45 %
3061 28-12-2019 06:03:17 -1.8 C 45 %
3062 28-12-2019 06:13:18 -2.1 C 44 %
3063 28-12-2019 06:23:17 -2.2 C 43 %
3064 28-12-2019 06:33:17 -2 C 44 %
3065 28-12-2019 06:43:18 -1.9 C 44 %
3066 28-12-2019 06:53:17 -2.1 C 43 %
3067 28-12-2019 07:03:18 -2 C 43 %
3068 28-12-2019 07:13:18 -2.3 C 43 %
3069 28-12-2019 07:23:17 -2.8 C 42 %
3070 28-12-2019 07:33:17 -2.3 C 43 %
3071 28-12-2019 07:43:17 -2.4 C 43 %
3072 28-12-2019 07:53:17 -2.2 C 44 %
3073 28-12-2019 08:03:17 -2.6 C 43 %
3074 28-12-2019 08:13:17 -3 C 42 %
3075 28-12-2019 08:23:18 -3.1 C 42 %
Sensor: Nr:Datum:Temp:Feuchte:
Aussen-T/F 3076 28-12-2019 08:33:17 -3.2 C 42 %
3077 28-12-2019 08:43:17 -3.2 C 42 %
3078 28-12-2019 08:53:17 -2.9 C 43 %
3079 28-12-2019 09:03:18 -2.9 C 43 %
3080 28-12-2019 09:13:18 -2.8 C 43 %
3081 28-12-2019 09:23:17 -2.7 C 43 %
3082 28-12-2019 09:33:17 -2.5 C 43 %
3083 28-12-2019 09:43:17 -1.9 C 45 %
3084 28-12-2019 09:53:17 -1.7 C 45 %
3085 28-12-2019 10:03:17 -1.6 C 45 %
3086 28-12-2019 10:13:17 -1.4 C 45 %
3087 28-12-2019 10:23:17 -1.5 C 45 %
3088 28-12-2019 10:33:18 -1.3 C 45 %
3089 28-12-2019 10:43:18 -1.3 C 45 %
3090 28-12-2019 10:53:17 -1.1 C 45 %
3091 28-12-2019 11:03:18 -1 C 44 %
3092 28-12-2019 11:13:18 -0.9 C 44 %
3093 28-12-2019 11:23:17 -0.6 C 44 %
3094 28-12-2019 11:33:17 -0.5 C 43 %
3095 28-12-2019 11:43:18 -0.3 C 42 %
3096 28-12-2019 11:53:17 -0.2 C 42 %
3097 28-12-2019 12:03:17 -0.2 C 41 %
3098 28-12-2019 12:13:17 0 C 41 %
3099 28-12-2019 12:23:17 0.2 C 41 %
3100 28-12-2019 12:33:17 0.3 C 41 %
Sensor: Nr:Datum:Temp:Feuchte:
Aussen-T/F 3101 28-12-2019 12:43:18 0.4 C 40 %
3102 28-12-2019 12:53:17 0.5 C 40 %
3103 28-12-2019 13:03:18 0.7 C 40 %
3104 28-12-2019 13:13:18 0.8 C 40 %
3105 28-12-2019 13:23:17 0.8 C 40 %
3106 28-12-2019 13:33:17 0.9 C 40 %
3107 28-12-2019 13:43:17 0.8 C 40 %
3108 28-12-2019 13:53:17 0.6 C 40 %
3109 28-12-2019 14:03:17 0.6 C 41 %
3110 28-12-2019 14:13:17 0.7 C 41 %
3111 28-12-2019 14:23:17 0.8 C 40 %
3112 28-12-2019 14:33:17 0.7 C 40 %
3113 28-12-2019 14:43:17 0.6 C 40 %
3114 28-12-2019 14:53:17 0.5 C 40 %
3115 28-12-2019 15:03:17 0.5 C 40 %
3116 28-12-2019 15:13:18 0.5 C 40 %
3117 28-12-2019 15:23:17 0.2 C 40 %
3118 28-12-2019 15:33:17 0.4 C 40 %
3119 28-12-2019 15:43:17 0.3 C 39 %
3120 28-12-2019 15:53:18 0.4 C 39 %
3121 28-12-2019 16:03:17 0.3 C 38 %
3122 28-12-2019 16:13:17 0.2 C 38 %
3123 28-12-2019 16:23:17 0 C 39 %
3124 28-12-2019 16:33:17 0 C 39 %
3125 28-12-2019 16:43:17 -0.1 C 38 %
Sensor: Nr:Datum:Temp:Feuchte:
Aussen-T/F 3126 28-12-2019 16:53:17 -0.3 C 39 %
3127 28-12-2019 17:03:17 -0.4 C 39 %
3128 28-12-2019 17:13:17 -0.4 C 40 %
3129 28-12-2019 17:23:17 -0.5 C 40 %
3130 28-12-2019 17:33:18 -0.6 C 40 %
3131 28-12-2019 17:43:18 -0.7 C 41 %
3132 28-12-2019 17:53:17 -1.3 C 41 %
3133 28-12-2019 18:03:17 -1.2 C 44 %
3134 28-12-2019 18:13:17 -1.1 C 43 %
3135 28-12-2019 18:23:17 -1.1 C 43 %
3136 28-12-2019 18:33:17 -0.9 C 43 %
3137 28-12-2019 18:43:17 -1.2 C 43 %
3138 28-12-2019 18:53:17 -0.9 C 43 %
3139 28-12-2019 19:03:17 -1.2 C 42 %
3140 28-12-2019 19:13:18 -1.7 C 42 %
3141 28-12-2019 19:23:17 -1.9 C 43 %
3142 28-12-2019 19:33:18 -1.9 C 44 %
3143 28-12-2019 19:43:18 -1.9 C 44 %
3144 28-12-2019 19:53:17 -1.8 C 44 %
3145 28-12-2019 20:03:17 -1.9 C 44 %
3146 28-12-2019 20:13:17 -1.7 C 45 %
3147 28-12-2019 20:23:17 -1.2 C 45 %
3148 28-12-2019 20:33:18 -1.2 C 43 %
3149 28-12-2019 20:43:18 -1.4 C 43 %
3150 28-12-2019 20:53:18 -1.2 C 44 %
Sensor: Nr:Datum:Temp:Feuchte:
Aussen-T/F 3151 28-12-2019 21:03:17 -1.6 C 43 %
3152 28-12-2019 21:13:17 -1.3 C 44 %
3153 28-12-2019 21:23:17 -1.4 C 41 %
3154 28-12-2019 21:33:17 -1.8 C 41 %
3155 28-12-2019 21:43:18 -1.6 C 43 %
3156 28-12-2019 21:53:17 -1.7 C 42 %
3157 28-12-2019 22:03:18 -1.7 C 42 %
3158 28-12-2019 22:13:18 -2.2 C 41 %
3159 28-12-2019 22:23:17 -2.3 C 42 %
3160 28-12-2019 22:33:17 -2.3 C 42 %
3161 28-12-2019 22:43:17 -2.5 C 42 %
3162 28-12-2019 22:53:17 -2.2 C 43 %
3163 28-12-2019 23:03:17 -2.5 C 42 %
3164 28-12-2019 23:13:17 -2.3 C 43 %
3165 28-12-2019 23:23:17 -2.3 C 43 %
3166 28-12-2019 23:33:17 -2.7 C 42 %
3167 28-12-2019 23:43:17 -2.6 C 43 %
3168 28-12-2019 23:53:17 -2.9 C 42 %
3169 29-12-2019 00:03:18 -2.6 C 43 %
3170 29-12-2019 00:13:18 -2.9 C 43 %
3171 29-12-2019 00:23:17 -3.1 C 42 %
3172 29-12-2019 00:33:17 -3.2 C 43 %
3173 29-12-2019 00:43:17 -3.1 C 43 %
3174 29-12-2019 00:53:17 -3.1 C 43 %
3175 29-12-2019 01:03:17 -3.3 C 42 %
Sensor: Nr:Datum:Temp:Feuchte:
Aussen-T/F 3176 29-12-2019 01:13:17 -3.3 C 43 %
3177 29-12-2019 01:23:17 -3.5 C 42 %
3178 29-12-2019 01:33:17 -3.7 C 42 %
3179 29-12-2019 01:43:17 -3 C 44 %
3180 29-12-2019 01:53:17 -3.5 C 42 %
3181 29-12-2019 02:03:17 -3.7 C 41 %
3182 29-12-2019 02:13:17 -3.8 C 42 %
3183 29-12-2019 02:23:17 -3.3 C 43 %
3184 29-12-2019 02:33:17 -3.7 C 41 %
3185 29-12-2019 02:43:17 -3.7 C 42 %
3186 29-12-2019 02:53:18 -3.8 C 41 %
3187 29-12-2019 03:03:17 -4 C 41 %
3188 29-12-2019 03:13:17 -4 C 42 %
3189 29-12-2019 03:23:17 -4 C 41 %
3190 29-12-2019 03:33:17 -4.1 C 41 %
3191 29-12-2019 03:43:17 -4.1 C 41 %
3192 29-12-2019 03:53:18 -4 C 42 %
3193 29-12-2019 04:03:17 -4.2 C 41 %
3194 29-12-2019 04:13:17 -3.9 C 42 %
3195 29-12-2019 04:23:17 -4.1 C 41 %
3196 29-12-2019 04:33:17 -4.1 C 41 %
3197 29-12-2019 04:43:17 -4.4 C 41 %
3198 29-12-2019 04:53:17 -4.2 C 41 %
3199 29-12-2019 05:03:17 -4.3 C 41 %
3200 29-12-2019 05:13:17 -4.5 C 41 %
Sensor: Nr:Datum:Temp:Feuchte:
Aussen-T/F 3201 29-12-2019 05:23:17 -4.5 C 41 %
3202 29-12-2019 05:33:18 -4.4 C 41 %
3203 29-12-2019 05:43:18 -4.5 C 41 %
3204 29-12-2019 05:53:17 -4.7 C 41 %
3205 29-12-2019 06:03:17 -4.6 C 41 %
3206 29-12-2019 06:13:17 -4.7 C 41 %
3207 29-12-2019 06:23:17 -4.8 C 41 %
3208 29-12-2019 06:33:17 -4.8 C 41 %
3209 29-12-2019 06:43:17 -4.8 C 41 %
3210 29-12-2019 06:53:17 -4.8 C 41 %
3211 29-12-2019 07:03:17 -4.9 C 41 %
3212 29-12-2019 07:13:17 -4.9 C 41 %
3213 29-12-2019 07:23:17 -5 C 41 %
3214 29-12-2019 07:33:17 -4.5 C 42 %
3215 29-12-2019 07:43:17 -4.7 C 41 %
3216 29-12-2019 07:53:17 -4.7 C 41 %
3217 29-12-2019 08:03:17 -4.4 C 42 %
3218 29-12-2019 08:13:17 -4.3 C 42 %
3219 29-12-2019 08:23:18 -3.9 C 43 %
3220 29-12-2019 08:33:17 -4.1 C 41 %
3221 29-12-2019 08:43:17 -4.3 C 41 %
3222 29-12-2019 08:53:17 -4.5 C 40 %
3223 29-12-2019 09:03:17 -4.1 C 42 %
3224 29-12-2019 09:13:17 -3.9 C 42 %
3225 29-12-2019 09:23:18 -4 C 41 %
Sensor: Nr:Datum:Temp:Feuchte:
Aussen-T/F 3226 29-12-2019 09:33:17 -4.1 C 41 %
3227 29-12-2019 09:43:17 -4 C 41 %
3228 29-12-2019 09:53:17 -4 C 41 %
3229 29-12-2019 10:03:18 -4 C 40 %
3230 29-12-2019 10:13:18 -3.9 C 41 %
3231 29-12-2019 10:23:17 -3.5 C 42 %
3232 29-12-2019 10:33:17 -3.3 C 42 %
3233 29-12-2019 10:43:17 -3.1 C 42 %
3234 29-12-2019 10:53:17 -2.6 C 43 %
3235 29-12-2019 11:03:17 -2.1 C 43 %
3236 29-12-2019 11:13:17 -1.8 C 42 %
3237 29-12-2019 11:23:17 -1.4 C 43 %
3238 29-12-2019 11:33:17 -1.3 C 42 %
3239 29-12-2019 11:43:18 -0.8 C 43 %
3240 29-12-2019 11:53:17 -0.4 C 42 %
3241 29-12-2019 12:03:18 -0.5 C 41 %
3242 29-12-2019 12:13:18 -0.3 C 41 %
3243 29-12-2019 12:23:17 0.1 C 40 %
3244 29-12-2019 12:33:17 0.3 C 40 %
3245 29-12-2019 12:43:17 0.5 C 40 %
3246 29-12-2019 12:53:17 0.4 C 40 %
3247 29-12-2019 13:03:17 0.7 C 38 %
3248 29-12-2019 13:13:17 1 C 37 %
3249 29-12-2019 13:23:17 1 C 37 %
3250 29-12-2019 13:33:18 1.4 C 36 %
Sensor: Nr:Datum:Temp:Feuchte:
Aussen-T/F 3251 29-12-2019 13:43:18 1.4 C 38 %
3252 29-12-2019 13:53:17 1.5 C 37 %
3253 29-12-2019 14:03:17 1.5 C 36 %
3254 29-12-2019 14:13:17 1.4 C 37 %
3255 29-12-2019 14:23:17 1.7 C 36 %
3256 29-12-2019 14:33:18 1.9 C 36 %
3257 29-12-2019 14:43:18 2.2 C 34 %
3258 29-12-2019 14:53:17 2.1 C 33 %
3259 29-12-2019 15:03:17 1.9 C 34 %
3260 29-12-2019 15:13:18 2 C 31 %
3261 29-12-2019 15:23:17 2 C 27 %
3262 29-12-2019 15:33:17 1.9 C 30 %
3263 29-12-2019 15:43:17 1.5 C 32 %
3264 29-12-2019 15:53:18 1.1 C 32 %
3265 29-12-2019 16:03:17 0.5 C 35 %
3266 29-12-2019 16:13:17 0.2 C 38 %
3267 29-12-2019 16:23:17 0.2 C 39 %
3268 29-12-2019 16:33:18 -0.3 C 39 %
3269 29-12-2019 16:43:18 -0.1 C 40 %
3270 29-12-2019 16:53:17 -0.2 C 40 %
3271 29-12-2019 17:03:17 -0.2 C 40 %
3272 29-12-2019 17:13:17 -0.3 C 39 %
3273 29-12-2019 17:23:17 -0.3 C 37 %
3274 29-12-2019 17:33:17 -0.3 C 37 %
3275 29-12-2019 17:43:17 -0.1 C 36 %
Sensor: Nr:Datum:Temp:Feuchte:
Aussen-T/F 3276 29-12-2019 17:53:17 -0.2 C 38 %
3277 29-12-2019 18:03:17 -0.1 C 37 %
3278 29-12-2019 18:13:17 0.1 C 37 %
3279 29-12-2019 18:23:17 0.2 C 36 %
3280 29-12-2019 18:33:17 -0.2 C 38 %
3281 29-12-2019 18:43:17 -0.5 C 40 %
3282 29-12-2019 18:53:17 -0.8 C 40 %
3283 29-12-2019 19:03:17 -0.5 C 41 %
3284 29-12-2019 19:13:17 -0.7 C 38 %
3285 29-12-2019 19:23:18 -0.6 C 37 %
3286 29-12-2019 19:33:18 -0.6 C 35 %
3287 29-12-2019 19:43:18 -1 C 35 %
3288 29-12-2019 19:53:17 -1.1 C 36 %
3289 29-12-2019 20:03:18 -0.9 C 34 %
3290 29-12-2019 20:13:18 -1.2 C 36 %
3291 29-12-2019 20:23:17 -0.7 C 35 %
3292 29-12-2019 20:33:17 -1.3 C 37 %
3293 29-12-2019 20:43:17 -0.9 C 39 %
3294 29-12-2019 20:53:17 -1.5 C 39 %
3295 29-12-2019 21:03:17 -1.2 C 38 %
3296 29-12-2019 21:13:17 -1.8 C 37 %
3297 29-12-2019 21:23:17 -1.8 C 40 %
3298 29-12-2019 21:33:18 -1.8 C 41 %
3299 29-12-2019 21:43:18 -2.1 C 42 %
3300 29-12-2019 21:53:17 -2.3 C 42 %
Sensor: Nr:Datum:Temp:Feuchte:
Aussen-T/F 3301 29-12-2019 22:03:17 -2.2 C 43 %
3302 29-12-2019 22:13:17 -2.1 C 43 %
3303 29-12-2019 22:23:17 -2.4 C 42 %
3304 29-12-2019 22:33:17 -2.7 C 42 %
3305 29-12-2019 22:43:18 -2.7 C 43 %
3306 29-12-2019 22:53:17 -2.7 C 43 %
3307 29-12-2019 23:03:17 -2.8 C 43 %
3308 29-12-2019 23:13:17 -2.7 C 44 %
3309 29-12-2019 23:23:17 -2.8 C 43 %
3310 29-12-2019 23:33:18 -3 C 43 %
3311 29-12-2019 23:43:18 -3 C 43 %
3312 29-12-2019 23:53:17 -3 C 42 %
3313 30-12-2019 00:03:17 -3 C 42 %
3314 30-12-2019 00:13:17 -3.1 C 41 %
3315 30-12-2019 00:23:17 -3.1 C 41 %
3316 30-12-2019 00:33:17 -3 C 42 %
3317 30-12-2019 00:43:17 -3.2 C 42 %
3318 30-12-2019 00:53:17 -3.2 C 42 %
3319 30-12-2019 01:03:17 -3.2 C 42 %
3320 30-12-2019 01:13:18 -3.1 C 44 %
3321 30-12-2019 01:23:17 -3.1 C 43 %
3322 30-12-2019 01:33:18 -3.2 C 42 %
3323 30-12-2019 01:43:18 -3.4 C 42 %
3324 30-12-2019 01:53:17 -3.5 C 42 %
3325 30-12-2019 02:03:17 -3.2 C 43 %
Sensor: Nr:Datum:Temp:Feuchte:
Aussen-T/F 3326 30-12-2019 02:13:17 -3.4 C 43 %
3327 30-12-2019 02:23:17 -3.4 C 43 %
3328 30-12-2019 02:33:18 -3.4 C 43 %
3329 30-12-2019 02:43:18 -3.4 C 43 %
3330 30-12-2019 02:53:17 -3.4 C 43 %
3331 30-12-2019 03:03:17 -3.3 C 43 %
3332 30-12-2019 03:13:17 -3.4 C 43 %
3333 30-12-2019 03:23:17 -3.1 C 43 %
3334 30-12-2019 03:33:18 -3.2 C 43 %
3335 30-12-2019 03:43:18 -3.3 C 43 %
3336 30-12-2019 03:53:17 -3.5 C 43 %
3337 30-12-2019 04:03:17 -3.7 C 42 %
3338 30-12-2019 04:13:17 -3.8 C 42 %
3339 30-12-2019 04:23:17 -3.8 C 42 %
3340 30-12-2019 04:33:17 -3.9 C 42 %
3341 30-12-2019 04:43:17 -3.9 C 42 %
3342 30-12-2019 04:53:17 -4 C 42 %
3343 30-12-2019 05:03:17 -3.9 C 42 %
3344 30-12-2019 05:13:17 -3.8 C 42 %
3345 30-12-2019 05:23:17 -3.9 C 42 %
3346 30-12-2019 05:33:17 -3.7 C 43 %
3347 30-12-2019 05:43:17 -3.8 C 43 %
3348 30-12-2019 05:53:18 -4 C 42 %
3349 30-12-2019 06:03:17 -4 C 42 %
3350 30-12-2019 06:13:17 -4 C 42 %
Sensor: Nr:Datum:Temp:Feuchte:
Aussen-T/F 3351 30-12-2019 06:23:17 -3.9 C 42 %
3352 30-12-2019 06:33:17 -3.7 C 43 %
3353 30-12-2019 06:43:17 -3.9 C 42 %
3354 30-12-2019 06:53:17 -4 C 42 %
3355 30-12-2019 07:03:17 -4 C 42 %
3356 30-12-2019 07:13:17 -4.2 C 41 %
3357 30-12-2019 07:23:17 -4.4 C 42 %
3358 30-12-2019 07:33:18 -4.4 C 41 %
3359 30-12-2019 07:43:18 -4.4 C 42 %
3360 30-12-2019 07:53:17 -4.2 C 42 %
3361 30-12-2019 08:03:17 -4.4 C 41 %
3362 30-12-2019 08:13:17 -4.3 C 42 %
3363 30-12-2019 08:23:17 -4.4 C 42 %
3364 30-12-2019 08:33:17 -4.5 C 41 %
3365 30-12-2019 08:43:17 -4 C 43 %
3366 30-12-2019 08:53:17 -4.2 C 41 %
3367 30-12-2019 09:03:18 -4.1 C 42 %
3368 30-12-2019 09:13:18 -3.9 C 42 %
3369 30-12-2019 09:23:17 -3.8 C 42 %
3370 30-12-2019 09:33:17 -3.6 C 43 %
3371 30-12-2019 09:43:17 -3.7 C 42 %
3372 30-12-2019 09:53:17 -3.7 C 42 %
3373 30-12-2019 10:03:17 -3.5 C 42 %
3374 30-12-2019 10:13:17 -3.3 C 43 %
3375 30-12-2019 10:23:17 -3.3 C 42 %
Sensor: Nr:Datum:Temp:Feuchte:
Aussen-T/F 3376 30-12-2019 10:33:17 -3.3 C 42 %
3377 30-12-2019 10:43:17 -3 C 43 %
3378 30-12-2019 10:53:17 -2.9 C 42 %
3379 30-12-2019 11:03:17 -2.9 C 42 %
3380 30-12-2019 11:13:17 -2.8 C 42 %
3381 30-12-2019 11:23:17 -2.4 C 43 %
3382 30-12-2019 11:33:17 -2.1 C 42 %
3383 30-12-2019 11:43:17 -2 C 41 %
3384 30-12-2019 11:53:18 -2.1 C 40 %
3385 30-12-2019 12:03:17 -1.7 C 41 %
3386 30-12-2019 12:13:17 -1.5 C 40 %
3387 30-12-2019 12:23:17 -1.6 C 40 %
3388 30-12-2019 12:33:17 -1.4 C 41 %
3389 30-12-2019 12:43:17 -0.7 C 39 %
3390 30-12-2019 12:53:17 -0.8 C 39 %
3391 30-12-2019 13:03:17 -0.8 C 38 %
3392 30-12-2019 13:13:17 -1 C 40 %
3393 30-12-2019 13:23:17 -1 C 41 %
3394 30-12-2019 13:33:17 -1 C 42 %
3395 30-12-2019 13:43:17 -0.6 C 42 %
3396 30-12-2019 13:53:17 -0.2 C 41 %
3397 30-12-2019 14:03:17 0.3 C 37 %
3398 30-12-2019 14:13:17 0.1 C 35 %
3399 30-12-2019 14:23:17 0.6 C 35 %
3400 30-12-2019 14:33:17 0.5 C 35 %
Sensor: Nr:Datum:Temp:Feuchte:
Aussen-T/F 3401 30-12-2019 14:43:17 1 C 32 %
3402 30-12-2019 14:53:17 0.6 C 35 %
3403 30-12-2019 15:03:17 0.9 C 36 %
3404 30-12-2019 15:13:17 1.1 C 33 %
3405 30-12-2019 15:23:17 0.6 C 35 %
3406 30-12-2019 15:33:18 0.6 C 36 %
3407 30-12-2019 15:43:18 0.7 C 35 %
3408 30-12-2019 15:53:17 1.6 C 32 %
3409 30-12-2019 16:03:18 1.7 C 32 %
3410 30-12-2019 16:13:18 1.9 C 31 %
3411 30-12-2019 16:23:18 1.6 C 33 %
3412 30-12-2019 16:33:17 1.1 C 35 %
3413 30-12-2019 16:43:17 0.8 C 37 %
3414 30-12-2019 16:53:17 0.6 C 40 %
3415 30-12-2019 17:03:17 0.7 C 40 %
3416 30-12-2019 17:13:17 0.7 C 40 %
3417 30-12-2019 17:23:18 0.6 C 40 %
3418 30-12-2019 17:33:17 0.5 C 40 %
3419 30-12-2019 17:43:17 0.5 C 40 %
3420 30-12-2019 17:53:17 0.5 C 37 %
3421 30-12-2019 18:03:17 0.3 C 36 %
3422 30-12-2019 18:13:17 -0.3 C 36 %
3423 30-12-2019 18:23:18 -0.7 C 37 %
3424 30-12-2019 18:33:18 -0.4 C 36 %
3425 30-12-2019 18:43:18 -0.2 C 36 %
Sensor: Nr:Datum:Temp:Feuchte:
Aussen-T/F 3426 30-12-2019 18:53:17 -0.6 C 34 %
3427 30-12-2019 19:03:17 -1.3 C 36 %
3428 30-12-2019 19:13:17 -1 C 36 %
3429 30-12-2019 19:23:18 -1.4 C 36 %
3430 30-12-2019 19:33:17 -1.4 C 39 %
3431 30-12-2019 19:43:17 -0.4 C 33 %
3432 30-12-2019 19:53:18 0 C 32 %
3433 30-12-2019 20:03:17 -0.3 C 31 %
3434 30-12-2019 20:13:17 -1.2 C 32 %
3435 30-12-2019 20:23:17 -1.6 C 35 %
3436 30-12-2019 20:33:17 -1.6 C 36 %
3437 30-12-2019 20:43:17 -1.7 C 36 %
3438 30-12-2019 20:53:17 -1.5 C 37 %
3439 30-12-2019 21:03:17 -1.9 C 37 %
3440 30-12-2019 21:13:17 -0.8 C 35 %
3441 30-12-2019 21:23:17 -1.1 C 35 %
3442 30-12-2019 21:33:17 -0.9 C 35 %
3443 30-12-2019 21:43:17 -0.8 C 36 %
3444 30-12-2019 21:53:17 -1.1 C 33 %
3445 30-12-2019 22:03:17 -1.5 C 35 %
3446 30-12-2019 22:13:17 -1.7 C 35 %
3447 30-12-2019 22:23:17 -1.7 C 35 %
3448 30-12-2019 22:33:17 -2.3 C 35 %
3449 30-12-2019 22:43:17 -1.8 C 35 %
3450 30-12-2019 22:53:17 -2 C 36 %
Sensor: Nr:Datum:Temp:Feuchte:
Aussen-T/F 3451 30-12-2019 23:03:17 -2.3 C 36 %
3452 30-12-2019 23:13:17 -1.5 C 36 %
3453 30-12-2019 23:23:17 -0.9 C 32 %
3454 30-12-2019 23:33:17 -0.3 C 31 %
3455 30-12-2019 23:43:17 -0.9 C 31 %
3456 30-12-2019 23:53:17 -1 C 31 %
3457 31-12-2019 00:03:17 -1.2 C 32 %
3458 31-12-2019 00:13:18 -1.4 C 34 %
3459 31-12-2019 00:23:17 -1.6 C 36 %
3460 31-12-2019 00:33:18 -1.2 C 35 %
3461 31-12-2019 00:43:18 -1.5 C 35 %
3462 31-12-2019 00:53:17 -1.5 C 36 %
3463 31-12-2019 01:03:17 -1.5 C 36 %
3464 31-12-2019 01:13:17 -0.8 C 34 %
3465 31-12-2019 01:23:18 -1.3 C 34 %
3466 31-12-2019 01:33:17 -1.6 C 37 %
3467 31-12-2019 01:43:17 -2 C 37 %
3468 31-12-2019 01:53:17 -2.3 C 38 %
3469 31-12-2019 02:03:17 -2.5 C 40 %
3470 31-12-2019 02:13:17 -2.7 C 40 %
3471 31-12-2019 02:23:18 -2.8 C 41 %
3472 31-12-2019 02:33:17 -3 C 41 %
3473 31-12-2019 02:43:17 -2.9 C 43 %
3474 31-12-2019 02:53:17 -2 C 45 %
3475 31-12-2019 03:03:17 -1.7 C 42 %
Sensor: Nr:Datum:Temp:Feuchte:
Aussen-T/F 3476 31-12-2019 03:13:18 -2 C 40 %
3477 31-12-2019 03:23:17 -2.4 C 40 %
3478 31-12-2019 03:33:18 -2.5 C 41 %
3479 31-12-2019 03:43:18 -2.9 C 41 %
3480 31-12-2019 03:53:17 -2.8 C 42 %
3481 31-12-2019 04:03:17 -2.6 C 43 %
3482 31-12-2019 04:13:17 -3.1 C 42 %
3483 31-12-2019 04:23:17 -3.2 C 42 %
3484 31-12-2019 04:33:17 -3.3 C 42 %
3485 31-12-2019 04:43:18 -3.3 C 42 %
3486 31-12-2019 04:53:17 -3.2 C 43 %
3487 31-12-2019 05:03:17 -3.3 C 42 %
3488 31-12-2019 05:13:17 -3.6 C 42 %
3489 31-12-2019 05:23:17 -3.4 C 43 %
3490 31-12-2019 05:33:17 -3.1 C 44 %
3491 31-12-2019 05:43:17 -3 C 44 %
3492 31-12-2019 05:53:17 -2.9 C 44 %
3493 31-12-2019 06:03:17 -3.1 C 43 %
3494 31-12-2019 06:13:17 -3.3 C 43 %
3495 31-12-2019 06:23:17 -3.2 C 43 %
3496 31-12-2019 06:33:17 -3.3 C 43 %
3497 31-12-2019 06:43:17 -3.4 C 43 %
3498 31-12-2019 06:53:18 -3.2 C 44 %
3499 31-12-2019 07:03:17 -3.2 C 44 %
3500 31-12-2019 07:13:17 -3 C 44 %
Sensor: Nr:Datum:Temp:Feuchte:
Aussen-T/F 3501 31-12-2019 07:23:17 -3.1 C 44 %
3502 31-12-2019 07:33:17 -3 C 44 %
3503 31-12-2019 07:43:17 -2.6 C 45 %
3504 31-12-2019 07:53:18 -2.1 C 45 %
3505 31-12-2019 08:03:17 -2 C 45 %
3506 31-12-2019 08:13:17 -2 C 45 %
3507 31-12-2019 08:23:17 -1.3 C 45 %
3508 31-12-2019 08:33:17 -1 C 44 %
3509 31-12-2019 08:43:17 -1 C 43 %
3510 31-12-2019 08:53:17 -1.1 C 42 %
3511 31-12-2019 09:03:17 -1 C 43 %
3512 31-12-2019 09:13:17 -0.9 C 44 %
3513 31-12-2019 09:23:17 -1.1 C 42 %
3514 31-12-2019 09:33:17 -1.1 C 42 %
3515 31-12-2019 09:43:17 -1.1 C 42 %
3516 31-12-2019 09:53:17 -0.9 C 43 %
3517 31-12-2019 10:03:17 -0.6 C 44 %
3518 31-12-2019 10:13:17 -0.2 C 43 %
3519 31-12-2019 10:23:17 0.1 C 41 %
3520 31-12-2019 10:33:17 0.3 C 40 %
3521 31-12-2019 10:43:17 0.3 C 38 %
3522 31-12-2019 10:53:18 0.5 C 40 %
3523 31-12-2019 11:03:17 0.8 C 41 %
3524 31-12-2019 11:13:17 0.7 C 41 %
3525 31-12-2019 11:23:17 1.2 C 40 %
Sensor: Nr:Datum:Temp:Feuchte:
Aussen-T/F 3526 31-12-2019 11:33:17 1.1 C 38 %
3527 31-12-2019 11:43:17 1.5 C 40 %
3528 31-12-2019 11:53:17 1.5 C 40 %
3529 31-12-2019 12:03:18 1.8 C 31 %
3530 31-12-2019 12:13:18 2.4 C 35 %
3531 31-12-2019 12:23:17 2.6 C 33 %
3532 31-12-2019 12:33:18 2.4 C 32 %
3533 31-12-2019 12:43:18 2.8 C 30 %
3534 31-12-2019 12:53:17 2.3 C 29 %
3535 31-12-2019 13:03:18 2.4 C 28 %
3536 31-12-2019 13:13:18 2.4 C 27 %
3537 31-12-2019 13:23:17 2.8 C 27 %
3538 31-12-2019 13:33:17 2.8 C 26 %
3539 31-12-2019 13:43:17 3.3 C 26 %
3540 31-12-2019 13:53:17 2.9 C 26 %
3541 31-12-2019 14:03:18 2.7 C 27 %
3542 31-12-2019 14:13:18 2.9 C 27 %
3543 31-12-2019 14:23:17 3.1 C 26 %
3544 31-12-2019 14:33:17 3.4 C 26 %
3545 31-12-2019 14:43:17 3.2 C 26 %
3546 31-12-2019 14:53:17 3 C 26 %
3547 31-12-2019 15:03:17 2.8 C 27 %
3548 31-12-2019 15:13:17 2.9 C 27 %
3549 31-12-2019 15:23:18 3 C 27 %
3550 31-12-2019 15:33:17 3 C 27 %
Sensor: Nr:Datum:Temp:Feuchte:
Aussen-T/F 3551 31-12-2019 15:43:17 2.9 C 28 %
3552 31-12-2019 15:53:17 2.7 C 29 %
3553 31-12-2019 16:03:17 2.1 C 30 %
3554 31-12-2019 16:13:17 0.9 C 35 %
3555 31-12-2019 16:23:18 0.6 C 38 %
3556 31-12-2019 16:33:17 0.3 C 40 %
3557 31-12-2019 16:43:17 0.2 C 39 %
3558 31-12-2019 16:53:18 0.2 C 40 %
3559 31-12-2019 17:03:17 -0.1 C 41 %
3560 31-12-2019 17:13:17 -0.4 C 41 %
3561 31-12-2019 17:23:17 -0.3 C 40 %
3562 31-12-2019 17:33:17 -0.3 C 41 %
3563 31-12-2019 17:43:17 -0.6 C 43 %
3564 31-12-2019 17:53:18 -0.7 C 43 %
3565 31-12-2019 18:03:17 -1.1 C 43 %
3566 31-12-2019 18:13:17 -1.2 C 45 %
3567 31-12-2019 18:23:17 -0.9 C 45 %
3568 31-12-2019 18:33:17 -0.8 C 45 %
3569 31-12-2019 18:43:17 -0.4 C 46 %
3570 31-12-2019 18:53:18 -0.4 C 46 %
3571 31-12-2019 19:03:17 -0.3 C 45 %
3572 31-12-2019 19:13:17 -0.1 C 46 %
3573 31-12-2019 19:23:18 0 C 45 %
3574 31-12-2019 19:33:17 0.1 C 45 %
3575 31-12-2019 19:43:17 0.2 C 45 %
Sensor: Nr:Datum:Temp:Feuchte:
Aussen-T/F 3576 31-12-2019 19:53:17 0.4 C 45 %
3577 31-12-2019 20:03:18 0.5 C 45 %
3578 31-12-2019 20:13:18 0.5 C 45 %
3579 31-12-2019 20:23:17 0.4 C 45 %
3580 31-12-2019 20:33:17 0.4 C 45 %
3581 31-12-2019 20:43:17 0.3 C 43 %
3582 31-12-2019 20:53:17 0.2 C 43 %
3583 31-12-2019 21:03:17 0.2 C 43 %
3584 31-12-2019 21:13:17 0.4 C 44 %
3585 31-12-2019 21:23:18 0.4 C 44 %
3586 31-12-2019 21:33:17 0.5 C 44 %
3587 31-12-2019 21:43:17 0.6 C 43 %
3588 31-12-2019 21:53:17 0.5 C 43 %
3589 31-12-2019 22:03:17 0.6 C 42 %
3590 31-12-2019 22:13:17 0.5 C 42 %
3591 31-12-2019 22:23:18 0.2 C 41 %
3592 31-12-2019 22:33:17 0 C 41 %
3593 31-12-2019 22:43:17 -0.2 C 42 %
3594 31-12-2019 22:53:17 -0.4 C 43 %
3595 31-12-2019 23:03:17 -0.3 C 44 %
3596 31-12-2019 23:13:17 -0.1 C 45 %
3597 31-12-2019 23:23:18 0 C 45 %
3598 31-12-2019 23:33:17 0 C 45 %
3599 31-12-2019 23:43:17 0.4 C 45 %
3600 31-12-2019 23:53:18 0.3 C 45 %
Sensor: Nr:Datum:Temp:Feuchte:
Aussen-T/F 3601 01-01-2020 00:03:17 0.4 C 45 %
3602 01-01-2020 00:13:17 0.4 C 45 %
3603 01-01-2020 00:23:17 0.3 C 45 %
3604 01-01-2020 00:33:17 -0.9 C 41 %
3605 01-01-2020 00:43:17 -0.3 C 45 %
3606 01-01-2020 00:53:18 -0.5 C 44 %
3607 01-01-2020 01:03:17 -0.5 C 44 %
3608 01-01-2020 01:13:17 -0.6 C 44 %
3609 01-01-2020 01:23:17 -0.6 C 45 %
3610 01-01-2020 01:33:17 -0.7 C 45 %
3611 01-01-2020 01:43:17 -1.1 C 44 %
3612 01-01-2020 01:53:18 -0.9 C 45 %
3613 01-01-2020 02:03:17 -0.9 C 45 %
3614 01-01-2020 02:13:17 -0.5 C 46 %
3615 01-01-2020 02:23:17 -0.2 C 45 %
3616 01-01-2020 02:33:18 -0.1 C 45 %
3617 01-01-2020 02:43:18 0 C 45 %
3618 01-01-2020 02:53:17 0.1 C 45 %
3619 01-01-2020 03:03:17 0.1 C 45 %
3620 01-01-2020 03:13:18 0.1 C 45 %
3621 01-01-2020 03:23:17 0.2 C 45 %
3622 01-01-2020 03:33:18 0.1 C 45 %
3623 01-01-2020 03:43:18 0.1 C 45 %
3624 01-01-2020 03:53:17 0.1 C 45 %
3625 01-01-2020 04:03:18 0.2 C 45 %
Sensor: Nr:Datum:Temp:Feuchte:
Aussen-T/F 3626 01-01-2020 04:13:18 0.2 C 45 %
3627 01-01-2020 04:23:17 0.3 C 45 %
3628 01-01-2020 04:33:18 0.3 C 45 %
3629 01-01-2020 04:43:18 0.3 C 44 %
3630 01-01-2020 04:53:17 0.3 C 44 %
3631 01-01-2020 05:03:18 0.4 C 44 %
3632 01-01-2020 05:13:18 0.5 C 44 %
3633 01-01-2020 05:23:17 0.4 C 44 %
3634 01-01-2020 05:33:18 0.4 C 44 %
3635 01-01-2020 05:43:18 0.4 C 44 %
3636 01-01-2020 05:53:17 0.4 C 43 %
3637 01-01-2020 06:03:17 0.4 C 43 %
3638 01-01-2020 06:13:17 0.5 C 43 %
3639 01-01-2020 06:23:17 0.4 C 42 %
3640 01-01-2020 06:33:17 0.6 C 42 %
3641 01-01-2020 06:43:17 0.6 C 42 %
3642 01-01-2020 06:53:17 0.6 C 42 %
3643 01-01-2020 07:03:18 0.6 C 41 %
3644 01-01-2020 07:13:18 0.6 C 41 %
3645 01-01-2020 07:23:17 0.6 C 41 %
3646 01-01-2020 07:33:17 0.6 C 41 %
3647 01-01-2020 07:43:17 0.6 C 41 %
3648 01-01-2020 07:53:17 0.6 C 41 %
3649 01-01-2020 08:03:17 0.6 C 41 %
3650 01-01-2020 08:13:17 0.6 C 41 %
Sensor: Nr:Datum:Temp:Feuchte:
Aussen-T/F 3651 01-01-2020 08:23:18 0.7 C 40 %
3652 01-01-2020 08:33:17 0.7 C 40 %
3653 01-01-2020 08:43:17 0.7 C 40 %
3654 01-01-2020 08:53:17 0.8 C 40 %
3655 01-01-2020 09:03:17 0.8 C 40 %
3656 01-01-2020 09:13:17 1.1 C 38 %
3657 01-01-2020 09:23:17 1.3 C 38 %
3658 01-01-2020 09:33:17 1.4 C 37 %
3659 01-01-2020 09:43:17 1.5 C 37 %
3660 01-01-2020 09:53:17 1.7 C 36 %
3661 01-01-2020 10:03:18 1.9 C 36 %
3662 01-01-2020 10:13:18 2 C 34 %
3663 01-01-2020 10:23:17 2.1 C 33 %
3664 01-01-2020 10:33:17 2.2 C 32 %
3665 01-01-2020 10:43:17 2.3 C 32 %
3666 01-01-2020 10:53:17 2.4 C 32 %
3667 01-01-2020 11:03:17 2.4 C 31 %
3668 01-01-2020 11:13:17 2.7 C 31 %
3669 01-01-2020 11:23:18 2.7 C 30 %
3670 01-01-2020 11:33:17 2.7 C 30 %
3671 01-01-2020 11:43:17 2.8 C 30 %
3672 01-01-2020 11:53:18 2.9 C 30 %
3673 01-01-2020 12:03:17 3.2 C 28 %
3674 01-01-2020 12:13:17 3 C 29 %
3675 01-01-2020 12:23:18 2.7 C 30 %
Sensor: Nr:Datum:Temp:Feuchte:
Aussen-T/F 3676 01-01-2020 12:33:17 2.7 C 30 %
3677 01-01-2020 12:43:17 2.5 C 30 %
3678 01-01-2020 12:53:18 2.1 C 32 %
3679 01-01-2020 13:03:17 1.6 C 36 %
3680 01-01-2020 13:13:17 1.6 C 37 %
3681 01-01-2020 13:23:18 1.4 C 37 %
3682 01-01-2020 13:33:17 1.5 C 38 %
3683 01-01-2020 13:43:17 1.5 C 38 %
3684 01-01-2020 13:53:17 1.6 C 39 %
3685 01-01-2020 14:03:17 1.6 C 39 %
3686 01-01-2020 14:13:17 1.6 C 39 %
3687 01-01-2020 14:23:17 1.6 C 40 %
3688 01-01-2020 14:33:17 1.4 C 40 %
3689 01-01-2020 14:43:17 1.3 C 41 %
3690 01-01-2020 14:53:17 1.2 C 41 %
3691 01-01-2020 15:03:17 1.3 C 41 %
3692 01-01-2020 15:13:17 1.2 C 41 %
3693 01-01-2020 15:23:17 1.6 C 41 %
3694 01-01-2020 15:33:17 1.7 C 38 %
3695 01-01-2020 15:43:17 1.1 C 38 %
3696 01-01-2020 15:53:17 0.7 C 40 %
3697 01-01-2020 16:03:17 0.5 C 43 %
3698 01-01-2020 16:13:17 -0.1 C 43 %
3699 01-01-2020 16:23:17 -0.3 C 44 %
3700 01-01-2020 16:33:18 -0.7 C 44 %
Sensor: Nr:Datum:Temp:Feuchte:
Aussen-T/F 3701 01-01-2020 16:43:18 -0.7 C 45 %
3702 01-01-2020 16:53:17 -0.8 C 45 %
3703 01-01-2020 17:03:17 -1 C 45 %
3704 01-01-2020 17:13:17 -1.3 C 45 %
3705 01-01-2020 17:23:18 -1.5 C 45 %
3706 01-01-2020 17:33:17 -1.8 C 45 %
3707 01-01-2020 17:43:17 -1.9 C 45 %
3708 01-01-2020 17:53:18 -1.8 C 45 %
3709 01-01-2020 18:03:17 -1.9 C 45 %
3710 01-01-2020 18:13:17 -1.9 C 45 %
3711 01-01-2020 18:23:17 -2.1 C 45 %
3712 01-01-2020 18:33:17 -2.1 C 45 %
3713 01-01-2020 18:43:18 -2.1 C 45 %
3714 01-01-2020 18:53:17 -2.2 C 45 %
3715 01-01-2020 19:03:17 -2.4 C 45 %
3716 01-01-2020 19:13:18 -2.5 C 45 %
3717 01-01-2020 19:23:17 -2.4 C 45 %
3718 01-01-2020 19:33:17 -2.3 C 45 %
3719 01-01-2020 19:43:17 -2.2 C 45 %
3720 01-01-2020 19:53:17 -2.4 C 45 %
3721 01-01-2020 20:03:17 -2.2 C 45 %
3722 01-01-2020 20:13:17 -2.1 C 45 %
3723 01-01-2020 20:23:18 -2.3 C 45 %
3724 01-01-2020 20:33:17 -2.1 C 45 %
3725 01-01-2020 20:43:17 -2.6 C 43 %
Sensor: Nr:Datum:Temp:Feuchte:
Aussen-T/F 3726 01-01-2020 20:53:17 -2.8 C 43 %
3727 01-01-2020 21:03:17 -2.8 C 43 %
3728 01-01-2020 21:13:17 -3 C 43 %
3729 01-01-2020 21:23:18 -3.1 C 43 %
3730 01-01-2020 21:33:17 -3.1 C 43 %
3731 01-01-2020 21:43:17 -3.2 C 42 %
3732 01-01-2020 21:53:17 -2.8 C 43 %
3733 01-01-2020 22:03:17 -3.1 C 42 %
3734 01-01-2020 22:13:17 -3.2 C 42 %
3735 01-01-2020 22:23:17 -3 C 43 %
3736 01-01-2020 22:33:17 -2.8 C 43 %
3737 01-01-2020 22:43:17 -2.8 C 43 %
3738 01-01-2020 22:53:17 -3.2 C 42 %
3739 01-01-2020 23:03:17 -3.2 C 42 %
3740 01-01-2020 23:13:17 -2.7 C 44 %
3741 01-01-2020 23:23:17 -2.3 C 45 %
3742 01-01-2020 23:33:17 -2.4 C 44 %
3743 01-01-2020 23:43:17 -2.2 C 45 %
3744 01-01-2020 23:53:17 -2.2 C 45 %
3745 02-01-2020 00:03:17 -2.3 C 44 %
3746 02-01-2020 00:13:17 -2.4 C 44 %
3747 02-01-2020 00:23:17 -2.6 C 43 %
3748 02-01-2020 00:33:17 -2.4 C 43 %
3749 02-01-2020 00:43:17 -2.4 C 44 %
3750 02-01-2020 00:53:17 -2.6 C 43 %
Sensor: Nr:Datum:Temp:Feuchte:
Aussen-T/F 3751 02-01-2020 01:03:17 -2.3 C 44 %
3752 02-01-2020 01:13:17 -2.1 C 45 %
3753 02-01-2020 01:23:17 -1.9 C 45 %
3754 02-01-2020 01:33:17 -1.9 C 45 %
3755 02-01-2020 01:43:17 -1.8 C 45 %
3756 02-01-2020 01:53:17 -1.7 C 45 %
3757 02-01-2020 02:03:17 -1.6 C 45 %
3758 02-01-2020 02:13:17 -1.5 C 45 %
3759 02-01-2020 02:23:17 -1.4 C 45 %
3760 02-01-2020 02:33:17 -1.3 C 45 %
3761 02-01-2020 02:43:17 -1.3 C 45 %
3762 02-01-2020 02:53:17 -1.3 C 45 %
3763 02-01-2020 03:03:17 -1.2 C 45 %
3764 02-01-2020 03:13:18 -1.1 C 45 %
3765 02-01-2020 03:23:17 -1.1 C 45 %
3766 02-01-2020 03:33:18 -1 C 45 %
3767 02-01-2020 03:43:18 -0.9 C 45 %
3768 02-01-2020 03:53:17 -0.9 C 45 %
3769 02-01-2020 04:03:18 -0.8 C 45 %
3770 02-01-2020 04:13:18 -0.7 C 45 %
3771 02-01-2020 04:23:17 -0.7 C 45 %
3772 02-01-2020 04:33:17 -0.7 C 45 %
3773 02-01-2020 04:43:17 -0.7 C 45 %
3774 02-01-2020 04:53:17 -0.8 C 45 %
3775 02-01-2020 05:03:17 -0.9 C 45 %
Sensor: Nr:Datum:Temp:Feuchte:
Aussen-T/F 3776 02-01-2020 05:13:17 -0.9 C 45 %
3777 02-01-2020 05:23:18 -0.9 C 45 %
3778 02-01-2020 05:33:17 -0.9 C 45 %
3779 02-01-2020 05:43:17 -0.8 C 44 %
3780 02-01-2020 05:53:18 -0.8 C 44 %
3781 02-01-2020 06:03:17 -0.9 C 44 %
3782 02-01-2020 06:13:17 -0.9 C 43 %
3783 02-01-2020 06:23:17 -0.9 C 43 %
3784 02-01-2020 06:33:18 -0.7 C 42 %
3785 02-01-2020 06:43:18 -0.7 C 41 %
3786 02-01-2020 06:53:17 -0.7 C 40 %
3787 02-01-2020 07:03:18 -0.7 C 40 %
3788 02-01-2020 07:13:18 -0.7 C 40 %
3789 02-01-2020 07:23:17 -0.7 C 39 %
3790 02-01-2020 07:33:17 -0.7 C 39 %
3791 02-01-2020 07:43:17 -0.7 C 40 %
3792 02-01-2020 07:53:17 -0.6 C 41 %
3793 02-01-2020 08:03:18 -0.6 C 41 %
3794 02-01-2020 08:13:18 -0.5 C 41 %
3795 02-01-2020 08:23:17 -0.4 C 41 %
3796 02-01-2020 08:33:17 -0.3 C 40 %
3797 02-01-2020 08:43:17 -0.3 C 41 %
3798 02-01-2020 08:53:17 -0.2 C 42 %
3799 02-01-2020 09:03:17 -0.1 C 42 %
3800 02-01-2020 09:13:17 0.1 C 42 %
Sensor: Nr:Datum:Temp:Feuchte:
Aussen-T/F 3801 02-01-2020 09:23:17 0.1 C 40 %
3802 02-01-2020 09:33:18 0.4 C 38 %
3803 02-01-2020 09:43:18 0.5 C 37 %
3804 02-01-2020 09:53:17 0.4 C 39 %
3805 02-01-2020 10:03:17 0.4 C 40 %
3806 02-01-2020 10:13:18 0.7 C 41 %
3807 02-01-2020 10:23:17 1.1 C 42 %
3808 02-01-2020 10:33:18 1.1 C 39 %
3809 02-01-2020 10:43:18 1.3 C 39 %
3810 02-01-2020 10:53:17 1.5 C 38 %
3811 02-01-2020 11:03:18 1.7 C 38 %
3812 02-01-2020 11:13:18 1.6 C 35 %
3813 02-01-2020 11:23:17 1.9 C 37 %
3814 02-01-2020 11:33:17 2.1 C 36 %
3815 02-01-2020 11:43:17 2.1 C 35 %
3816 02-01-2020 11:53:17 2.1 C 34 %
3817 02-01-2020 12:03:17 2.2 C 34 %
3818 02-01-2020 12:13:17 2.3 C 35 %
3819 02-01-2020 12:23:17 2.3 C 35 %
3820 02-01-2020 12:33:17 2.6 C 34 %
3821 02-01-2020 12:43:17 3 C 35 %
3822 02-01-2020 12:53:17 2.8 C 32 %
3823 02-01-2020 13:03:17 2.9 C 31 %
3824 02-01-2020 13:13:17 3.1 C 30 %
3825 02-01-2020 13:23:17 3.3 C 29 %
Sensor: Nr:Datum:Temp:Feuchte:
Aussen-T/F 3826 02-01-2020 13:33:17 3.6 C 29 %
3827 02-01-2020 13:43:17 3.3 C 29 %
3828 02-01-2020 13:53:18 3.1 C 30 %
3829 02-01-2020 14:03:17 3.4 C 30 %
3830 02-01-2020 14:13:17 3.4 C 30 %
3831 02-01-2020 14:23:18 3.5 C 30 %
3832 02-01-2020 14:33:17 3.4 C 30 %
3833 02-01-2020 14:43:17 3.7 C 30 %
3834 02-01-2020 14:53:17 3.4 C 30 %
3835 02-01-2020 15:03:17 3.1 C 31 %
3836 02-01-2020 15:13:17 3 C 31 %
3837 02-01-2020 15:23:18 2.7 C 32 %
3838 02-01-2020 15:33:17 2.5 C 33 %
3839 02-01-2020 15:43:17 2.5 C 34 %
3840 02-01-2020 15:53:17 2.4 C 35 %
3841 02-01-2020 16:03:17 2.4 C 35 %
3842 02-01-2020 16:13:17 2.3 C 35 %
3843 02-01-2020 16:23:18 2.2 C 36 %
3844 02-01-2020 16:33:17 2.2 C 37 %
3845 02-01-2020 16:43:17 2.3 C 37 %
3846 02-01-2020 16:53:17 2.2 C 37 %
3847 02-01-2020 17:03:17 2.1 C 38 %
3848 02-01-2020 17:13:17 2 C 38 %
3849 02-01-2020 17:23:18 2.1 C 40 %
3850 02-01-2020 17:33:17 2.1 C 40 %
Sensor: Nr:Datum:Temp:Feuchte:
Aussen-T/F 3851 02-01-2020 17:43:17 2.1 C 40 %
3852 02-01-2020 17:53:17 2.1 C 40 %
3853 02-01-2020 18:03:17 2.1 C 40 %
3854 02-01-2020 18:13:17 2.1 C 40 %
3855 02-01-2020 18:23:17 2.1 C 40 %
3856 02-01-2020 18:33:17 2.1 C 40 %
3857 02-01-2020 18:43:18 2.2 C 39 %
3858 02-01-2020 18:53:17 2.3 C 40 %
3859 02-01-2020 19:03:17 2.2 C 40 %
3860 02-01-2020 19:13:18 2.2 C 40 %
3861 02-01-2020 19:23:17 2.3 C 40 %
3862 02-01-2020 19:33:17 2.3 C 40 %
3863 02-01-2020 19:43:18 2.3 C 40 %
3864 02-01-2020 19:53:17 2.3 C 40 %
3865 02-01-2020 20:03:18 2.3 C 40 %
3866 02-01-2020 20:13:18 2.4 C 40 %
3867 02-01-2020 20:23:17 2.5 C 40 %
3868 02-01-2020 20:33:17 2.6 C 40 %
3869 02-01-2020 20:43:17 2.6 C 40 %
3870 02-01-2020 20:53:17 2.5 C 39 %
3871 02-01-2020 21:03:18 2.5 C 40 %
3872 02-01-2020 21:13:18 2.5 C 40 %
3873 02-01-2020 21:23:17 2.5 C 40 %
3874 02-01-2020 21:33:18 2.5 C 40 %
3875 02-01-2020 21:43:18 2.3 C 40 %
Sensor: Nr:Datum:Temp:Feuchte:
Aussen-T/F 3876 02-01-2020 21:53:17 1.9 C 42 %
3877 02-01-2020 22:03:17 2.3 C 43 %
3878 02-01-2020 22:13:17 2.4 C 43 %
3879 02-01-2020 22:23:17 2.5 C 43 %
3880 02-01-2020 22:33:17 2.6 C 43 %
3881 02-01-2020 22:43:18 2.7 C 43 %
3882 02-01-2020 22:53:17 2.7 C 42 %
3883 02-01-2020 23:03:17 2.8 C 42 %
3884 02-01-2020 23:13:17 2.8 C 42 %
3885 02-01-2020 23:23:17 2.8 C 41 %
3886 02-01-2020 23:33:18 2.8 C 42 %
3887 02-01-2020 23:43:18 2.9 C 42 %
3888 02-01-2020 23:53:17 2.8 C 41 %
3889 03-01-2020 00:03:18 2.9 C 42 %
3890 03-01-2020 00:13:18 3 C 41 %
3891 03-01-2020 00:23:17 3.1 C 41 %
3892 03-01-2020 00:33:17 3.2 C 41 %
3893 03-01-2020 00:43:17 3.2 C 41 %
3894 03-01-2020 00:53:17 3.4 C 42 %
3895 03-01-2020 01:03:17 3.4 C 42 %
3896 03-01-2020 01:13:17 3.5 C 42 %
3897 03-01-2020 01:23:18 3.5 C 42 %
3898 03-01-2020 01:33:17 3.5 C 42 %
3899 03-01-2020 01:43:17 3.6 C 42 %
3900 03-01-2020 01:53:18 3.6 C 42 %
Sensor: Nr:Datum:Temp:Feuchte:
Aussen-T/F 3901 03-01-2020 02:03:17 3.7 C 42 %
3902 03-01-2020 02:13:17 3.7 C 42 %
3903 03-01-2020 02:23:17 3.9 C 42 %
3904 03-01-2020 02:33:17 3.7 C 42 %
3905 03-01-2020 02:43:18 3.7 C 43 %
3906 03-01-2020 02:53:17 3.9 C 44 %
3907 03-01-2020 03:03:17 3.8 C 44 %
3908 03-01-2020 03:13:17 3.8 C 44 %
3909 03-01-2020 03:23:17 3.8 C 44 %
3910 03-01-2020 03:33:17 3.9 C 44 %
3911 03-01-2020 03:43:17 3.9 C 44 %
3912 03-01-2020 03:53:18 3.9 C 44 %
3913 03-01-2020 04:03:17 4 C 43 %
3914 03-01-2020 04:13:17 4 C 43 %
3915 03-01-2020 04:23:18 4 C 42 %
3916 03-01-2020 04:33:17 4.1 C 42 %
3917 03-01-2020 04:43:17 4.1 C 42 %
3918 03-01-2020 04:53:17 4.2 C 42 %
3919 03-01-2020 05:03:17 4.2 C 41 %
3920 03-01-2020 05:13:17 4.3 C 40 %
3921 03-01-2020 05:23:17 4.3 C 40 %
3922 03-01-2020 05:33:17 4.4 C 40 %
3923 03-01-2020 05:43:17 4.4 C 40 %
3924 03-01-2020 05:53:17 4.4 C 40 %
3925 03-01-2020 06:03:17 4.4 C 40 %
Sensor: Nr:Datum:Temp:Feuchte:
Aussen-T/F 3926 03-01-2020 06:13:17 4.4 C 40 %
3927 03-01-2020 06:23:18 4.4 C 40 %
3928 03-01-2020 06:33:17 4.7 C 40 %
3929 03-01-2020 06:43:17 5.3 C 40 %
3930 03-01-2020 06:53:18 6.7 C 34 %
3931 03-01-2020 07:03:18 7.1 C 31 %
3932 03-01-2020 07:13:18 7.7 C 30 %
3933 03-01-2020 07:23:17 8 C 29 %
3934 03-01-2020 07:33:17 7.9 C 30 %
3935 03-01-2020 07:43:17 7.8 C 30 %
3936 03-01-2020 07:53:17 7.9 C 29 %
3937 03-01-2020 08:03:18 7.9 C 30 %
3938 03-01-2020 08:13:18 8 C 29 %
3939 03-01-2020 08:23:17 7.9 C 29 %
3940 03-01-2020 08:33:18 7.8 C 29 %
3941 03-01-2020 08:43:18 7.9 C 29 %
3942 03-01-2020 08:53:17 8 C 29 %
3943 03-01-2020 09:03:17 8.2 C 28 %
3944 03-01-2020 09:13:17 8.2 C 28 %
3945 03-01-2020 09:23:17 8.2 C 28 %
3946 03-01-2020 09:33:17 8.4 C 28 %
3947 03-01-2020 09:43:17 8.4 C 27 %
3948 03-01-2020 09:53:17 8.4 C 27 %
3949 03-01-2020 10:03:17 8.6 C 27 %
3950 03-01-2020 10:13:17 8.6 C 27 %
Sensor: Nr:Datum:Temp:Feuchte:
Aussen-T/F 3951 03-01-2020 10:23:17 8.6 C 27 %
3952 03-01-2020 10:33:17 8.6 C 27 %
3953 03-01-2020 10:43:18 8.6 C 27 %
3954 03-01-2020 10:53:17 8.6 C 27 %
3955 03-01-2020 11:03:18 8.3 C 27 %
3956 03-01-2020 11:13:18 8.5 C 27 %
3957 03-01-2020 11:23:18 8.6 C 27 %
3958 03-01-2020 11:33:17 8.9 C 27 %
3959 03-01-2020 11:43:17 8.9 C 27 %
3960 03-01-2020 11:53:17 8.7 C 27 %
3961 03-01-2020 12:03:17 8.6 C 27 %
3962 03-01-2020 12:13:17 8.4 C 27 %
3963 03-01-2020 12:23:17 8.6 C 27 %
3964 03-01-2020 12:33:17 8.7 C 27 %
3965 03-01-2020 12:43:17 8.5 C 27 %
3966 03-01-2020 12:53:17 8.6 C 27 %
3967 03-01-2020 13:03:17 8.5 C 27 %
3968 03-01-2020 13:13:18 8.5 C 28 %
3969 03-01-2020 13:23:17 8.6 C 28 %
3970 03-01-2020 13:33:17 8.8 C 27 %
3971 03-01-2020 13:43:18 8.8 C 28 %
3972 03-01-2020 13:53:17 8.7 C 28 %
3973 03-01-2020 14:03:17 8.7 C 28 %
3974 03-01-2020 14:13:17 8.5 C 28 %
3975 03-01-2020 14:23:18 8.5 C 29 %
Sensor: Nr:Datum:Temp:Feuchte:
Aussen-T/F 3976 03-01-2020 14:33:17 8.5 C 29 %
3977 03-01-2020 14:43:17 8.5 C 29 %
3978 03-01-2020 14:53:17 8.5 C 30 %
3979 03-01-2020 15:03:17 9 C 28 %
3980 03-01-2020 15:13:17 9 C 28 %
3981 03-01-2020 15:23:17 9 C 28 %
3982 03-01-2020 15:33:17 9.1 C 28 %
3983 03-01-2020 15:43:18 9.2 C 28 %
3984 03-01-2020 15:53:17 9 C 28 %
3985 03-01-2020 16:03:17 9 C 28 %
3986 03-01-2020 16:13:17 9 C 29 %
3987 03-01-2020 16:23:17 8.9 C 30 %
3988 03-01-2020 16:33:17 9 C 29 %
3989 03-01-2020 16:43:17 9 C 29 %
3990 03-01-2020 16:53:17 9 C 29 %
3991 03-01-2020 17:03:17 8.6 C 31 %
3992 03-01-2020 17:13:17 8.6 C 31 %
3993 03-01-2020 17:23:17 8.9 C 31 %
3994 03-01-2020 17:33:17 8.8 C 30 %
3995 03-01-2020 17:43:17 8.9 C 30 %
3996 03-01-2020 17:53:17 9 C 30 %
3997 03-01-2020 18:03:17 9 C 30 %
3998 03-01-2020 18:13:18 9.1 C 30 %
3999 03-01-2020 18:23:18 9.3 C 30 %
4000 03-01-2020 18:33:18 9.3 C 30 %
Sensor: Nr:Datum:Temp:Feuchte:
Aussen-T/F 4001 03-01-2020 18:43:18 9.2 C 30 %
4002 03-01-2020 18:53:17 9.3 C 30 %
4003 03-01-2020 19:03:18 9.2 C 30 %
4004 03-01-2020 19:13:18 8.9 C 32 %
4005 03-01-2020 19:23:17 8.9 C 32 %
4006 03-01-2020 19:33:17 9.2 C 31 %
4007 03-01-2020 19:43:17 9.3 C 31 %
4008 03-01-2020 19:53:17 9.2 C 31 %
4009 03-01-2020 20:03:18 9 C 31 %
4010 03-01-2020 20:13:18 8.9 C 35 %
4011 03-01-2020 20:23:17 8.9 C 35 %
4012 03-01-2020 20:33:17 8.8 C 35 %
4013 03-01-2020 20:43:17 8.7 C 36 %
4014 03-01-2020 20:53:18 8.6 C 39 %
4015 03-01-2020 21:03:17 8.2 C 37 %
4016 03-01-2020 21:13:17 7.8 C 35 %
4017 03-01-2020 21:23:17 7.5 C 35 %
4018 03-01-2020 21:33:18 7.4 C 36 %
4019 03-01-2020 21:43:18 7.2 C 35 %
4020 03-01-2020 21:53:17 6.8 C 35 %
4021 03-01-2020 22:03:18 6.8 C 34 %
4022 03-01-2020 22:13:18 6.7 C 35 %
4023 03-01-2020 22:23:17 6.5 C 33 %
4024 03-01-2020 22:33:17 6.4 C 34 %
4025 03-01-2020 22:43:17 6 C 33 %
Sensor: Nr:Datum:Temp:Feuchte:
Aussen-T/F 4026 03-01-2020 22:53:17 6 C 34 %
4027 03-01-2020 23:03:17 5.7 C 35 %
4028 03-01-2020 23:13:17 5.9 C 34 %
4029 03-01-2020 23:23:17 5.8 C 35 %
4030 03-01-2020 23:33:17 5.8 C 33 %
4031 03-01-2020 23:43:17 5.7 C 35 %
4032 03-01-2020 23:53:17 5.8 C 35 %
4033 04-01-2020 00:03:18 5.7 C 35 %
4034 04-01-2020 00:13:18 5.6 C 35 %
4035 04-01-2020 00:23:17 5.4 C 35 %
4036 04-01-2020 00:33:17 5.6 C 33 %
4037 04-01-2020 00:43:17 5.6 C 33 %
4038 04-01-2020 00:53:17 5.4 C 34 %
4039 04-01-2020 01:03:17 5.3 C 34 %
4040 04-01-2020 01:13:17 4.6 C 36 %
4041 04-01-2020 01:23:17 4.6 C 36 %
4042 04-01-2020 01:33:17 4.6 C 36 %
4043 04-01-2020 01:43:17 3.6 C 37 %
4044 04-01-2020 01:53:18 3.6 C 41 %
4045 04-01-2020 02:03:17 3.5 C 41 %
4046 04-01-2020 02:13:17 3.9 C 37 %
4047 04-01-2020 02:23:17 3.8 C 35 %
4048 04-01-2020 02:33:17 3.5 C 37 %
4049 04-01-2020 02:43:17 3.4 C 40 %
4050 04-01-2020 02:53:17 3.8 C 39 %
Sensor: Nr:Datum:Temp:Feuchte:
Aussen-T/F 4051 04-01-2020 03:03:18 3.7 C 39 %
4052 04-01-2020 03:13:18 3.9 C 40 %
4053 04-01-2020 03:23:17 3.3 C 39 %
4054 04-01-2020 03:33:17 3 C 41 %
4055 04-01-2020 03:43:17 3.4 C 42 %
4056 04-01-2020 03:53:17 3.7 C 36 %
4057 04-01-2020 04:03:17 3.7 C 35 %
4058 04-01-2020 04:13:17 3.4 C 35 %
4059 04-01-2020 04:23:17 3.3 C 36 %
4060 04-01-2020 04:33:17 3.1 C 37 %
4061 04-01-2020 04:43:17 2.8 C 38 %
4062 04-01-2020 04:53:17 2.6 C 39 %
4063 04-01-2020 05:03:17 2.9 C 40 %
4064 04-01-2020 05:13:17 2.4 C 38 %
4065 04-01-2020 05:23:17 2.5 C 40 %
4066 04-01-2020 05:33:17 1.8 C 40 %
4067 04-01-2020 05:43:18 2 C 41 %
4068 04-01-2020 05:53:17 2.3 C 40 %
4069 04-01-2020 06:03:17 2.2 C 39 %
4070 04-01-2020 06:13:17 2.8 C 36 %
4071 04-01-2020 06:23:17 2.6 C 35 %
4072 04-01-2020 06:33:17 2.4 C 37 %
4073 04-01-2020 06:43:17 2.7 C 37 %
4074 04-01-2020 06:53:17 2.7 C 34 %
4075 04-01-2020 07:03:17 2.7 C 34 %
Sensor: Nr:Datum:Temp:Feuchte:
Aussen-T/F 4076 04-01-2020 07:13:17 2.5 C 34 %
4077 04-01-2020 07:23:17 2.5 C 34 %
4078 04-01-2020 07:33:17 2 C 36 %
4079 04-01-2020 07:43:17 2 C 36 %
4080 04-01-2020 07:53:17 2.1 C 37 %
4081 04-01-2020 08:03:17 1.7 C 39 %
4082 04-01-2020 08:13:17 1.6 C 41 %
4083 04-01-2020 08:23:17 1.3 C 41 %
4084 04-01-2020 08:33:17 1.2 C 43 %
4085 04-01-2020 08:43:17 1.3 C 42 %
4086 04-01-2020 08:53:17 1.2 C 41 %
4087 04-01-2020 09:03:17 1 C 41 %
4088 04-01-2020 09:13:17 0.8 C 44 %
4089 04-01-2020 09:23:17 1 C 44 %
4090 04-01-2020 09:33:18 1.4 C 45 %
4091 04-01-2020 09:43:18 1.7 C 44 %
4092 04-01-2020 09:53:17 1.9 C 41 %
4093 04-01-2020 10:03:18 2.1 C 39 %
4094 04-01-2020 10:13:18 2.3 C 38 %
4095 04-01-2020 10:23:17 3.1 C 35 %
4096 04-01-2020 10:33:17 3.6 C 33 %
4097 04-01-2020 10:43:17 5.1 C 27 %
4098 04-01-2020 10:53:17 5.1 C 27 %
4099 04-01-2020 11:03:17 5.4 C 27 %
4100 04-01-2020 11:13:17 5.4 C 27 %
Sensor: Nr:Datum:Temp:Feuchte:
Aussen-T/F 4101 04-01-2020 11:23:17 5.6 C 27 %
4102 04-01-2020 11:33:17 5.6 C 27 %
4103 04-01-2020 11:43:17 5.6 C 26 %
4104 04-01-2020 11:53:17 5.8 C 26 %
4105 04-01-2020 12:03:17 5.9 C 26 %
4106 04-01-2020 12:13:18 6 C 26 %
4107 04-01-2020 12:23:17 6.2 C 26 %
4108 04-01-2020 12:33:17 6.2 C 26 %
4109 04-01-2020 12:43:17 6.3 C 26 %
4110 04-01-2020 12:53:17 6.5 C 26 %
4111 04-01-2020 13:03:17 6.7 C 26 %
4112 04-01-2020 13:13:17 6.7 C 26 %
4113 04-01-2020 13:23:17 6.7 C 26 %
4114 04-01-2020 13:33:17 6.8 C 25 %
4115 04-01-2020 13:43:17 7 C 25 %
4116 04-01-2020 13:53:18 7 C 25 %
4117 04-01-2020 14:03:18 7 C 25 %
4118 04-01-2020 14:13:18 7 C 25 %
4119 04-01-2020 14:23:18 7.1 C 25 %
4120 04-01-2020 14:33:17 7.1 C 25 %
4121 04-01-2020 14:43:18 7 C 25 %
4122 04-01-2020 14:53:17 7 C 25 %
4123 04-01-2020 15:03:17 7.1 C 25 %
4124 04-01-2020 15:13:17 7 C 25 %
4125 04-01-2020 15:23:17 7 C 25 %
Sensor: Nr:Datum:Temp:Feuchte:
Aussen-T/F 4126 04-01-2020 15:33:18 7 C 25 %
4127 04-01-2020 15:43:18 7 C 25 %
4128 04-01-2020 15:53:18 6.9 C 25 %
4129 04-01-2020 16:03:17 6.9 C 25 %
4130 04-01-2020 16:13:18 6.9 C 25 %
4131 04-01-2020 16:23:17 6.9 C 25 %
4132 04-01-2020 16:33:17 6.8 C 25 %
4133 04-01-2020 16:43:17 6.8 C 25 %
4134 04-01-2020 16:53:17 6.8 C 25 %
4135 04-01-2020 17:03:17 6.8 C 25 %
4136 04-01-2020 17:13:17 6.8 C 25 %
4137 04-01-2020 17:23:17 6.7 C 25 %
4138 04-01-2020 17:33:18 6.7 C 25 %
4139 04-01-2020 17:43:18 6.6 C 25 %
4140 04-01-2020 17:53:17 6.6 C 25 %
4141 04-01-2020 18:03:17 6.7 C 25 %
4142 04-01-2020 18:13:17 6.6 C 25 %
4143 04-01-2020 18:23:17 6.8 C 25 %
4144 04-01-2020 18:33:17 6.7 C 25 %
4145 04-01-2020 18:43:17 6.6 C 25 %
4146 04-01-2020 18:53:17 6.5 C 25 %
4147 04-01-2020 19:03:17 6.6 C 25 %
4148 04-01-2020 19:13:17 6.7 C 25 %
4149 04-01-2020 19:23:17 6.5 C 26 %
4150 04-01-2020 19:33:17 6 C 27 %
Sensor: Nr:Datum:Temp:Feuchte:
Aussen-T/F 4151 04-01-2020 19:43:17 5.8 C 30 %
4152 04-01-2020 19:53:17 5.6 C 30 %
4153 04-01-2020 20:03:17 5.5 C 31 %
4154 04-01-2020 20:13:17 5.6 C 31 %
4155 04-01-2020 20:23:18 5.7 C 30 %
4156 04-01-2020 20:33:18 5.8 C 30 %
4157 04-01-2020 20:43:18 6 C 29 %
4158 04-01-2020 20:53:17 6.1 C 29 %
4159 04-01-2020 21:03:17 5.8 C 30 %
4160 04-01-2020 21:13:17 5.5 C 33 %
4161 04-01-2020 21:23:17 5.3 C 35 %
4162 04-01-2020 21:33:17 5.3 C 38 %
4163 04-01-2020 21:43:17 5.2 C 37 %
4164 04-01-2020 21:53:18 5.3 C 40 %
4165 04-01-2020 22:03:17 5.3 C 40 %
4166 04-01-2020 22:13:17 5.3 C 39 %
4167 04-01-2020 22:23:17 5.3 C 37 %
4168 04-01-2020 22:33:17 5.4 C 37 %
4169 04-01-2020 22:43:17 5.4 C 37 %
4170 04-01-2020 22:53:17 5.4 C 36 %
4171 04-01-2020 23:03:17 5.5 C 35 %
4172 04-01-2020 23:13:17 5.6 C 35 %
4173 04-01-2020 23:23:17 5.6 C 34 %
4174 04-01-2020 23:33:18 5.6 C 35 %
4175 04-01-2020 23:43:18 5.7 C 34 %
Sensor: Nr:Datum:Temp:Feuchte:
Aussen-T/F 4176 04-01-2020 23:53:17 5.6 C 35 %
Sensor: Nr:Datum:Temp:Feuchte:
G-T/H 1 07-12-2019 00:01:17 8.1 C 73 %
2 07-12-2019 00:11:17 8.1 C 73 %
3 07-12-2019 00:21:17 8.1 C 73 %
4 07-12-2019 00:31:17 8.2 C 73 %
5 07-12-2019 00:41:17 8.1 C 73 %
6 07-12-2019 00:51:17 8.2 C 73 %
7 07-12-2019 01:01:17 8.2 C 73 %
8 07-12-2019 01:11:17 8.2 C 73 %
9 07-12-2019 01:21:17 8.2 C 73 %
10 07-12-2019 01:31:18 8.2 C 73 %
11 07-12-2019 01:41:18 8.2 C 73 %
12 07-12-2019 01:51:17 8.2 C 73 %
13 07-12-2019 02:01:17 8.3 C 73 %
14 07-12-2019 02:11:17 8.3 C 73 %
15 07-12-2019 02:21:17 8.3 C 74 %
16 07-12-2019 02:31:17 8.3 C 74 %
17 07-12-2019 02:41:17 8.3 C 74 %
18 07-12-2019 02:51:17 8.3 C 74 %
19 07-12-2019 03:01:17 8.3 C 74 %
20 07-12-2019 03:11:17 8.3 C 74 %
21 07-12-2019 03:21:17 8.4 C 74 %
22 07-12-2019 03:31:17 8.4 C 74 %
23 07-12-2019 03:41:17 8.4 C 74 %
24 07-12-2019 03:51:17 8.4 C 74 %
25 07-12-2019 04:01:18 8.4 C 74 %
Sensor: Nr:Datum:Temp:Feuchte:
G-T/H 26 07-12-2019 04:11:18 8.4 C 74 %
27 07-12-2019 04:21:17 8.4 C 74 %
28 07-12-2019 04:31:17 8.4 C 74 %
29 07-12-2019 04:41:17 8.5 C 74 %
30 07-12-2019 04:51:17 8.4 C 74 %
31 07-12-2019 05:01:17 8.4 C 74 %
32 07-12-2019 05:11:17 8.5 C 74 %
33 07-12-2019 05:21:17 8.5 C 74 %
34 07-12-2019 05:31:17 8.5 C 74 %
35 07-12-2019 05:41:17 8.5 C 74 %
36 07-12-2019 05:51:18 8.5 C 74 %
37 07-12-2019 06:01:18 8.5 C 74 %
38 07-12-2019 06:11:18 8.5 C 74 %
39 07-12-2019 06:21:17 8.6 C 74 %
40 07-12-2019 06:31:18 8.6 C 74 %
41 07-12-2019 06:41:18 8.6 C 74 %
42 07-12-2019 06:51:17 8.6 C 74 %
43 07-12-2019 07:01:17 8.6 C 74 %
44 07-12-2019 07:11:17 8.6 C 75 %
45 07-12-2019 07:21:17 8.6 C 75 %
46 07-12-2019 07:31:17 8.6 C 75 %
47 07-12-2019 07:41:17 8.6 C 75 %
48 07-12-2019 07:51:18 8.6 C 75 %
49 07-12-2019 08:01:18 8.6 C 75 %
50 07-12-2019 08:11:18 8.7 C 75 %
Sensor: Nr:Datum:Temp:Feuchte:
G-T/H 51 07-12-2019 08:21:17 8.7 C 75 %
52 07-12-2019 08:31:17 8.7 C 75 %
53 07-12-2019 08:41:17 8.7 C 75 %
54 07-12-2019 08:51:17 8.7 C 75 %
55 07-12-2019 09:01:17 8.7 C 75 %
56 07-12-2019 09:11:17 8.7 C 75 %
57 07-12-2019 09:21:17 8.7 C 75 %
58 07-12-2019 09:31:17 8.8 C 75 %
59 07-12-2019 09:41:17 8.8 C 75 %
60 07-12-2019 09:51:18 8.8 C 75 %
61 07-12-2019 10:01:17 8.8 C 75 %
62 07-12-2019 10:11:17 8.8 C 75 %
63 07-12-2019 10:21:17 8.8 C 75 %
64 07-12-2019 10:31:17 8.8 C 75 %
65 07-12-2019 10:41:17 8.8 C 75 %
66 07-12-2019 10:51:18 8.9 C 75 %
67 07-12-2019 11:01:18 8.9 C 75 %
68 07-12-2019 11:11:18 8.9 C 75 %
69 07-12-2019 11:21:17 8.9 C 75 %
70 07-12-2019 11:31:17 8.9 C 75 %
71 07-12-2019 11:41:17 8.9 C 75 %
72 07-12-2019 11:51:17 9 C 74 %
73 07-12-2019 12:01:17 9.1 C 74 %
74 07-12-2019 12:11:17 9.2 C 74 %
75 07-12-2019 12:21:17 9.2 C 74 %
Sensor: Nr:Datum:Temp:Feuchte:
G-T/H 76 07-12-2019 12:31:18 9.2 C 74 %
77 07-12-2019 12:41:18 9.2 C 74 %
78 07-12-2019 12:51:17 9.2 C 74 %
79 07-12-2019 13:01:17 9.2 C 74 %
80 07-12-2019 13:11:17 9.2 C 74 %
81 07-12-2019 13:21:17 9.2 C 74 %
82 07-12-2019 13:31:17 9.2 C 74 %
83 07-12-2019 13:41:17 9.2 C 74 %
84 07-12-2019 13:51:17 9.2 C 74 %
85 07-12-2019 14:01:17 9.2 C 74 %
86 07-12-2019 14:11:17 9.2 C 74 %
87 07-12-2019 14:21:17 9.2 C 74 %
88 07-12-2019 14:31:18 9.2 C 74 %
89 07-12-2019 14:41:18 9.2 C 74 %
90 07-12-2019 14:51:17 9.2 C 74 %
91 07-12-2019 15:01:17 9.3 C 74 %
92 07-12-2019 15:11:17 9.3 C 74 %
93 07-12-2019 15:21:17 9.2 C 74 %
94 07-12-2019 15:31:17 9.3 C 75 %
95 07-12-2019 15:41:17 9.3 C 75 %
96 07-12-2019 15:51:17 9.3 C 75 %
97 07-12-2019 16:01:17 9.3 C 75 %
98 07-12-2019 16:11:17 9.3 C 75 %
99 07-12-2019 16:21:18 9.3 C 75 %
100 07-12-2019 16:31:17 9.3 C 75 %
Sensor: Nr:Datum:Temp:Feuchte:
G-T/H 101 07-12-2019 16:41:18 9.3 C 75 %
102 07-12-2019 16:51:17 9.3 C 75 %
103 07-12-2019 17:01:17 9.4 C 75 %
104 07-12-2019 17:11:17 9.4 C 75 %
105 07-12-2019 17:21:17 9.3 C 75 %
106 07-12-2019 17:31:18 9.4 C 75 %
107 07-12-2019 17:41:18 9.4 C 75 %
108 07-12-2019 17:51:17 9.4 C 75 %
109 07-12-2019 18:01:18 9.4 C 75 %
110 07-12-2019 18:11:18 9.4 C 75 %
111 07-12-2019 18:21:17 9.5 C 75 %
112 07-12-2019 18:31:17 9.5 C 75 %
113 07-12-2019 18:41:17 9.5 C 75 %
114 07-12-2019 18:51:17 9.5 C 75 %
115 07-12-2019 19:01:17 9.5 C 75 %
116 07-12-2019 19:11:17 9.5 C 75 %
117 07-12-2019 19:21:17 9.5 C 75 %
118 07-12-2019 19:31:17 9.5 C 75 %
119 07-12-2019 19:41:17 9.6 C 75 %
120 07-12-2019 19:51:17 9.5 C 75 %
121 07-12-2019 20:01:18 9.5 C 75 %
122 07-12-2019 20:11:18 9.5 C 75 %
123 07-12-2019 20:21:17 9.6 C 75 %
124 07-12-2019 20:31:17 9.6 C 75 %
125 07-12-2019 20:41:17 9.6 C 75 %
Sensor: Nr:Datum:Temp:Feuchte:
G-T/H 126 07-12-2019 20:51:17 9.6 C 75 %
127 07-12-2019 21:01:17 9.6 C 75 %
128 07-12-2019 21:11:17 9.6 C 75 %
129 07-12-2019 21:21:17 9.6 C 75 %
130 07-12-2019 21:31:17 9.6 C 75 %
131 07-12-2019 21:41:17 9.6 C 75 %
132 07-12-2019 21:51:17 9.6 C 75 %
133 07-12-2019 22:01:17 9.6 C 75 %
134 07-12-2019 22:11:17 9.6 C 75 %
135 07-12-2019 22:21:17 9.7 C 75 %
136 07-12-2019 22:31:18 9.7 C 75 %
137 07-12-2019 22:41:18 9.6 C 75 %
138 07-12-2019 22:51:17 9.7 C 75 %
139 07-12-2019 23:01:17 9.7 C 75 %
140 07-12-2019 23:11:17 9.7 C 75 %
141 07-12-2019 23:21:17 9.7 C 75 %
142 07-12-2019 23:31:17 9.7 C 75 %
143 07-12-2019 23:41:17 9.7 C 75 %
144 07-12-2019 23:51:18 9.7 C 75 %
145 08-12-2019 00:01:17 9.7 C 75 %
146 08-12-2019 00:11:17 9.7 C 75 %
147 08-12-2019 00:21:17 9.7 C 75 %
148 08-12-2019 00:31:18 9.7 C 75 %
149 08-12-2019 00:41:18 9.7 C 75 %
150 08-12-2019 00:51:17 9.7 C 75 %
Sensor: Nr:Datum:Temp:Feuchte:
G-T/H 151 08-12-2019 01:01:18 9.7 C 75 %
152 08-12-2019 01:11:18 9.8 C 75 %
153 08-12-2019 01:21:17 9.8 C 76 %
154 08-12-2019 01:31:17 9.8 C 76 %
155 08-12-2019 01:41:17 9.8 C 76 %
156 08-12-2019 01:51:18 9.8 C 76 %
157 08-12-2019 02:01:17 9.8 C 76 %
158 08-12-2019 02:11:17 9.8 C 75 %
159 08-12-2019 02:21:17 9.8 C 75 %
160 08-12-2019 02:31:17 9.8 C 75 %
161 08-12-2019 02:41:18 9.8 C 75 %
162 08-12-2019 02:51:17 9.8 C 75 %
163 08-12-2019 03:01:17 9.8 C 75 %
164 08-12-2019 03:11:17 9.8 C 75 %
165 08-12-2019 03:21:17 9.8 C 75 %
166 08-12-2019 03:31:17 9.8 C 76 %
167 08-12-2019 03:41:17 9.8 C 75 %
168 08-12-2019 03:51:17 9.9 C 76 %
169 08-12-2019 04:01:17 9.8 C 75 %
170 08-12-2019 04:11:18 9.9 C 75 %
171 08-12-2019 04:21:17 9.9 C 76 %
172 08-12-2019 04:31:17 9.9 C 75 %
173 08-12-2019 04:41:17 9.9 C 76 %
174 08-12-2019 04:51:17 9.9 C 76 %
175 08-12-2019 05:01:17 9.9 C 75 %
Sensor: Nr:Datum:Temp:Feuchte:
G-T/H 176 08-12-2019 05:11:17 9.9 C 76 %
177 08-12-2019 05:21:17 9.9 C 76 %
178 08-12-2019 05:31:17 9.9 C 76 %
179 08-12-2019 05:41:17 9.9 C 76 %
180 08-12-2019 05:51:17 9.9 C 76 %
181 08-12-2019 06:01:17 10 C 74 %
182 08-12-2019 06:11:18 10 C 74 %
183 08-12-2019 06:21:17 10 C 74 %
184 08-12-2019 06:31:17 10 C 74 %
185 08-12-2019 06:41:17 10 C 74 %
186 08-12-2019 06:51:17 10 C 74 %
187 08-12-2019 07:01:18 10 C 74 %
188 08-12-2019 07:11:18 10 C 74 %
189 08-12-2019 07:21:17 10 C 74 %
190 08-12-2019 07:31:17 10 C 74 %
191 08-12-2019 07:41:17 10 C 74 %
192 08-12-2019 07:51:17 10 C 74 %
193 08-12-2019 08:01:17 10 C 74 %
194 08-12-2019 08:11:17 10 C 74 %
195 08-12-2019 08:21:17 10 C 74 %
196 08-12-2019 08:31:17 10 C 74 %
197 08-12-2019 08:41:17 10.1 C 74 %
198 08-12-2019 08:51:17 10.1 C 74 %
199 08-12-2019 09:01:17 10.1 C 74 %
200 08-12-2019 09:11:17 10.1 C 74 %
Sensor: Nr:Datum:Temp:Feuchte:
G-T/H 201 08-12-2019 09:21:17 10.1 C 74 %
202 08-12-2019 09:31:17 10.1 C 74 %
203 08-12-2019 09:41:17 10.1 C 74 %
204 08-12-2019 09:51:17 10.1 C 74 %
205 08-12-2019 10:01:17 10.1 C 74 %
206 08-12-2019 10:11:17 10.1 C 75 %
207 08-12-2019 10:21:17 10.1 C 75 %
208 08-12-2019 10:31:17 10.1 C 75 %
209 08-12-2019 10:41:17 10.1 C 75 %
210 08-12-2019 10:51:17 10.2 C 75 %
211 08-12-2019 11:01:17 10.2 C 75 %
212 08-12-2019 11:11:17 10.2 C 75 %
213 08-12-2019 11:21:17 10.2 C 75 %
214 08-12-2019 11:31:17 10.2 C 75 %
215 08-12-2019 11:41:17 10.2 C 75 %
216 08-12-2019 11:51:17 10.2 C 75 %
217 08-12-2019 12:01:18 10.2 C 75 %
218 08-12-2019 12:11:18 10.2 C 75 %
219 08-12-2019 12:21:17 10.3 C 75 %
220 08-12-2019 12:31:17 10.3 C 75 %
221 08-12-2019 12:41:17 10.3 C 75 %
222 08-12-2019 12:51:17 10.3 C 75 %
223 08-12-2019 13:01:18 10.3 C 75 %
224 08-12-2019 13:11:18 10.3 C 75 %
225 08-12-2019 13:21:17 10.3 C 75 %
Sensor: Nr:Datum:Temp:Feuchte:
G-T/H 226 08-12-2019 13:31:17 10.3 C 75 %
227 08-12-2019 13:41:17 10.4 C 75 %
228 08-12-2019 13:51:17 10.4 C 75 %
229 08-12-2019 14:01:17 10.4 C 75 %
230 08-12-2019 14:11:17 10.4 C 75 %
231 08-12-2019 14:21:17 10.4 C 75 %
232 08-12-2019 14:31:18 10.4 C 75 %
233 08-12-2019 14:41:18 10.4 C 75 %
234 08-12-2019 14:51:17 10.4 C 75 %
235 08-12-2019 15:01:18 10.5 C 75 %
236 08-12-2019 15:11:18 10.5 C 75 %
237 08-12-2019 15:21:18 10.5 C 75 %
238 08-12-2019 15:31:18 10.5 C 75 %
239 08-12-2019 15:41:18 10.5 C 75 %
240 08-12-2019 15:51:17 10.5 C 75 %
241 08-12-2019 16:01:17 10.6 C 75 %
242 08-12-2019 16:11:17 10.6 C 75 %
243 08-12-2019 16:21:18 10.6 C 75 %
244 08-12-2019 16:31:18 10.6 C 76 %
245 08-12-2019 16:41:18 10.6 C 76 %
246 08-12-2019 16:51:17 10.6 C 76 %
247 08-12-2019 17:01:17 10.6 C 76 %
248 08-12-2019 17:11:17 10.6 C 76 %
249 08-12-2019 17:21:17 10.6 C 76 %
250 08-12-2019 17:31:17 10.6 C 76 %
Sensor: Nr:Datum:Temp:Feuchte:
G-T/H 251 08-12-2019 17:41:17 10.6 C 76 %
252 08-12-2019 17:51:17 10.6 C 76 %
253 08-12-2019 18:01:17 10.6 C 76 %
254 08-12-2019 18:11:17 10.6 C 76 %
255 08-12-2019 18:21:17 10.6 C 76 %
256 08-12-2019 18:31:18 10.6 C 76 %
257 08-12-2019 18:41:18 10.7 C 76 %
258 08-12-2019 18:51:17 10.7 C 76 %
259 08-12-2019 19:01:17 10.7 C 76 %
260 08-12-2019 19:11:17 10.7 C 76 %
261 08-12-2019 19:21:17 10.7 C 76 %
262 08-12-2019 19:31:17 10.7 C 76 %
263 08-12-2019 19:41:17 10.7 C 76 %
264 08-12-2019 19:51:18 10.7 C 76 %
265 08-12-2019 20:01:17 10.7 C 76 %
266 08-12-2019 20:11:17 10.7 C 76 %
267 08-12-2019 20:21:17 10.7 C 76 %
268 08-12-2019 20:31:17 10.7 C 76 %
269 08-12-2019 20:41:17 10.7 C 76 %
270 08-12-2019 20:51:17 10.7 C 76 %
271 08-12-2019 21:01:18 10.7 C 76 %
272 08-12-2019 21:11:18 10.7 C 76 %
273 08-12-2019 21:21:17 10.7 C 76 %
274 08-12-2019 21:31:17 10.7 C 76 %
275 08-12-2019 21:41:17 10.7 C 76 %
Sensor: Nr:Datum:Temp:Feuchte:
G-T/H 276 08-12-2019 21:51:18 10.7 C 76 %
277 08-12-2019 22:01:17 10.7 C 75 %
278 08-12-2019 22:11:17 10.7 C 76 %
279 08-12-2019 22:21:17 10.7 C 75 %
280 08-12-2019 22:31:17 10.7 C 75 %
281 08-12-2019 22:41:17 10.7 C 75 %
282 08-12-2019 22:51:17 10.7 C 75 %
283 08-12-2019 23:01:17 10.7 C 75 %
284 08-12-2019 23:11:17 10.7 C 75 %
285 08-12-2019 23:21:17 10.7 C 75 %
286 08-12-2019 23:31:18 10.7 C 75 %
287 08-12-2019 23:41:18 10.7 C 75 %
288 08-12-2019 23:51:17 10.7 C 75 %
289 09-12-2019 00:01:18 10.7 C 75 %
290 09-12-2019 00:11:18 10.7 C 75 %
291 09-12-2019 00:21:17 10.7 C 75 %
292 09-12-2019 00:31:17 10.7 C 75 %
293 09-12-2019 00:41:17 10.7 C 75 %
294 09-12-2019 00:51:17 10.7 C 75 %
295 09-12-2019 01:01:17 10.7 C 75 %
296 09-12-2019 01:11:17 10.7 C 75 %
297 09-12-2019 01:21:18 10.7 C 75 %
298 09-12-2019 01:31:17 10.7 C 75 %
299 09-12-2019 01:41:17 10.7 C 75 %
300 09-12-2019 01:51:17 10.7 C 75 %
Sensor: Nr:Datum:Temp:Feuchte:
G-T/H 301 09-12-2019 02:01:17 10.7 C 75 %
302 09-12-2019 02:11:17 10.7 C 75 %
303 09-12-2019 02:21:17 10.7 C 75 %
304 09-12-2019 02:31:18 10.7 C 75 %
305 09-12-2019 02:41:18 10.7 C 75 %
306 09-12-2019 02:51:18 10.7 C 75 %
307 09-12-2019 03:01:17 10.6 C 75 %
308 09-12-2019 03:11:17 10.7 C 74 %
309 09-12-2019 03:21:17 10.6 C 74 %
310 09-12-2019 03:31:17 10.6 C 74 %
311 09-12-2019 03:41:17 10.6 C 74 %
312 09-12-2019 03:51:17 10.6 C 74 %
313 09-12-2019 04:01:17 10.6 C 74 %
314 09-12-2019 04:11:17 10.6 C 74 %
315 09-12-2019 04:21:18 10.6 C 74 %
316 09-12-2019 04:31:18 10.6 C 74 %
317 09-12-2019 04:41:18 10.6 C 74 %
318 09-12-2019 04:51:17 10.6 C 74 %
319 09-12-2019 05:01:17 10.6 C 74 %
320 09-12-2019 05:11:17 10.6 C 74 %
321 09-12-2019 05:21:17 10.6 C 74 %
322 09-12-2019 05:31:17 10.6 C 74 %
323 09-12-2019 05:41:18 10.5 C 74 %
324 09-12-2019 05:51:17 10.5 C 74 %
325 09-12-2019 06:01:17 10.5 C 74 %
Sensor: Nr:Datum:Temp:Feuchte:
G-T/H 326 09-12-2019 06:11:17 10.5 C 74 %
327 09-12-2019 06:21:17 10.5 C 74 %
328 09-12-2019 06:31:17 10.5 C 74 %
329 09-12-2019 06:41:17 10.5 C 74 %
330 09-12-2019 06:51:18 10.5 C 74 %
331 09-12-2019 07:01:17 10.5 C 74 %
332 09-12-2019 07:11:18 10.5 C 74 %
333 09-12-2019 07:21:17 10.5 C 74 %
334 09-12-2019 07:31:17 10.5 C 74 %
335 09-12-2019 07:41:17 10.5 C 74 %
336 09-12-2019 07:51:18 10.4 C 74 %
337 09-12-2019 08:01:17 10.4 C 74 %
338 09-12-2019 08:11:17 10.5 C 74 %
339 09-12-2019 08:21:17 10.5 C 74 %
340 09-12-2019 08:31:17 10.4 C 74 %
341 09-12-2019 08:41:17 10.5 C 74 %
342 09-12-2019 08:51:17 10.4 C 74 %
343 09-12-2019 09:01:17 10.4 C 74 %
344 09-12-2019 09:11:17 10.4 C 74 %
345 09-12-2019 09:21:17 10.4 C 74 %
346 09-12-2019 09:31:17 10.4 C 74 %
347 09-12-2019 09:41:17 10.4 C 74 %
348 09-12-2019 09:51:17 10.4 C 74 %
349 09-12-2019 10:01:17 10.4 C 74 %
350 09-12-2019 10:11:17 10.4 C 74 %
Sensor: Nr:Datum:Temp:Feuchte:
G-T/H 351 09-12-2019 10:21:17 10.4 C 74 %
352 09-12-2019 10:31:18 10.4 C 74 %
353 09-12-2019 10:41:18 10.4 C 74 %
354 09-12-2019 10:51:17 10.4 C 74 %
355 09-12-2019 11:01:17 10.4 C 74 %
356 09-12-2019 11:11:17 10.4 C 74 %
357 09-12-2019 11:21:17 10.4 C 74 %
358 09-12-2019 11:31:18 10.4 C 74 %
359 09-12-2019 11:41:18 10.4 C 74 %
360 09-12-2019 11:51:17 10.4 C 74 %
361 09-12-2019 12:01:17 10.4 C 74 %
362 09-12-2019 12:11:17 10.4 C 74 %
363 09-12-2019 12:21:18 10.4 C 74 %
364 09-12-2019 12:31:17 10.4 C 74 %
365 09-12-2019 12:41:17 10.4 C 74 %
366 09-12-2019 12:51:17 10.4 C 74 %
367 09-12-2019 13:01:18 10.4 C 74 %
368 09-12-2019 13:11:18 10.4 C 74 %
369 09-12-2019 13:21:17 10.4 C 74 %
370 09-12-2019 13:31:17 10.4 C 74 %
371 09-12-2019 13:41:17 10.4 C 74 %
372 09-12-2019 13:51:17 10.4 C 74 %
373 09-12-2019 14:01:17 10.4 C 74 %
374 09-12-2019 14:11:17 10.4 C 74 %
375 09-12-2019 14:21:17 10.4 C 74 %
Sensor: Nr:Datum:Temp:Feuchte:
G-T/H 376 09-12-2019 14:31:17 10.5 C 74 %
377 09-12-2019 14:41:17 10.4 C 74 %
378 09-12-2019 14:51:18 10.4 C 74 %
379 09-12-2019 15:01:17 10.5 C 74 %
380 09-12-2019 15:11:17 10.5 C 74 %
381 09-12-2019 15:21:17 10.5 C 74 %
382 09-12-2019 15:31:18 10.5 C 74 %
383 09-12-2019 15:41:18 10.5 C 74 %
384 09-12-2019 15:51:17 10.4 C 74 %
385 09-12-2019 16:01:18 10.5 C 74 %
386 09-12-2019 16:11:18 10.5 C 74 %
387 09-12-2019 16:21:17 10.5 C 74 %
388 09-12-2019 16:31:18 10.5 C 74 %
389 09-12-2019 16:41:18 10.5 C 74 %
390 09-12-2019 16:51:17 10.4 C 74 %
391 09-12-2019 17:01:18 10.4 C 74 %
392 09-12-2019 17:11:18 10.5 C 74 %
393 09-12-2019 17:21:17 10.5 C 74 %
394 09-12-2019 17:31:17 10.5 C 74 %
395 09-12-2019 17:41:17 10.5 C 74 %
396 09-12-2019 17:51:17 10.5 C 74 %
397 09-12-2019 18:01:18 10.5 C 74 %
398 09-12-2019 18:11:18 10.5 C 74 %
399 09-12-2019 18:21:17 10.5 C 74 %
400 09-12-2019 18:31:17 10.5 C 74 %
Sensor: Nr:Datum:Temp:Feuchte:
G-T/H 401 09-12-2019 18:41:17 10.5 C 74 %
402 09-12-2019 18:51:18 10.5 C 74 %
403 09-12-2019 19:01:17 10.5 C 74 %
404 09-12-2019 19:11:17 10.5 C 74 %
405 09-12-2019 19:21:17 10.4 C 74 %
406 09-12-2019 19:31:17 10.5 C 74 %
407 09-12-2019 19:41:17 10.5 C 74 %
408 09-12-2019 19:51:17 10.5 C 74 %
409 09-12-2019 20:01:17 10.5 C 74 %
410 09-12-2019 20:11:17 10.4 C 74 %
411 09-12-2019 20:21:17 10.4 C 74 %
412 09-12-2019 20:31:17 10.4 C 74 %
413 09-12-2019 20:41:17 10.4 C 74 %
414 09-12-2019 20:51:17 10.4 C 74 %
415 09-12-2019 21:01:17 10.4 C 74 %
416 09-12-2019 21:11:18 10.4 C 74 %
417 09-12-2019 21:21:17 10.4 C 74 %
418 09-12-2019 21:31:17 10.4 C 74 %
419 09-12-2019 21:41:17 10.4 C 74 %
420 09-12-2019 21:51:17 10.4 C 74 %
421 09-12-2019 22:01:17 10.4 C 74 %
422 09-12-2019 22:11:17 10.4 C 74 %
423 09-12-2019 22:21:17 10.4 C 74 %
424 09-12-2019 22:31:17 10.3 C 74 %
425 09-12-2019 22:41:17 10.4 C 74 %
Sensor: Nr:Datum:Temp:Feuchte:
G-T/H 426 09-12-2019 22:51:18 10.4 C 74 %
427 09-12-2019 23:01:17 10.3 C 74 %
428 09-12-2019 23:11:17 10.3 C 74 %
429 09-12-2019 23:21:17 10.3 C 74 %
430 09-12-2019 23:31:18 10.2 C 73 %
431 09-12-2019 23:41:18 10.2 C 73 %
432 09-12-2019 23:51:17 10.2 C 73 %
433 10-12-2019 00:01:17 10.2 C 73 %
434 10-12-2019 00:11:17 10.2 C 72 %
435 10-12-2019 00:21:17 10.2 C 72 %
436 10-12-2019 00:31:17 10.1 C 72 %
437 10-12-2019 00:41:17 10.1 C 72 %
438 10-12-2019 00:51:17 10.1 C 72 %
439 10-12-2019 01:01:17 10.1 C 72 %
440 10-12-2019 01:11:17 10.1 C 71 %
441 10-12-2019 01:21:17 10.1 C 71 %
442 10-12-2019 01:31:18 10 C 71 %
443 10-12-2019 01:41:18 10 C 71 %
444 10-12-2019 01:51:17 10 C 71 %
445 10-12-2019 02:01:18 10 C 71 %
446 10-12-2019 02:11:18 9.9 C 72 %
447 10-12-2019 02:21:17 9.9 C 72 %
448 10-12-2019 02:31:17 9.9 C 71 %
449 10-12-2019 02:41:17 9.9 C 71 %
450 10-12-2019 02:51:17 9.9 C 71 %
Sensor: Nr:Datum:Temp:Feuchte:
G-T/H 451 10-12-2019 03:01:17 9.8 C 71 %
452 10-12-2019 03:11:17 9.8 C 71 %
453 10-12-2019 03:21:17 9.8 C 71 %
454 10-12-2019 03:31:17 9.8 C 71 %
455 10-12-2019 03:41:17 9.7 C 71 %
456 10-12-2019 03:51:17 9.8 C 71 %
457 10-12-2019 04:01:17 9.7 C 71 %
458 10-12-2019 04:11:17 9.7 C 71 %
459 10-12-2019 04:21:17 9.7 C 71 %
460 10-12-2019 04:31:18 9.7 C 71 %
461 10-12-2019 04:41:18 9.7 C 71 %
462 10-12-2019 04:51:17 9.7 C 71 %
463 10-12-2019 05:01:17 9.7 C 71 %
464 10-12-2019 05:11:17 9.7 C 71 %
465 10-12-2019 05:21:18 9.7 C 71 %
466 10-12-2019 05:31:18 9.7 C 71 %
467 10-12-2019 05:41:18 9.7 C 71 %
468 10-12-2019 05:51:17 9.7 C 71 %
469 10-12-2019 06:01:17 9.7 C 71 %
470 10-12-2019 06:11:17 9.7 C 71 %
471 10-12-2019 06:21:18 9.6 C 71 %
472 10-12-2019 06:31:17 9.6 C 71 %
473 10-12-2019 06:41:17 9.6 C 71 %
474 10-12-2019 06:51:17 9.6 C 71 %
475 10-12-2019 07:01:18 9.6 C 72 %
Sensor: Nr:Datum:Temp:Feuchte:
G-T/H 476 10-12-2019 07:11:18 9.6 C 72 %
477 10-12-2019 07:21:17 9.6 C 72 %
478 10-12-2019 07:31:17 9.6 C 72 %
479 10-12-2019 07:41:17 9.6 C 72 %
480 10-12-2019 07:51:17 9.6 C 72 %
481 10-12-2019 08:01:17 9.5 C 71 %
482 10-12-2019 08:11:17 9.5 C 71 %
483 10-12-2019 08:21:17 9.5 C 71 %
484 10-12-2019 08:31:18 9.5 C 71 %
485 10-12-2019 08:41:18 9.4 C 71 %
486 10-12-2019 08:51:17 9.4 C 71 %
487 10-12-2019 09:01:17 9.4 C 71 %
488 10-12-2019 09:11:17 9.4 C 71 %
489 10-12-2019 09:21:17 9.4 C 71 %
490 10-12-2019 09:31:17 9.4 C 71 %
491 10-12-2019 09:41:17 9.4 C 71 %
492 10-12-2019 09:51:17 9.4 C 71 %
493 10-12-2019 10:01:17 9.4 C 71 %
494 10-12-2019 10:11:17 9.4 C 71 %
495 10-12-2019 10:21:17 9.3 C 71 %
496 10-12-2019 10:31:17 9.3 C 71 %
497 10-12-2019 10:41:17 9.3 C 71 %
498 10-12-2019 10:51:17 9.3 C 71 %
499 10-12-2019 11:01:17 9.3 C 71 %
500 10-12-2019 11:11:17 9.3 C 71 %
Sensor: Nr:Datum:Temp:Feuchte:
G-T/H 501 10-12-2019 11:21:17 9.3 C 71 %
502 10-12-2019 11:31:18 9.3 C 71 %
503 10-12-2019 11:41:18 9.3 C 71 %
504 10-12-2019 11:51:17 9.2 C 71 %
505 10-12-2019 12:01:17 9.3 C 72 %
506 10-12-2019 12:11:17 9.2 C 72 %
507